Time,TemperatureF,DewpointF,PressureIn,WindDirection,WindDirectionDegrees,WindSpeedMPH,WindSpeedGustMPH,Humidity,HourlyPrecipIn,Conditions,Clouds,dailyrainin,SoftwareType,DateUTC
2013-01-23 00:00:00,46.0,40.5,30.30,NNW,338,0.0,0.0,81,0.00,,---,0.00,VWS V14.01,2013-01-23 05:00:00,
2013-01-23 00:01:00,49.8,42.6,30.30,NNW,338,0.0,0.0,76,0.00,,---,0.00,VWS V14.01,2013-01-23 05:01:00,
2013-01-23 00:02:00,46.0,40.9,30.30,NNW,338,0.0,0.0,82,0.00,,---,0.00,VWS V14.01,2013-01-23 05:02:00,
2013-01-23 00:03:00,46.0,40.9,30.30,NNW,338,0.0,0.0,82,0.00,,---,0.00,VWS V14.01,2013-01-23 05:03:00,
2013-01-23 00:04:00,49.8,42.6,30.30,NNW,338,0.0,0.0,76,0.00,,---,0.00,VWS V14.01,2013-01-23 05:04:00,
2013-01-23 00:05:00,49.8,42.6,30.30,NNW,338,0.0,0.0,76,0.00,,---,0.00,VWS V14.01,2013-01-23 05:05:00,
2013-01-23 00:06:00,49.6,42.4,30.30,NNW,338,0.0,0.0,76,0.00,,---,0.00,VWS V14.01,2013-01-23 05:06:00,
2013-01-23 00:07:00,49.6,42.4,30.30,NNW,338,0.0,0.0,76,0.00,,---,0.00,VWS V14.01,2013-01-23 05:07:00,
2013-01-23 00:08:00,45.5,40.3,30.27,NNW,338,0.0,0.0,82,0.00,,---,0.00,VWS V14.01,2013-01-23 05:08:00,
2013-01-23 00:09:00,49.6,42.4,30.30,NNW,338,0.0,0.0,76,0.00,,---,0.00,VWS V14.01,2013-01-23 05:09:00,
2013-01-23 00:10:00,49.6,42.4,30.30,NNW,338,0.0,0.0,76,0.00,,---,0.00,VWS V14.01,2013-01-23 05:10:00,
2013-01-23 00:11:00,49.6,42.4,30.30,NNW,338,0.0,0.0,76,0.00,,---,0.00,VWS V14.01,2013-01-23 05:11:00,
2013-01-23 00:12:00,49.6,42.4,30.30,NNW,338,0.0,0.0,76,0.00,,---,0.00,VWS V14.01,2013-01-23 05:12:00,
2013-01-23 00:13:00,45.5,40.3,30.27,NNW,338,0.0,0.0,82,0.00,,---,0.00,VWS V14.01,2013-01-23 05:13:00,
2013-01-23 00:14:00,49.5,42.6,30.30,NNW,338,0.0,0.0,77,0.00,,---,0.00,VWS V14.01,2013-01-23 05:14:00,
2013-01-23 00:15:00,49.5,42.6,30.30,NNW,338,0.0,0.0,77,0.00,,---,0.00,VWS V14.01,2013-01-23 05:15:00,
2013-01-23 00:16:00,49.5,42.2,30.30,NNW,338,0.0,0.0,76,0.00,,---,0.00,VWS V14.01,2013-01-23 05:16:00,
2013-01-23 00:17:00,49.5,42.2,30.27,NNW,338,0.0,0.0,76,0.00,,---,0.00,VWS V14.01,2013-01-23 05:17:00,
2013-01-23 00:18:00,45.1,40.3,30.27,NNW,338,0.0,0.0,83,0.00,,---,0.00,VWS V14.01,2013-01-23 05:18:00,
2013-01-23 00:19:00,49.3,42.0,30.27,NNW,338,0.0,0.0,76,0.00,,---,0.00,VWS V14.01,2013-01-23 05:19:00,
2013-01-23 00:20:00,49.3,42.0,30.27,NNW,338,0.0,0.0,76,0.00,,---,0.00,VWS V14.01,2013-01-23 05:20:00,
2013-01-23 00:21:00,49.3,42.0,30.27,NNW,338,0.0,0.0,76,0.00,,---,0.00,VWS V14.01,2013-01-23 05:21:00,
2013-01-23 00:22:00,49.3,42.0,30.27,NNW,338,0.0,0.0,76,0.00,,---,0.00,VWS V14.01,2013-01-23 05:22:00,
2013-01-23 00:23:00,45.1,40.6,30.30,NNW,338,0.0,0.0,84,0.00,,---,0.00,VWS V14.01,2013-01-23 05:23:00,
2013-01-23 00:24:00,49.3,42.4,30.27,NNW,338,0.0,0.0,77,0.00,,---,0.00,VWS V14.01,2013-01-23 05:24:00,
2013-01-23 00:25:00,49.3,42.4,30.27,NNW,338,0.0,0.0,77,0.00,,---,0.00,VWS V14.01,2013-01-23 05:25:00,
2013-01-23 00:26:00,49.3,42.4,30.27,NNW,338,0.0,0.0,77,0.00,,---,0.00,VWS V14.01,2013-01-23 05:26:00,
2013-01-23 00:27:00,49.3,42.4,30.27,NNW,338,0.0,0.0,77,0.00,,---,0.00,VWS V14.01,2013-01-23 05:27:00,
2013-01-23 00:28:00,45.1,40.6,30.30,NNW,338,0.0,0.0,84,0.00,,---,0.00,VWS V14.01,2013-01-23 05:28:00,
2013-01-23 00:29:00,49.1,42.2,30.27,NNW,338,0.0,0.0,77,0.00,,---,0.00,VWS V14.01,2013-01-23 05:29:00,
2013-01-23 00:30:00,49.1,42.2,30.27,NNW,338,0.0,0.0,77,0.00,,---,0.00,VWS V14.01,2013-01-23 05:30:00,
2013-01-23 00:31:00,49.1,42.2,30.27,NNW,338,0.0,0.0,77,0.00,,---,0.00,VWS V14.01,2013-01-23 05:31:00,
2013-01-23 00:32:00,49.1,42.2,30.27,NNW,338,0.0,0.0,77,0.00,,---,0.00,VWS V14.01,2013-01-23 05:32:00,
2013-01-23 00:33:00,45.0,40.4,30.30,NNW,338,0.0,0.0,84,0.00,,---,0.00,VWS V14.01,2013-01-23 05:33:00,
2013-01-23 00:34:00,49.1,42.2,30.27,NNW,338,0.0,0.0,77,0.00,,---,0.00,VWS V14.01,2013-01-23 05:34:00,
2013-01-23 00:35:00,49.1,42.2,30.27,NNW,338,0.0,0.0,77,0.00,,---,0.00,VWS V14.01,2013-01-23 05:35:00,
2013-01-23 00:36:00,49.1,42.2,30.27,NNW,338,0.0,0.0,77,0.00,,---,0.00,VWS V14.01,2013-01-23 05:36:00,
2013-01-23 00:37:00,49.1,42.2,30.27,NNW,338,0.0,0.0,77,0.00,,---,0.00,VWS V14.01,2013-01-23 05:37:00,
2013-01-23 00:38:00,45.3,41.1,30.27,NNW,338,0.0,0.0,85,0.00,,---,0.00,VWS V14.01,2013-01-23 05:38:00,
2013-01-23 00:39:00,49.1,42.2,30.27,NNW,338,0.0,0.0,77,0.00,,---,0.00,VWS V14.01,2013-01-23 05:39:00,
2013-01-23 00:40:00,48.9,42.0,30.27,NNW,338,0.0,0.0,77,0.00,,---,0.00,VWS V14.01,2013-01-23 05:40:00,
2013-01-23 00:41:00,48.9,42.0,30.27,NNW,338,0.0,0.0,77,0.00,,---,0.00,VWS V14.01,2013-01-23 05:41:00,
2013-01-23 00:42:00,48.7,41.9,30.27,NNW,338,0.0,0.0,77,0.00,,---,0.00,VWS V14.01,2013-01-23 05:42:00,
2013-01-23 00:43:00,45.5,41.3,30.27,NNW,338,0.0,0.0,85,0.00,,---,0.00,VWS V14.01,2013-01-23 05:43:00,
2013-01-23 00:44:00,48.6,41.7,30.27,NNW,338,0.0,0.0,77,0.00,,---,0.00,VWS V14.01,2013-01-23 05:44:00,
2013-01-23 00:45:00,48.6,41.7,30.27,NNW,338,0.0,0.0,77,0.00,,---,0.00,VWS V14.01,2013-01-23 05:45:00,
2013-01-23 00:46:00,48.4,41.5,30.27,NNW,338,0.0,0.0,77,0.00,,---,0.00,VWS V14.01,2013-01-23 05:46:00,
2013-01-23 00:47:00,48.4,41.5,30.27,NNW,338,0.0,0.0,77,0.00,,---,0.00,VWS V14.01,2013-01-23 05:47:00,
2013-01-23 00:48:00,45.9,41.6,30.27,NNW,338,0.0,0.0,85,0.00,,---,0.00,VWS V14.01,2013-01-23 05:48:00,
2013-01-23 00:49:00,48.2,41.3,30.27,NNW,338,0.0,0.0,77,0.00,,---,0.00,VWS V14.01,2013-01-23 05:49:00,
2013-01-23 00:50:00,48.2,41.3,30.27,NNW,338,0.0,0.0,77,0.00,,---,0.00,VWS V14.01,2013-01-23 05:50:00,
2013-01-23 00:51:00,48.2,41.3,30.27,NNW,338,0.0,0.0,77,0.00,,---,0.00,VWS V14.01,2013-01-23 05:51:00,
2013-01-23 00:52:00,48.0,41.5,30.27,NNW,338,0.0,0.0,78,0.00,,---,0.00,VWS V14.01,2013-01-23 05:52:00,
2013-01-23 00:53:00,46.6,42.6,30.30,NNW,338,0.0,0.0,86,0.00,,---,0.00,VWS V14.01,2013-01-23 05:53:00,
2013-01-23 00:54:00,48.0,41.5,30.27,NNW,338,0.0,0.0,78,0.00,,---,0.00,VWS V14.01,2013-01-23 05:54:00,
2013-01-23 00:55:00,47.8,41.3,30.27,NNW,338,0.0,0.0,78,0.00,,---,0.00,VWS V14.01,2013-01-23 05:55:00,
2013-01-23 00:56:00,48.0,41.5,30.27,NNW,338,0.0,0.0,78,0.00,,---,0.00,VWS V14.01,2013-01-23 05:56:00,
2013-01-23 00:57:00,47.8,41.3,30.27,NNW,338,0.0,0.0,78,0.00,,---,0.00,VWS V14.01,2013-01-23 05:57:00,
2013-01-23 00:58:00,46.9,43.3,30.30,NNW,338,0.0,0.0,87,0.00,,---,0.00,VWS V14.01,2013-01-23 05:58:00,
2013-01-23 00:59:00,47.7,41.2,30.27,NNW,338,0.0,0.0,78,0.00,,---,0.00,VWS V14.01,2013-01-23 05:59:00,
2013-01-23 01:00:00,47.7,41.5,30.27,NNW,338,0.0,0.0,79,0.00,,---,0.00,VWS V14.01,2013-01-23 06:00:00,
2013-01-23 01:01:00,47.7,41.5,30.27,NNW,338,0.0,0.0,79,0.00,,---,0.00,VWS V14.01,2013-01-23 06:01:00,
2013-01-23 01:02:00,47.5,41.3,30.27,NNW,338,0.0,0.0,79,0.00,,---,0.00,VWS V14.01,2013-01-23 06:02:00,
2013-01-23 01:03:00,47.1,43.5,30.30,NNW,338,0.0,0.0,87,0.00,,---,0.00,VWS V14.01,2013-01-23 06:03:00,
2013-01-23 01:04:00,47.3,41.1,30.27,NNW,338,0.0,0.0,79,0.00,,---,0.00,VWS V14.01,2013-01-23 06:04:00,
2013-01-23 01:05:00,47.3,41.1,30.27,NNW,338,0.0,0.0,79,0.00,,---,0.00,VWS V14.01,2013-01-23 06:05:00,
2013-01-23 01:06:00,47.3,41.1,30.27,NNW,338,0.0,0.0,79,0.00,,---,0.00,VWS V14.01,2013-01-23 06:06:00,
2013-01-23 01:07:00,47.1,41.0,30.27,NNW,338,0.0,0.0,79,0.00,,---,0.00,VWS V14.01,2013-01-23 06:07:00,
2013-01-23 01:08:00,47.1,43.5,30.27,NNW,338,0.0,0.0,87,0.00,,---,0.00,VWS V14.01,2013-01-23 06:08:00,
2013-01-23 01:09:00,47.1,41.0,30.27,NNW,338,0.0,0.0,79,0.00,,---,0.00,VWS V14.01,2013-01-23 06:09:00,
2013-01-23 01:10:00,47.1,41.0,30.27,NNW,338,0.0,0.0,79,0.00,,---,0.00,VWS V14.01,2013-01-23 06:10:00,
2013-01-23 01:11:00,47.1,41.0,30.27,NNW,338,0.0,0.0,79,0.00,,---,0.00,VWS V14.01,2013-01-23 06:11:00,
2013-01-23 01:12:00,47.1,41.0,30.27,NNW,338,0.0,0.0,79,0.00,,---,0.00,VWS V14.01,2013-01-23 06:12:00,
2013-01-23 01:13:00,46.9,43.0,30.27,NNW,338,0.0,0.0,86,0.00,,---,0.00,VWS V14.01,2013-01-23 06:13:00,
2013-01-23 01:14:00,46.8,40.9,30.27,NNW,338,0.0,0.0,80,0.00,,---,0.00,VWS V14.01,2013-01-23 06:14:00,
2013-01-23 01:15:00,46.6,40.8,30.27,NNW,338,0.0,0.0,80,0.00,,---,0.00,VWS V14.01,2013-01-23 06:15:00,
2013-01-23 01:16:00,46.6,40.8,30.27,NNW,338,0.0,0.0,80,0.00,,---,0.00,VWS V14.01,2013-01-23 06:16:00,
2013-01-23 01:17:00,46.6,40.8,30.30,NNW,338,0.0,0.0,80,0.00,,---,0.00,VWS V14.01,2013-01-23 06:17:00,
2013-01-23 01:18:00,46.6,42.6,30.27,NNW,338,0.0,0.0,86,0.00,,---,0.00,VWS V14.01,2013-01-23 06:18:00,
2013-01-23 01:19:00,46.6,40.8,30.30,NNW,338,0.0,0.0,80,0.00,,---,0.00,VWS V14.01,2013-01-23 06:19:00,
2013-01-23 01:20:00,46.4,40.6,30.30,NNW,338,0.0,0.0,80,0.00,,---,0.00,VWS V14.01,2013-01-23 06:20:00,
2013-01-23 01:21:00,46.4,40.6,30.30,NNW,338,0.0,0.0,80,0.00,,---,0.00,VWS V14.01,2013-01-23 06:21:00,
2013-01-23 01:22:00,46.2,40.7,30.30,NNW,338,0.0,0.0,81,0.00,,---,0.00,VWS V14.01,2013-01-23 06:22:00,
2013-01-23 01:23:00,46.4,42.1,30.30,NNW,338,0.0,0.0,85,0.00,,---,0.00,VWS V14.01,2013-01-23 06:23:00,
2013-01-23 01:24:00,46.0,40.5,30.30,NNW,338,0.0,0.0,81,0.00,,---,0.00,VWS V14.01,2013-01-23 06:24:00,
2013-01-23 01:25:00,46.0,40.5,30.30,NNW,338,0.0,0.0,81,0.00,,---,0.00,VWS V14.01,2013-01-23 06:25:00,
2013-01-23 01:26:00,46.0,40.5,30.30,NNW,338,0.0,0.0,81,0.00,,---,0.00,VWS V14.01,2013-01-23 06:26:00,
2013-01-23 01:27:00,46.0,40.5,30.30,NNW,338,0.0,0.0,81,0.00,,---,0.00,VWS V14.01,2013-01-23 06:27:00,
2013-01-23 01:28:00,46.0,41.8,30.30,NNW,338,0.0,0.0,85,0.00,,---,0.00,VWS V14.01,2013-01-23 06:28:00,
2013-01-23 01:29:00,46.0,40.9,30.30,NNW,338,0.0,0.0,82,0.00,,---,0.00,VWS V14.01,2013-01-23 06:29:00,
2013-01-23 01:30:00,46.0,40.9,30.30,NNW,338,0.0,0.0,82,0.00,,---,0.00,VWS V14.01,2013-01-23 06:30:00,
2013-01-23 01:31:00,45.9,40.7,30.30,NNW,338,0.0,0.0,82,0.00,,---,0.00,VWS V14.01,2013-01-23 06:31:00,
2013-01-23 01:32:00,45.9,40.7,30.27,NNW,338,0.0,0.0,82,0.00,,---,0.00,VWS V14.01,2013-01-23 06:32:00,
2013-01-23 01:33:00,46.2,42.3,30.30,NNW,338,0.0,0.0,86,0.00,,---,0.00,VWS V14.01,2013-01-23 06:33:00,
2013-01-23 01:34:00,45.5,40.3,30.27,NNW,338,0.0,0.0,82,0.00,,---,0.00,VWS V14.01,2013-01-23 06:34:00,
2013-01-23 01:35:00,45.5,40.3,30.27,NNW,338,0.0,0.0,82,0.00,,---,0.00,VWS V14.01,2013-01-23 06:35:00,
2013-01-23 01:36:00,45.5,40.3,30.27,NNW,338,0.0,0.0,82,0.00,,---,0.00,VWS V14.01,2013-01-23 06:36:00,
2013-01-23 01:37:00,45.5,40.3,30.27,NNW,338,0.0,0.0,82,0.00,,---,0.00,VWS V14.01,2013-01-23 06:37:00,
2013-01-23 01:38:00,46.4,42.1,30.27,NNW,338,0.0,0.0,85,0.00,,---,0.00,VWS V14.01,2013-01-23 06:38:00,
2013-01-23 01:39:00,45.5,40.3,30.27,NNW,338,0.0,0.0,82,0.00,,---,0.00,VWS V14.01,2013-01-23 06:39:00,
2013-01-23 01:40:00,45.5,40.3,30.27,NNW,338,0.0,0.0,82,0.00,,---,0.00,VWS V14.01,2013-01-23 06:40:00,
2013-01-23 01:41:00,45.5,40.7,30.27,NNW,338,0.0,0.0,83,0.00,,---,0.00,VWS V14.01,2013-01-23 06:41:00,
2013-01-23 01:42:00,45.5,40.7,30.27,NNW,338,0.0,0.0,83,0.00,,---,0.00,VWS V14.01,2013-01-23 06:42:00,
2013-01-23 01:43:00,46.8,42.5,30.27,NNW,338,0.0,0.0,85,0.00,,---,0.00,VWS V14.01,2013-01-23 06:43:00,
2013-01-23 01:44:00,45.3,40.5,30.27,NNW,338,0.0,0.0,83,0.00,,---,0.00,VWS V14.01,2013-01-23 06:44:00,
2013-01-23 01:45:00,45.1,40.3,30.27,NNW,338,0.0,0.0,83,0.00,,---,0.00,VWS V14.01,2013-01-23 06:45:00,
2013-01-23 01:46:00,45.1,40.3,30.27,NNW,338,0.0,0.0,83,0.00,,---,0.00,VWS V14.01,2013-01-23 06:46:00,
2013-01-23 01:47:00,45.1,40.3,30.30,NNW,338,0.0,0.0,83,0.00,,---,0.00,VWS V14.01,2013-01-23 06:47:00,
2013-01-23 01:48:00,47.1,43.2,30.27,NNW,338,0.0,0.0,86,0.00,,---,0.00,VWS V14.01,2013-01-23 06:48:00,
2013-01-23 01:49:00,45.1,40.3,30.30,NNW,338,0.0,0.0,83,0.00,,---,0.00,VWS V14.01,2013-01-23 06:49:00,
2013-01-23 01:50:00,45.1,40.6,30.30,NNW,338,0.0,0.0,84,0.00,,---,0.00,VWS V14.01,2013-01-23 06:50:00,
2013-01-23 01:51:00,45.1,40.6,30.30,NNW,338,0.0,0.0,84,0.00,,---,0.00,VWS V14.01,2013-01-23 06:51:00,
2013-01-23 01:52:00,45.1,40.6,30.30,NNW,338,0.0,0.0,84,0.00,,---,0.00,VWS V14.01,2013-01-23 06:52:00,
2013-01-23 01:53:00,47.5,43.2,30.30,NNW,338,0.0,0.0,85,0.00,,---,0.00,VWS V14.01,2013-01-23 06:53:00,
2013-01-23 01:54:00,45.1,40.6,30.30,NNW,338,0.0,0.0,84,0.00,,---,0.00,VWS V14.01,2013-01-23 06:54:00,
2013-01-23 01:55:00,45.1,40.6,30.30,NNW,338,0.0,0.0,84,0.00,,---,0.00,VWS V14.01,2013-01-23 06:55:00,
2013-01-23 01:56:00,45.0,40.4,30.30,NNW,338,0.0,0.0,84,0.00,,---,0.00,VWS V14.01,2013-01-23 06:56:00,
2013-01-23 01:57:00,45.0,40.4,30.30,NNW,338,0.0,0.0,84,0.00,,---,0.00,VWS V14.01,2013-01-23 06:57:00,
2013-01-23 01:58:00,47.8,42.9,30.30,NNW,338,0.0,0.0,83,0.00,,---,0.00,VWS V14.01,2013-01-23 06:58:00,
2013-01-23 01:59:00,45.0,40.4,30.30,NNW,338,0.0,0.0,84,0.00,,---,0.00,VWS V14.01,2013-01-23 06:59:00,
2013-01-23 02:00:00,45.0,40.7,30.30,NNW,338,0.0,0.0,85,0.00,,---,0.00,VWS V14.01,2013-01-23 07:00:00,
2013-01-23 02:01:00,45.0,40.7,30.30,NNW,338,0.0,0.0,85,0.00,,---,0.00,VWS V14.01,2013-01-23 07:01:00,
2013-01-23 02:02:00,45.0,40.7,30.30,NNW,338,0.0,0.0,85,0.00,,---,0.00,VWS V14.01,2013-01-23 07:02:00,
2013-01-23 02:03:00,47.7,42.4,30.30,NNW,338,0.0,0.0,82,0.00,,---,0.00,VWS V14.01,2013-01-23 07:03:00,
2013-01-23 02:04:00,45.1,40.9,30.27,NNW,338,0.0,0.0,85,0.00,,---,0.00,VWS V14.01,2013-01-23 07:04:00,
2013-01-23 02:05:00,45.3,41.1,30.27,NNW,338,0.0,0.0,85,0.00,,---,0.00,VWS V14.01,2013-01-23 07:05:00,
2013-01-23 02:06:00,45.3,41.1,30.27,NNW,338,0.0,0.0,85,0.00,,---,0.00,VWS V14.01,2013-01-23 07:06:00,
2013-01-23 02:07:00,45.3,41.1,30.27,NNW,338,0.0,0.0,85,0.00,,---,0.00,VWS V14.01,2013-01-23 07:07:00,
2013-01-23 02:08:00,47.7,42.1,30.27,NNW,338,0.0,0.0,81,0.00,,---,0.00,VWS V14.01,2013-01-23 07:08:00,
2013-01-23 02:09:00,45.3,41.1,30.27,NNW,338,0.0,0.0,85,0.00,,---,0.00,VWS V14.01,2013-01-23 07:09:00,
2013-01-23 02:10:00,45.5,41.3,30.27,NNW,338,0.0,0.0,85,0.00,,---,0.00,VWS V14.01,2013-01-23 07:10:00,
2013-01-23 02:11:00,45.5,41.3,30.27,NNW,338,0.0,0.0,85,0.00,,---,0.00,VWS V14.01,2013-01-23 07:11:00,
2013-01-23 02:12:00,45.5,41.3,30.27,NNW,338,0.0,0.0,85,0.00,,---,0.00,VWS V14.01,2013-01-23 07:12:00,
2013-01-23 02:13:00,47.8,42.0,30.27,NNW,338,0.0,0.0,80,0.00,,---,0.00,VWS V14.01,2013-01-23 07:13:00,
2013-01-23 02:14:00,45.7,41.4,30.27,NNW,338,0.0,0.0,85,0.00,,---,0.00,VWS V14.01,2013-01-23 07:14:00,
2013-01-23 02:15:00,45.9,41.6,30.27,NNW,338,0.0,0.0,85,0.00,,---,0.00,VWS V14.01,2013-01-23 07:15:00,
2013-01-23 02:16:00,46.0,41.8,30.27,NNW,338,0.0,0.0,85,0.00,,---,0.00,VWS V14.01,2013-01-23 07:16:00,
2013-01-23 02:17:00,46.2,42.3,30.30,NNW,338,0.0,0.0,86,0.00,,---,0.00,VWS V14.01,2013-01-23 07:17:00,
2013-01-23 02:18:00,47.7,41.2,30.27,NNW,338,0.0,0.0,78,0.00,,---,0.00,VWS V14.01,2013-01-23 07:18:00,
2013-01-23 02:19:00,46.6,42.6,30.30,NNW,338,0.0,0.0,86,0.00,,---,0.00,VWS V14.01,2013-01-23 07:19:00,
2013-01-23 02:20:00,46.6,42.6,30.30,NNW,338,0.0,0.0,86,0.00,,---,0.00,VWS V14.01,2013-01-23 07:20:00,
2013-01-23 02:21:00,46.6,42.6,30.30,NNW,338,0.0,0.0,86,0.00,,---,0.00,VWS V14.01,2013-01-23 07:21:00,
2013-01-23 02:22:00,46.6,42.6,30.30,NNW,338,0.0,0.0,86,0.00,,---,0.00,VWS V14.01,2013-01-23 07:22:00,
2013-01-23 02:23:00,47.5,41.0,30.27,NNW,338,0.0,0.0,78,0.00,,---,0.00,VWS V14.01,2013-01-23 07:23:00,
2013-01-23 02:24:00,46.8,43.1,30.30,NNW,338,0.0,0.0,87,0.00,,---,0.00,VWS V14.01,2013-01-23 07:24:00,
2013-01-23 02:25:00,46.9,43.3,30.30,NNW,338,0.0,0.0,87,0.00,,---,0.00,VWS V14.01,2013-01-23 07:25:00,
2013-01-23 02:26:00,46.9,43.3,30.30,NNW,338,0.0,0.0,87,0.00,,---,0.00,VWS V14.01,2013-01-23 07:26:00,
2013-01-23 02:27:00,46.9,43.3,30.30,NNW,338,0.0,0.0,87,0.00,,---,0.00,VWS V14.01,2013-01-23 07:27:00,
2013-01-23 02:28:00,47.3,40.8,30.27,NNW,338,0.0,0.0,78,0.00,,---,0.00,VWS V14.01,2013-01-23 07:28:00,
2013-01-23 02:29:00,47.1,43.5,30.30,NNW,338,0.0,0.0,87,0.00,,---,0.00,VWS V14.01,2013-01-23 07:29:00,
2013-01-23 02:30:00,47.1,43.5,30.30,NNW,338,0.0,0.0,87,0.00,,---,0.00,VWS V14.01,2013-01-23 07:30:00,
2013-01-23 02:31:00,47.1,43.5,30.30,NNW,338,0.0,0.0,87,0.00,,---,0.00,VWS V14.01,2013-01-23 07:31:00,
2013-01-23 02:32:00,47.1,43.5,30.27,NNW,338,0.0,0.0,87,0.00,,---,0.00,VWS V14.01,2013-01-23 07:32:00,
2013-01-23 02:33:00,47.1,40.6,30.27,North,0,0.0,0.0,78,0.00,,---,0.00,VWS V14.01,2013-01-23 07:33:00,
2013-01-23 02:34:00,47.1,43.5,30.27,NNW,338,0.0,0.0,87,0.00,,---,0.00,VWS V14.01,2013-01-23 07:34:00,
2013-01-23 02:35:00,47.1,43.5,30.27,NNW,338,0.0,0.0,87,0.00,,---,0.00,VWS V14.01,2013-01-23 07:35:00,
2013-01-23 02:36:00,47.1,43.5,30.27,NNW,338,0.0,0.0,87,0.00,,---,0.00,VWS V14.01,2013-01-23 07:36:00,
2013-01-23 02:37:00,46.9,43.3,30.27,NNW,338,0.0,0.0,87,0.00,,---,0.00,VWS V14.01,2013-01-23 07:37:00,
2013-01-23 02:38:00,47.1,41.0,30.27,North,0,0.0,0.0,79,0.00,,---,0.00,VWS V14.01,2013-01-23 07:38:00,
2013-01-23 02:39:00,46.9,43.0,30.27,NNW,338,0.0,0.0,86,0.00,,---,0.00,VWS V14.01,2013-01-23 07:39:00,
2013-01-23 02:40:00,46.9,43.0,30.27,NNW,338,0.0,0.0,86,0.00,,---,0.00,VWS V14.01,2013-01-23 07:40:00,
2013-01-23 02:41:00,46.9,43.0,30.27,NNW,338,0.0,0.0,86,0.00,,---,0.00,VWS V14.01,2013-01-23 07:41:00,
2013-01-23 02:42:00,46.8,42.8,30.27,NNW,338,0.0,0.0,86,0.00,,---,0.00,VWS V14.01,2013-01-23 07:42:00,
2013-01-23 02:43:00,47.3,41.1,30.27,NNW,338,0.0,0.0,79,0.00,,---,0.00,VWS V14.01,2013-01-23 07:43:00,
2013-01-23 02:44:00,46.8,42.8,30.27,NNW,338,0.0,0.0,86,0.00,,---,0.00,VWS V14.01,2013-01-23 07:44:00,
2013-01-23 02:45:00,46.6,42.6,30.27,NNW,338,0.0,0.0,86,0.00,,---,0.00,VWS V14.01,2013-01-23 07:45:00,
2013-01-23 02:46:00,46.6,42.3,30.27,NNW,338,0.0,0.0,85,0.00,,---,0.00,VWS V14.01,2013-01-23 07:46:00,
2013-01-23 02:47:00,46.6,42.3,30.30,NNW,338,0.0,0.0,85,0.00,,---,0.00,VWS V14.01,2013-01-23 07:47:00,
2013-01-23 02:48:00,47.3,41.5,30.27,NNW,338,0.0,0.0,80,0.00,,---,0.00,VWS V14.01,2013-01-23 07:48:00,
2013-01-23 02:49:00,46.4,42.1,30.30,NNW,338,0.0,0.0,85,0.00,,---,0.00,VWS V14.01,2013-01-23 07:49:00,
2013-01-23 02:50:00,46.4,42.1,30.30,NNW,338,0.0,0.0,85,0.00,,---,0.00,VWS V14.01,2013-01-23 07:50:00,
2013-01-23 02:51:00,46.2,42.0,30.30,NNW,338,0.0,0.0,85,0.00,,---,0.00,VWS V14.01,2013-01-23 07:51:00,
2013-01-23 02:52:00,46.2,42.0,30.30,NNW,338,0.0,0.0,85,0.00,,---,0.00,VWS V14.01,2013-01-23 07:52:00,
2013-01-23 02:53:00,47.1,41.3,30.30,NNW,338,0.0,0.0,80,0.00,,---,0.00,VWS V14.01,2013-01-23 07:53:00,
2013-01-23 02:54:00,46.0,41.8,30.30,NNW,338,0.0,0.0,85,0.00,,---,0.00,VWS V14.01,2013-01-23 07:54:00,
2013-01-23 02:55:00,46.0,41.8,30.30,NNW,338,0.0,0.0,85,0.00,,---,0.00,VWS V14.01,2013-01-23 07:55:00,
2013-01-23 02:56:00,46.0,41.8,30.30,NNW,338,0.0,0.0,85,0.00,,---,0.00,VWS V14.01,2013-01-23 07:56:00,
2013-01-23 02:57:00,46.2,42.0,30.30,NNW,338,0.0,0.0,85,0.00,,---,0.00,VWS V14.01,2013-01-23 07:57:00,
2013-01-23 02:58:00,46.9,41.1,30.30,NNW,338,0.0,0.0,80,0.00,,---,0.00,VWS V14.01,2013-01-23 07:58:00,
2013-01-23 02:59:00,46.2,42.3,30.30,NNW,338,0.0,0.0,86,0.00,,---,0.00,VWS V14.01,2013-01-23 07:59:00,
2013-01-23 03:00:00,46.2,42.3,30.30,NNW,338,0.0,0.0,86,0.00,,---,0.00,VWS V14.01,2013-01-23 08:00:00,
2013-01-23 03:01:00,46.2,42.3,30.30,NNW,338,0.0,0.0,86,0.00,,---,0.00,VWS V14.01,2013-01-23 08:01:00,
2013-01-23 03:02:00,46.2,42.3,30.27,NNW,338,0.0,0.0,86,0.00,,---,0.00,VWS V14.01,2013-01-23 08:02:00,
2013-01-23 03:03:00,46.8,40.9,30.30,NNW,338,0.0,0.0,80,0.00,,---,0.00,VWS V14.01,2013-01-23 08:03:00,
2013-01-23 03:04:00,46.4,42.1,30.27,NNW,338,0.0,0.0,85,0.00,,---,0.00,VWS V14.01,2013-01-23 08:04:00,
2013-01-23 03:05:00,46.4,42.1,30.27,NNW,338,0.0,0.0,85,0.00,,---,0.00,VWS V14.01,2013-01-23 08:05:00,
2013-01-23 03:06:00,46.6,42.3,30.27,NNW,338,0.0,0.0,85,0.00,,---,0.00,VWS V14.01,2013-01-23 08:06:00,
2013-01-23 03:07:00,46.6,42.6,30.27,NNW,338,0.0,0.0,86,0.00,,---,0.00,VWS V14.01,2013-01-23 08:07:00,
2013-01-23 03:08:00,46.8,40.9,30.30,NNW,338,0.0,0.0,80,0.00,,---,0.00,VWS V14.01,2013-01-23 08:08:00,
2013-01-23 03:09:00,46.8,42.5,30.27,NNW,338,0.0,0.0,85,0.00,,---,0.00,VWS V14.01,2013-01-23 08:09:00,
2013-01-23 03:10:00,46.8,42.5,30.27,NNW,338,0.0,0.0,85,0.00,,---,0.00,VWS V14.01,2013-01-23 08:10:00,
2013-01-23 03:11:00,46.9,42.7,30.27,NNW,338,0.0,0.0,85,0.00,,---,0.00,VWS V14.01,2013-01-23 08:11:00,
2013-01-23 03:12:00,46.9,42.7,30.27,NNW,338,0.0,0.0,85,0.00,,---,0.00,VWS V14.01,2013-01-23 08:12:00,
2013-01-23 03:13:00,46.9,41.4,30.30,NNW,338,0.0,0.0,81,0.00,,---,0.00,VWS V14.01,2013-01-23 08:13:00,
2013-01-23 03:14:00,47.1,43.2,30.27,NNW,338,0.0,0.0,86,0.00,,---,0.00,VWS V14.01,2013-01-23 08:14:00,
2013-01-23 03:15:00,47.1,43.2,30.27,NNW,338,0.0,0.0,86,0.00,,---,0.00,VWS V14.01,2013-01-23 08:15:00,
2013-01-23 03:16:00,47.3,43.3,30.27,NNW,338,0.0,0.0,86,0.00,,---,0.00,VWS V14.01,2013-01-23 08:16:00,
2013-01-23 03:17:00,47.3,43.3,30.30,NNW,338,0.0,0.0,86,0.00,,---,0.00,VWS V14.01,2013-01-23 08:17:00,
2013-01-23 03:18:00,47.3,41.8,30.30,NW,315,0.0,0.0,81,0.00,,---,0.00,VWS V14.01,2013-01-23 08:18:00,
2013-01-23 03:19:00,47.5,43.2,30.30,NNW,338,0.0,0.0,85,0.00,,---,0.00,VWS V14.01,2013-01-23 08:19:00,
2013-01-23 03:20:00,47.5,43.2,30.30,NNW,338,0.0,0.0,85,0.00,,---,0.00,VWS V14.01,2013-01-23 08:20:00,
2013-01-23 03:21:00,47.5,43.2,30.30,NW,315,0.0,0.0,85,0.00,,---,0.00,VWS V14.01,2013-01-23 08:21:00,
2013-01-23 03:22:00,47.5,43.2,30.30,NW,315,0.0,0.0,85,0.00,,---,0.00,VWS V14.01,2013-01-23 08:22:00,
2013-01-23 03:23:00,47.3,41.8,30.27,NNW,338,0.0,0.0,81,0.00,,---,0.00,VWS V14.01,2013-01-23 08:23:00,
2013-01-23 03:24:00,47.8,42.9,30.30,NNW,338,0.0,0.0,83,0.00,,---,0.00,VWS V14.01,2013-01-23 08:24:00,
2013-01-23 03:25:00,47.8,42.9,30.30,NNW,338,0.0,0.0,83,0.00,,---,0.00,VWS V14.01,2013-01-23 08:25:00,
2013-01-23 03:26:00,47.8,42.9,30.30,NNW,338,0.0,0.0,83,0.00,,---,0.00,VWS V14.01,2013-01-23 08:26:00,
2013-01-23 03:27:00,47.8,42.6,30.30,NNW,338,0.0,0.0,82,0.00,,---,0.00,VWS V14.01,2013-01-23 08:27:00,
2013-01-23 03:28:00,47.5,42.0,30.27,NNW,338,0.0,0.0,81,0.00,,---,0.00,VWS V14.01,2013-01-23 08:28:00,
2013-01-23 03:29:00,47.7,42.4,30.30,NNW,338,0.0,0.0,82,0.00,,---,0.00,VWS V14.01,2013-01-23 08:29:00,
2013-01-23 03:30:00,47.7,42.4,30.30,NNW,338,0.0,0.0,82,0.00,,---,0.00,VWS V14.01,2013-01-23 08:30:00,
2013-01-23 03:31:00,47.7,42.1,30.30,NNW,338,0.0,0.0,81,0.00,,---,0.00,VWS V14.01,2013-01-23 08:31:00,
2013-01-23 03:32:00,47.7,42.1,30.27,NNW,338,0.0,0.0,81,0.00,,---,0.00,VWS V14.01,2013-01-23 08:32:00,
2013-01-23 03:33:00,47.8,41.7,30.27,NNE,22,0.0,0.0,79,0.00,,---,0.00,VWS V14.01,2013-01-23 08:33:00,
2013-01-23 03:34:00,47.7,42.1,30.27,NNW,338,0.0,0.0,81,0.00,,---,0.00,VWS V14.01,2013-01-23 08:34:00,
2013-01-23 03:35:00,47.7,42.1,30.27,NNW,338,0.0,0.0,81,0.00,,---,0.00,VWS V14.01,2013-01-23 08:35:00,
2013-01-23 03:36:00,47.8,42.3,30.27,NNW,338,0.0,0.0,81,0.00,,---,0.00,VWS V14.01,2013-01-23 08:36:00,
2013-01-23 03:37:00,47.8,42.0,30.27,NNW,338,0.0,0.0,80,0.00,,---,0.00,VWS V14.01,2013-01-23 08:37:00,
2013-01-23 03:38:00,48.4,40.5,30.27,NNW,338,0.0,0.0,74,0.00,,---,0.00,VWS V14.01,2013-01-23 08:38:00,
2013-01-23 03:39:00,47.8,42.0,30.27,NNW,338,0.0,0.0,80,0.00,,---,0.00,VWS V14.01,2013-01-23 08:39:00,
2013-01-23 03:40:00,47.8,42.0,30.27,NNW,338,0.0,0.0,80,0.00,,---,0.00,VWS V14.01,2013-01-23 08:40:00,
2013-01-23 03:41:00,47.8,41.7,30.27,NW,315,0.0,0.0,79,0.00,,---,0.00,VWS V14.01,2013-01-23 08:41:00,
2013-01-23 03:42:00,47.8,41.7,30.27,NNW,338,0.0,0.0,79,0.00,,---,0.00,VWS V14.01,2013-01-23 08:42:00,
2013-01-23 03:43:00,48.7,39.4,30.27,NNW,338,0.0,0.0,70,0.00,,---,0.00,VWS V14.01,2013-01-23 08:43:00,
2013-01-23 03:44:00,47.8,41.7,30.27,NNW,338,0.0,0.0,79,0.00,,---,0.00,VWS V14.01,2013-01-23 08:44:00,
2013-01-23 03:45:00,47.7,41.2,30.27,NNW,338,0.0,0.0,78,0.00,,---,0.00,VWS V14.01,2013-01-23 08:45:00,
2013-01-23 03:46:00,47.7,41.2,30.27,NNW,338,0.0,0.0,78,0.00,,---,0.00,VWS V14.01,2013-01-23 08:46:00,
2013-01-23 03:47:00,47.5,41.0,30.27,NNW,338,0.0,0.0,78,0.00,,---,0.00,VWS V14.01,2013-01-23 08:47:00,
2013-01-23 03:48:00,49.3,38.0,30.27,NNW,338,0.0,0.0,65,0.00,,---,0.00,VWS V14.01,2013-01-23 08:48:00,
2013-01-23 03:49:00,47.5,41.0,30.27,NNW,338,0.0,0.0,78,0.00,,---,0.00,VWS V14.01,2013-01-23 08:49:00,
2013-01-23 03:50:00,47.5,41.0,30.27,NNW,338,0.0,0.0,78,0.00,,---,0.00,VWS V14.01,2013-01-23 08:50:00,
2013-01-23 03:51:00,47.3,40.8,30.27,NNW,338,0.0,0.0,78,0.00,,---,0.00,VWS V14.01,2013-01-23 08:51:00,
2013-01-23 03:52:00,47.3,40.8,30.27,NNW,338,0.0,0.0,78,0.00,,---,0.00,VWS V14.01,2013-01-23 08:52:00,
2013-01-23 03:53:00,49.8,35.7,30.30,West,270,0.0,0.0,58,0.00,,---,0.00,VWS V14.01,2013-01-23 08:53:00,
2013-01-23 03:54:00,47.3,40.8,30.27,NNW,338,0.0,0.0,78,0.00,,---,0.00,VWS V14.01,2013-01-23 08:54:00,
2013-01-23 03:55:00,47.3,40.8,30.27,NNW,338,0.0,0.0,78,0.00,,---,0.00,VWS V14.01,2013-01-23 08:55:00,
2013-01-23 03:56:00,47.3,40.8,30.27,NNW,338,0.0,0.0,78,0.00,,---,0.00,VWS V14.01,2013-01-23 08:56:00,
2013-01-23 03:57:00,47.3,40.8,30.27,NNW,338,0.0,0.0,78,0.00,,---,0.00,VWS V14.01,2013-01-23 08:57:00,
2013-01-23 03:58:00,50.2,34.2,30.30,NNW,338,0.0,0.0,54,0.00,,---,0.00,VWS V14.01,2013-01-23 08:58:00,
2013-01-23 03:59:00,47.1,40.6,30.27,North,0,0.0,0.0,78,0.00,,---,0.00,VWS V14.01,2013-01-23 08:59:00,
2013-01-23 04:00:00,47.1,40.6,30.27,North,0,0.0,0.0,78,0.00,,---,0.00,VWS V14.01,2013-01-23 09:00:00,
2013-01-23 04:01:00,47.1,40.6,30.27,North,0,0.0,0.0,78,0.00,,---,0.00,VWS V14.01,2013-01-23 09:01:00,
2013-01-23 04:02:00,47.1,40.6,30.27,North,0,0.0,0.0,78,0.00,,---,0.00,VWS V14.01,2013-01-23 09:02:00,
2013-01-23 04:03:00,50.4,33.9,30.30,NNE,22,0.0,0.0,53,0.00,,---,0.00,VWS V14.01,2013-01-23 09:03:00,
2013-01-23 04:04:00,47.1,40.6,30.27,North,0,0.0,0.0,78,0.00,,---,0.00,VWS V14.01,2013-01-23 09:04:00,
2013-01-23 04:05:00,47.1,41.0,30.27,North,0,0.0,0.0,79,0.00,,---,0.00,VWS V14.01,2013-01-23 09:05:00,
2013-01-23 04:06:00,47.1,41.0,30.27,North,0,0.0,0.0,79,0.00,,---,0.00,VWS V14.01,2013-01-23 09:06:00,
2013-01-23 04:07:00,47.1,41.0,30.27,North,0,0.0,0.0,79,0.00,,---,0.00,VWS V14.01,2013-01-23 09:07:00,
2013-01-23 04:08:00,50.4,33.9,30.30,NNW,338,0.0,0.0,53,0.00,,---,0.00,VWS V14.01,2013-01-23 09:08:00,
2013-01-23 04:09:00,47.3,41.1,30.27,NNW,338,0.0,0.0,79,0.00,,---,0.00,VWS V14.01,2013-01-23 09:09:00,
2013-01-23 04:10:00,47.3,41.1,30.27,NNW,338,0.0,0.0,79,0.00,,---,0.00,VWS V14.01,2013-01-23 09:10:00,
2013-01-23 04:11:00,47.3,41.5,30.27,NNW,338,0.0,0.0,80,0.00,,---,0.00,VWS V14.01,2013-01-23 09:11:00,
2013-01-23 04:12:00,47.3,41.5,30.27,NNW,338,0.0,0.0,80,0.00,,---,0.00,VWS V14.01,2013-01-23 09:12:00,
2013-01-23 04:13:00,50.4,33.9,30.30,NNE,22,0.0,0.0,53,0.00,,---,0.00,VWS V14.01,2013-01-23 09:13:00,
2013-01-23 04:14:00,47.3,41.5,30.27,NNW,338,0.0,0.0,80,0.00,,---,0.00,VWS V14.01,2013-01-23 09:14:00,
2013-01-23 04:15:00,47.3,41.5,30.27,NNW,338,0.0,0.0,80,0.00,,---,0.00,VWS V14.01,2013-01-23 09:15:00,
2013-01-23 04:16:00,47.3,41.5,30.27,NNW,338,0.0,0.0,80,0.00,,---,0.00,VWS V14.01,2013-01-23 09:16:00,
2013-01-23 04:17:00,47.3,41.5,30.30,NNW,338,0.0,0.0,80,0.00,,---,0.00,VWS V14.01,2013-01-23 09:17:00,
2013-01-23 04:18:00,50.0,34.0,30.30,NNW,338,0.0,0.0,54,0.00,,---,0.00,VWS V14.01,2013-01-23 09:18:00,
2013-01-23 04:19:00,47.1,41.3,30.30,NNW,338,0.0,0.0,80,0.00,,---,0.00,VWS V14.01,2013-01-23 09:19:00,
2013-01-23 04:20:00,47.1,41.3,30.30,NNW,338,0.0,0.0,80,0.00,,---,0.00,VWS V14.01,2013-01-23 09:20:00,
2013-01-23 04:21:00,47.1,41.3,30.30,NNW,338,0.0,0.0,80,0.00,,---,0.00,VWS V14.01,2013-01-23 09:21:00,
2013-01-23 04:22:00,46.9,41.1,30.30,NNW,338,0.0,0.0,80,0.00,,---,0.00,VWS V14.01,2013-01-23 09:22:00,
2013-01-23 04:23:00,50.0,34.0,30.30,NW,315,0.0,0.0,54,0.00,,---,0.00,VWS V14.01,2013-01-23 09:23:00,
2013-01-23 04:24:00,46.9,41.1,30.30,NNW,338,0.0,0.0,80,0.00,,---,0.00,VWS V14.01,2013-01-23 09:24:00,
2013-01-23 04:25:00,46.9,41.1,30.30,NNW,338,0.0,0.0,80,0.00,,---,0.00,VWS V14.01,2013-01-23 09:25:00,
2013-01-23 04:26:00,46.8,40.9,30.30,NNW,338,0.0,0.0,80,0.00,,---,0.00,VWS V14.01,2013-01-23 09:26:00,
2013-01-23 04:27:00,46.8,40.9,30.30,NNW,338,0.0,0.0,80,0.00,,---,0.00,VWS V14.01,2013-01-23 09:27:00,
2013-01-23 04:28:00,49.8,34.3,30.30,NW,315,0.0,0.0,55,0.00,,---,0.00,VWS V14.01,2013-01-23 09:28:00,
2013-01-23 04:29:00,46.8,40.9,30.30,NNW,338,0.0,0.0,80,0.00,,---,0.00,VWS V14.01,2013-01-23 09:29:00,
2013-01-23 04:30:00,46.8,40.9,30.30,NNW,338,0.0,0.0,80,0.00,,---,0.00,VWS V14.01,2013-01-23 09:30:00,
2013-01-23 04:31:00,46.8,40.9,30.30,NNW,338,0.0,0.0,80,0.00,,---,0.00,VWS V14.01,2013-01-23 09:31:00,
2013-01-23 04:32:00,46.8,40.9,30.30,NNW,338,0.0,0.0,80,0.00,,---,0.00,VWS V14.01,2013-01-23 09:32:00,
2013-01-23 04:33:00,49.8,33.9,30.30,NNW,338,0.0,0.0,54,0.00,,---,0.00,VWS V14.01,2013-01-23 09:33:00,
2013-01-23 04:34:00,46.8,40.9,30.30,NNW,338,0.0,0.0,80,0.00,,---,0.00,VWS V14.01,2013-01-23 09:34:00,
2013-01-23 04:35:00,46.8,40.9,30.30,NNW,338,0.0,0.0,80,0.00,,---,0.00,VWS V14.01,2013-01-23 09:35:00,
2013-01-23 04:36:00,46.8,40.9,30.30,NNW,338,0.0,0.0,80,0.00,,---,0.00,VWS V14.01,2013-01-23 09:36:00,
2013-01-23 04:37:00,46.8,40.9,30.30,NW,315,0.0,0.0,80,0.00,,---,0.00,VWS V14.01,2013-01-23 09:37:00,
2013-01-23 04:38:00,49.6,33.7,30.30,NNW,338,0.0,0.0,54,0.00,,---,0.00,VWS V14.01,2013-01-23 09:38:00,
2013-01-23 04:39:00,46.9,41.4,30.30,NNW,338,0.0,0.0,81,0.00,,---,0.00,VWS V14.01,2013-01-23 09:39:00,
2013-01-23 04:40:00,46.9,41.4,30.30,NNW,338,0.0,0.0,81,0.00,,---,0.00,VWS V14.01,2013-01-23 09:40:00,
2013-01-23 04:41:00,47.1,41.6,30.30,NNW,338,0.0,0.0,81,0.00,,---,0.00,VWS V14.01,2013-01-23 09:41:00,
2013-01-23 04:42:00,47.1,41.6,30.30,NNW,338,0.0,0.0,81,0.00,,---,0.00,VWS V14.01,2013-01-23 09:42:00,
2013-01-23 04:43:00,49.5,33.5,30.30,NNE,22,0.0,0.0,54,0.00,,---,0.00,VWS V14.01,2013-01-23 09:43:00,
2013-01-23 04:44:00,47.3,41.8,30.30,NW,315,0.0,0.0,81,0.00,,---,0.00,VWS V14.01,2013-01-23 09:44:00,
2013-01-23 04:45:00,47.3,41.8,30.30,NW,315,0.0,0.0,81,0.00,,---,0.00,VWS V14.01,2013-01-23 09:45:00,
2013-01-23 04:46:00,47.3,41.8,30.30,NW,315,0.0,0.0,81,0.00,,---,0.00,VWS V14.01,2013-01-23 09:46:00,
2013-01-23 04:47:00,47.1,41.6,30.27,NNW,338,0.0,0.0,81,0.00,,---,0.00,VWS V14.01,2013-01-23 09:47:00,
2013-01-23 04:48:00,49.3,33.8,30.30,NW,315,0.0,0.0,55,0.00,,---,0.00,VWS V14.01,2013-01-23 09:48:00,
2013-01-23 04:49:00,47.1,41.6,30.27,NNW,338,0.0,0.0,81,0.00,,---,0.00,VWS V14.01,2013-01-23 09:49:00,
2013-01-23 04:50:00,47.3,41.8,30.27,NNW,338,0.0,0.0,81,0.00,,---,0.00,VWS V14.01,2013-01-23 09:50:00,
2013-01-23 04:51:00,47.3,41.8,30.27,NNW,338,0.0,0.0,81,0.00,,---,0.00,VWS V14.01,2013-01-23 09:51:00,
2013-01-23 04:52:00,47.3,41.8,30.27,NNW,338,0.0,0.0,81,0.00,,---,0.00,VWS V14.01,2013-01-23 09:52:00,
2013-01-23 04:53:00,49.1,33.7,30.30,NNW,338,0.0,0.0,55,0.00,,---,0.00,VWS V14.01,2013-01-23 09:53:00,
2013-01-23 04:54:00,47.5,42.0,30.27,NNW,338,0.0,0.0,81,0.00,,---,0.00,VWS V14.01,2013-01-23 09:54:00,
2013-01-23 04:55:00,47.5,41.6,30.27,NNW,338,0.0,0.0,80,0.00,,---,0.00,VWS V14.01,2013-01-23 09:55:00,
2013-01-23 04:56:00,47.5,41.6,30.27,NNW,338,0.0,0.0,80,0.00,,---,0.00,VWS V14.01,2013-01-23 09:56:00,
2013-01-23 04:57:00,47.7,41.8,30.27,NNW,338,0.0,0.0,80,0.00,,---,0.00,VWS V14.01,2013-01-23 09:57:00,
2013-01-23 04:58:00,49.1,34.1,30.30,NNW,338,0.0,0.0,56,0.00,,---,0.00,VWS V14.01,2013-01-23 09:58:00,
2013-01-23 04:59:00,47.7,41.8,30.27,NNW,338,0.0,0.0,80,0.00,,---,0.00,VWS V14.01,2013-01-23 09:59:00,
2013-01-23 05:00:00,47.8,41.7,30.27,NNW,338,0.0,0.0,79,0.00,,---,0.00,VWS V14.01,2013-01-23 10:00:00,
2013-01-23 05:01:00,48.0,41.2,30.27,NW,315,0.0,0.0,77,0.00,,---,0.00,VWS V14.01,2013-01-23 10:01:00,
2013-01-23 05:02:00,48.2,41.0,30.27,NNW,338,0.0,0.0,76,0.00,,---,0.00,VWS V14.01,2013-01-23 10:02:00,
2013-01-23 05:03:00,48.9,34.4,30.30,North,0,0.0,0.0,57,0.00,,---,0.00,VWS V14.01,2013-01-23 10:03:00,
2013-01-23 05:04:00,48.4,40.5,30.27,NNW,338,0.0,0.0,74,0.00,,---,0.00,VWS V14.01,2013-01-23 10:04:00,
2013-01-23 05:05:00,48.4,40.5,30.27,NNW,338,0.0,0.0,74,0.00,,---,0.00,VWS V14.01,2013-01-23 10:05:00,
2013-01-23 05:06:00,48.4,40.1,30.27,NNW,338,0.0,0.0,73,0.00,,---,0.00,VWS V14.01,2013-01-23 10:06:00,
2013-01-23 05:07:00,48.6,40.0,30.27,NNW,338,0.0,0.0,72,0.00,,---,0.00,VWS V14.01,2013-01-23 10:07:00,
2013-01-23 05:08:00,48.7,34.6,30.30,NNW,338,0.0,0.0,58,0.00,,---,0.00,VWS V14.01,2013-01-23 10:08:00,
2013-01-23 05:09:00,48.7,39.4,30.27,NNW,338,0.0,0.0,70,0.00,,---,0.00,VWS V14.01,2013-01-23 10:09:00,
2013-01-23 05:10:00,48.7,39.4,30.27,NNW,338,0.0,0.0,70,0.00,,---,0.00,VWS V14.01,2013-01-23 10:10:00,
2013-01-23 05:11:00,48.9,38.8,30.27,NW,315,0.0,0.0,68,0.00,,---,0.00,VWS V14.01,2013-01-23 10:11:00,
2013-01-23 05:12:00,48.9,38.5,30.27,NNW,338,0.0,0.0,67,0.00,,---,0.00,VWS V14.01,2013-01-23 10:12:00,
2013-01-23 05:13:00,48.6,34.9,30.30,NW,315,0.0,0.0,59,0.00,,---,0.00,VWS V14.01,2013-01-23 10:13:00,
2013-01-23 05:14:00,49.3,38.4,30.27,NNW,338,0.0,0.0,66,0.00,,---,0.00,VWS V14.01,2013-01-23 10:14:00,
2013-01-23 05:15:00,49.3,38.0,30.27,NNW,338,0.0,0.0,65,0.00,,---,0.00,VWS V14.01,2013-01-23 10:15:00,
2013-01-23 05:16:00,49.3,36.4,30.27,WNW,292,0.0,0.0,61,0.00,,---,0.00,VWS V14.01,2013-01-23 10:16:00,
2013-01-23 05:17:00,49.6,35.9,30.30,NNW,338,0.0,0.0,59,0.00,,---,0.00,VWS V14.01,2013-01-23 10:17:00,
2013-01-23 05:18:00,48.2,35.0,30.30,NNW,338,0.0,0.0,60,0.00,,---,0.00,VWS V14.01,2013-01-23 10:18:00,
2013-01-23 05:19:00,49.6,35.9,30.30,North,0,0.0,0.0,59,0.00,,---,0.00,VWS V14.01,2013-01-23 10:19:00,
2013-01-23 05:20:00,49.8,35.7,30.30,NNW,338,0.0,0.0,58,0.00,,---,0.00,VWS V14.01,2013-01-23 10:20:00,
2013-01-23 05:21:00,50.0,34.9,30.30,NNW,338,0.0,0.0,56,0.00,,---,0.00,VWS V14.01,2013-01-23 10:21:00,
2013-01-23 05:22:00,50.0,34.9,30.30,NNW,338,0.0,0.0,56,0.00,,---,0.00,VWS V14.01,2013-01-23 10:22:00,
2013-01-23 05:23:00,48.2,35.4,30.30,NNW,338,0.0,0.0,61,0.00,,---,0.00,VWS V14.01,2013-01-23 10:23:00,
2013-01-23 05:24:00,50.2,34.2,30.30,NNW,338,0.0,0.0,54,0.00,,---,0.00,VWS V14.01,2013-01-23 10:24:00,
2013-01-23 05:25:00,50.2,33.7,30.30,NNW,338,0.0,0.0,53,0.00,,---,0.00,VWS V14.01,2013-01-23 10:25:00,
2013-01-23 05:26:00,50.4,33.4,30.30,NW,315,0.0,0.0,52,0.00,,---,0.00,VWS V14.01,2013-01-23 10:26:00,
2013-01-23 05:27:00,50.4,33.9,30.30,NW,315,0.0,0.0,53,0.00,,---,0.00,VWS V14.01,2013-01-23 10:27:00,
2013-01-23 05:28:00,47.8,35.5,30.30,NW,315,0.0,0.0,62,0.00,,---,0.00,VWS V14.01,2013-01-23 10:28:00,
2013-01-23 05:29:00,50.4,33.4,30.30,NW,315,0.0,0.0,52,0.00,,---,0.00,VWS V14.01,2013-01-23 10:29:00,
2013-01-23 05:30:00,50.4,33.9,30.30,NNW,338,0.0,0.0,53,0.00,,---,0.00,VWS V14.01,2013-01-23 10:30:00,
2013-01-23 05:31:00,50.4,33.9,30.30,NNE,22,0.0,0.0,53,0.00,,---,0.00,VWS V14.01,2013-01-23 10:31:00,
2013-01-23 05:32:00,50.4,33.4,30.30,NNW,338,0.0,0.0,52,0.00,,---,0.00,VWS V14.01,2013-01-23 10:32:00,
2013-01-23 05:33:00,47.7,35.3,30.30,NNW,338,0.0,0.0,62,0.00,,---,0.00,VWS V14.01,2013-01-23 10:33:00,
2013-01-23 05:34:00,50.4,33.4,30.30,NNW,338,0.0,0.0,52,0.00,,---,0.00,VWS V14.01,2013-01-23 10:34:00,
2013-01-23 05:35:00,50.4,33.9,30.30,NNW,338,0.0,0.0,53,0.00,,---,0.00,VWS V14.01,2013-01-23 10:35:00,
2013-01-23 05:36:00,50.4,33.9,30.30,North,0,0.0,0.0,53,0.00,,---,0.00,VWS V14.01,2013-01-23 10:36:00,
2013-01-23 05:37:00,50.4,33.4,30.30,NNW,338,0.0,0.0,52,0.00,,---,0.00,VWS V14.01,2013-01-23 10:37:00,
2013-01-23 05:38:00,47.5,35.5,30.33,NW,315,0.0,0.0,63,0.00,,---,0.00,VWS V14.01,2013-01-23 10:38:00,
2013-01-23 05:39:00,50.4,33.9,30.30,NNW,338,0.0,0.0,53,0.00,,---,0.00,VWS V14.01,2013-01-23 10:39:00,
2013-01-23 05:40:00,50.2,33.7,30.30,NNW,338,0.0,0.0,53,0.00,,---,0.00,VWS V14.01,2013-01-23 10:40:00,
2013-01-23 05:41:00,50.2,33.7,30.30,NNW,338,0.0,0.0,53,0.00,,---,0.00,VWS V14.01,2013-01-23 10:41:00,
2013-01-23 05:42:00,50.2,33.7,30.30,NW,315,0.0,0.0,53,0.00,,---,0.00,VWS V14.01,2013-01-23 10:42:00,
2013-01-23 05:43:00,46.9,35.0,30.33,NW,315,0.0,0.0,63,0.00,,---,0.00,VWS V14.01,2013-01-23 10:43:00,
2013-01-23 05:44:00,50.2,34.2,30.30,NW,315,0.0,0.0,54,0.00,,---,0.00,VWS V14.01,2013-01-23 10:44:00,
2013-01-23 05:45:00,50.0,34.0,30.30,NNW,338,0.0,0.0,54,0.00,,---,0.00,VWS V14.01,2013-01-23 10:45:00,
2013-01-23 05:46:00,50.0,34.0,30.30,NW,315,0.0,0.0,54,0.00,,---,0.00,VWS V14.01,2013-01-23 10:46:00,
2013-01-23 05:47:00,50.2,33.7,30.30,North,0,0.0,0.0,53,0.00,,---,0.00,VWS V14.01,2013-01-23 10:47:00,
2013-01-23 05:48:00,46.4,34.9,30.33,NW,315,0.0,0.0,64,0.00,,---,0.00,VWS V14.01,2013-01-23 10:48:00,
2013-01-23 05:49:00,50.0,34.0,30.30,NNW,338,0.0,0.0,54,0.00,,---,0.00,VWS V14.01,2013-01-23 10:49:00,
2013-01-23 05:50:00,50.0,34.0,30.30,NNW,338,0.0,0.0,54,0.00,,---,0.00,VWS V14.01,2013-01-23 10:50:00,
2013-01-23 05:51:00,50.0,34.0,30.30,NNW,338,0.0,0.0,54,0.00,,---,0.00,VWS V14.01,2013-01-23 10:51:00,
2013-01-23 05:52:00,50.0,34.0,30.30,NNW,338,0.0,0.0,54,0.00,,---,0.00,VWS V14.01,2013-01-23 10:52:00,
2013-01-23 05:53:00,46.2,35.9,30.33,NW,315,0.0,0.0,67,0.00,,---,0.00,VWS V14.01,2013-01-23 10:53:00,
2013-01-23 05:54:00,49.8,34.3,30.30,North,0,0.0,0.0,55,0.00,,---,0.00,VWS V14.01,2013-01-23 10:54:00,
2013-01-23 05:55:00,49.8,34.3,30.30,NNW,338,0.0,0.0,55,0.00,,---,0.00,VWS V14.01,2013-01-23 10:55:00,
2013-01-23 05:56:00,49.8,34.3,30.30,NW,315,0.0,0.0,55,0.00,,---,0.00,VWS V14.01,2013-01-23 10:56:00,
2013-01-23 05:57:00,49.8,33.9,30.30,North,0,0.0,0.0,54,0.00,,---,0.00,VWS V14.01,2013-01-23 10:57:00,
2013-01-23 05:58:00,46.2,37.0,30.33,NW,315,0.0,0.0,70,0.00,,---,0.00,VWS V14.01,2013-01-23 10:58:00,
2013-01-23 05:59:00,49.8,33.9,30.30,NNW,338,0.0,0.0,54,0.00,,---,0.00,VWS V14.01,2013-01-23 10:59:00,
2013-01-23 06:00:00,49.8,33.9,30.30,NNW,338,0.0,0.0,54,0.00,,---,0.00,VWS V14.01,2013-01-23 11:00:00,
2013-01-23 06:01:00,49.8,33.9,30.30,NNE,22,0.0,0.0,54,0.00,,---,0.00,VWS V14.01,2013-01-23 11:01:00,
2013-01-23 06:02:00,49.6,33.7,30.30,NNW,338,0.0,0.0,54,0.00,,---,0.00,VWS V14.01,2013-01-23 11:02:00,
2013-01-23 06:03:00,46.0,37.5,30.33,NNW,338,0.0,0.0,72,0.00,,---,0.00,VWS V14.01,2013-01-23 11:03:00,
2013-01-23 06:04:00,49.6,33.7,30.30,NNW,338,0.0,0.0,54,0.00,,---,0.00,VWS V14.01,2013-01-23 11:04:00,
2013-01-23 06:05:00,49.6,33.7,30.30,NNW,338,0.0,0.0,54,0.00,,---,0.00,VWS V14.01,2013-01-23 11:05:00,
2013-01-23 06:06:00,49.6,33.7,30.30,NNW,338,0.0,0.0,54,0.00,,---,0.00,VWS V14.01,2013-01-23 11:06:00,
2013-01-23 06:07:00,49.5,33.5,30.30,NNW,338,0.0,0.0,54,0.00,,---,0.00,VWS V14.01,2013-01-23 11:07:00,
2013-01-23 06:08:00,45.9,37.0,30.33,NNW,338,0.0,0.0,71,0.00,,---,0.00,VWS V14.01,2013-01-23 11:08:00,
2013-01-23 06:09:00,49.5,33.5,30.30,NNW,338,0.0,0.0,54,0.00,,---,0.00,VWS V14.01,2013-01-23 11:09:00,
2013-01-23 06:10:00,49.5,33.5,30.30,North,0,0.0,0.0,54,0.00,,---,0.00,VWS V14.01,2013-01-23 11:10:00,
2013-01-23 06:11:00,49.5,34.0,30.30,NNW,338,0.0,0.0,55,0.00,,---,0.00,VWS V14.01,2013-01-23 11:11:00,
2013-01-23 06:12:00,49.5,34.0,30.30,North,0,0.0,0.0,55,0.00,,---,0.00,VWS V14.01,2013-01-23 11:12:00,
2013-01-23 06:13:00,45.5,37.0,30.33,NNW,338,0.0,0.0,72,0.00,,---,0.00,VWS V14.01,2013-01-23 11:13:00,
2013-01-23 06:14:00,49.3,33.8,30.30,NW,315,0.0,0.0,55,0.00,,---,0.00,VWS V14.01,2013-01-23 11:14:00,
2013-01-23 06:15:00,49.3,33.8,30.30,NNW,338,0.0,0.0,55,0.00,,---,0.00,VWS V14.01,2013-01-23 11:15:00,
2013-01-23 06:16:00,49.3,33.8,30.30,NNW,338,0.0,0.0,55,0.00,,---,0.00,VWS V14.01,2013-01-23 11:16:00,
2013-01-23 06:17:00,49.1,33.7,30.30,NW,315,0.0,0.0,55,0.00,,---,0.00,VWS V14.01,2013-01-23 11:17:00,
2013-01-23 06:18:00,45.3,36.8,30.33,NW,315,0.0,0.0,72,0.00,,---,0.00,VWS V14.01,2013-01-23 11:18:00,
2013-01-23 06:19:00,49.1,33.7,30.30,NW,315,0.0,0.0,55,0.00,,---,0.00,VWS V14.01,2013-01-23 11:19:00,
2013-01-23 06:20:00,49.1,33.7,30.30,North,0,0.0,0.0,55,0.00,,---,0.00,VWS V14.01,2013-01-23 11:20:00,
2013-01-23 06:21:00,49.1,34.1,30.30,NNW,338,0.0,0.0,56,0.00,,---,0.00,VWS V14.01,2013-01-23 11:21:00,
2013-01-23 06:22:00,49.1,34.1,30.30,NNW,338,0.0,0.0,56,0.00,,---,0.00,VWS V14.01,2013-01-23 11:22:00,
2013-01-23 06:23:00,45.1,36.7,30.33,NNW,338,0.0,0.0,72,0.00,,---,0.00,VWS V14.01,2013-01-23 11:23:00,
2013-01-23 06:24:00,49.1,34.1,30.30,NNW,338,0.0,0.0,56,0.00,,---,0.00,VWS V14.01,2013-01-23 11:24:00,
2013-01-23 06:25:00,48.9,33.9,30.30,NNW,338,0.0,0.0,56,0.00,,---,0.00,VWS V14.01,2013-01-23 11:25:00,
2013-01-23 06:26:00,48.9,33.9,30.30,NNW,338,0.0,0.0,56,0.00,,---,0.00,VWS V14.01,2013-01-23 11:26:00,
2013-01-23 06:27:00,48.9,34.4,30.30,NNW,338,0.0,0.0,57,0.00,,---,0.00,VWS V14.01,2013-01-23 11:27:00,
2013-01-23 06:28:00,44.6,36.2,30.33,NNW,338,0.0,0.0,72,0.00,,---,0.00,VWS V14.01,2013-01-23 11:28:00,
2013-01-23 06:29:00,48.9,34.4,30.30,NNE,22,0.0,0.0,57,0.00,,---,0.00,VWS V14.01,2013-01-23 11:29:00,
2013-01-23 06:30:00,48.9,34.4,30.30,NW,315,0.0,0.0,57,0.00,,---,0.00,VWS V14.01,2013-01-23 11:30:00,
2013-01-23 06:31:00,48.7,34.2,30.30,NNW,338,0.0,0.0,57,0.00,,---,0.00,VWS V14.01,2013-01-23 11:31:00,
2013-01-23 06:32:00,48.7,34.2,30.30,WNW,292,0.0,0.0,57,0.00,,---,0.00,VWS V14.01,2013-01-23 11:32:00,
2013-01-23 06:33:00,44.2,36.2,30.33,NNW,338,0.0,0.0,73,0.00,,---,0.00,VWS V14.01,2013-01-23 11:33:00,
2013-01-23 06:34:00,48.7,34.6,30.30,NNE,22,0.0,0.0,58,0.00,,---,0.00,VWS V14.01,2013-01-23 11:34:00,
2013-01-23 06:35:00,48.7,34.6,30.30,NNW,338,0.0,0.0,58,0.00,,---,0.00,VWS V14.01,2013-01-23 11:35:00,
2013-01-23 06:36:00,48.6,34.5,30.30,NNW,338,0.0,0.0,58,0.00,,---,0.00,VWS V14.01,2013-01-23 11:36:00,
2013-01-23 06:37:00,48.6,34.5,30.30,NNW,338,0.0,0.0,58,0.00,,---,0.00,VWS V14.01,2013-01-23 11:37:00,
2013-01-23 06:38:00,44.1,36.0,30.33,WNW,292,0.0,0.0,73,0.00,,---,0.00,VWS V14.01,2013-01-23 11:38:00,
2013-01-23 06:39:00,48.6,34.9,30.30,NW,315,0.0,0.0,59,0.00,,---,0.00,VWS V14.01,2013-01-23 11:39:00,
2013-01-23 06:40:00,48.6,34.9,30.30,NNW,338,0.0,0.0,59,0.00,,---,0.00,VWS V14.01,2013-01-23 11:40:00,
2013-01-23 06:41:00,48.4,34.7,30.30,NW,315,0.0,0.0,59,0.00,,---,0.00,VWS V14.01,2013-01-23 11:41:00,
2013-01-23 06:42:00,48.4,35.2,30.30,NNW,338,0.0,0.0,60,0.00,,---,0.00,VWS V14.01,2013-01-23 11:42:00,
2013-01-23 06:43:00,44.2,36.8,30.33,WNW,292,0.0,0.0,75,0.00,,---,0.00,VWS V14.01,2013-01-23 11:43:00,
2013-01-23 06:44:00,48.2,35.0,30.30,NNW,338,0.0,0.0,60,0.00,,---,0.00,VWS V14.01,2013-01-23 11:44:00,
2013-01-23 06:45:00,48.2,35.0,30.30,NNW,338,0.0,0.0,60,0.00,,---,0.00,VWS V14.01,2013-01-23 11:45:00,
2013-01-23 06:46:00,48.2,35.0,30.30,NNW,338,0.0,0.0,60,0.00,,---,0.00,VWS V14.01,2013-01-23 11:46:00,
2013-01-23 06:47:00,48.2,35.0,30.30,NNW,338,0.0,0.0,60,0.00,,---,0.00,VWS V14.01,2013-01-23 11:47:00,
2013-01-23 06:48:00,44.1,36.7,30.33,WNW,292,0.0,0.0,75,0.00,,---,0.00,VWS V14.01,2013-01-23 11:48:00,
2013-01-23 06:49:00,48.2,35.4,30.30,NNW,338,0.0,0.0,61,0.00,,---,0.00,VWS V14.01,2013-01-23 11:49:00,
2013-01-23 06:50:00,48.2,35.4,30.30,NNW,338,0.0,0.0,61,0.00,,---,0.00,VWS V14.01,2013-01-23 11:50:00,
2013-01-23 06:51:00,48.0,35.2,30.30,NNW,338,0.0,0.0,61,0.00,,---,0.00,VWS V14.01,2013-01-23 11:51:00,
2013-01-23 06:52:00,48.0,35.2,30.30,North,0,0.0,0.0,61,0.00,,---,0.00,VWS V14.01,2013-01-23 11:52:00,
2013-01-23 06:53:00,44.1,37.0,30.33,WNW,292,0.0,0.0,76,0.00,,---,0.00,VWS V14.01,2013-01-23 11:53:00,
2013-01-23 06:54:00,47.8,35.5,30.30,NNW,338,0.0,0.0,62,0.00,,---,0.00,VWS V14.01,2013-01-23 11:54:00,
2013-01-23 06:55:00,47.8,35.5,30.30,NNW,338,0.0,0.0,62,0.00,,---,0.00,VWS V14.01,2013-01-23 11:55:00,
2013-01-23 06:56:00,47.8,35.5,30.30,NNW,338,0.0,0.0,62,0.00,,---,0.00,VWS V14.01,2013-01-23 11:56:00,
2013-01-23 06:57:00,47.8,35.5,30.30,NNW,338,0.0,0.0,62,0.00,,---,0.00,VWS V14.01,2013-01-23 11:57:00,
2013-01-23 06:58:00,43.9,36.8,30.33,NW,315,0.0,0.0,76,0.00,,---,0.00,VWS V14.01,2013-01-23 11:58:00,
2013-01-23 06:59:00,47.8,35.5,30.30,NNW,338,0.0,0.0,62,0.00,,---,0.00,VWS V14.01,2013-01-23 11:59:00,
2013-01-23 07:00:00,47.7,35.3,30.30,NNW,338,0.0,0.0,62,0.00,,---,0.00,VWS V14.01,2013-01-23 12:00:00,
2013-01-23 07:01:00,47.7,35.7,30.30,NW,315,0.0,0.0,63,0.00,,---,0.00,VWS V14.01,2013-01-23 12:01:00,
2013-01-23 07:02:00,47.7,35.7,30.33,NW,315,0.0,0.0,63,0.00,,---,0.00,VWS V14.01,2013-01-23 12:02:00,
2013-01-23 07:03:00,43.5,36.8,30.33,NW,315,0.0,0.0,77,0.00,,---,0.00,VWS V14.01,2013-01-23 12:03:00,
2013-01-23 07:04:00,47.5,35.5,30.33,NW,315,0.0,0.0,63,0.00,,---,0.00,VWS V14.01,2013-01-23 12:04:00,
2013-01-23 07:05:00,47.3,35.4,30.33,NW,315,0.0,0.0,63,0.00,,---,0.00,VWS V14.01,2013-01-23 12:05:00,
2013-01-23 07:06:00,47.3,35.4,30.33,NW,315,0.0,0.0,63,0.00,,---,0.00,VWS V14.01,2013-01-23 12:06:00,
2013-01-23 07:07:00,47.3,35.4,30.33,NW,315,0.0,0.0,63,0.00,,---,0.00,VWS V14.01,2013-01-23 12:07:00,
2013-01-23 07:08:00,43.5,36.8,30.30,NW,315,0.0,0.0,77,0.00,,---,0.00,VWS V14.01,2013-01-23 12:08:00,
2013-01-23 07:09:00,46.9,35.0,30.33,NW,315,0.0,0.0,63,0.00,,---,0.00,VWS V14.01,2013-01-23 12:09:00,
2013-01-23 07:10:00,46.9,35.0,30.33,NW,315,0.0,0.0,63,0.00,,---,0.00,VWS V14.01,2013-01-23 12:10:00,
2013-01-23 07:11:00,46.6,34.7,30.33,WNW,292,0.0,0.0,63,0.00,,---,0.00,VWS V14.01,2013-01-23 12:11:00,
2013-01-23 07:12:00,46.6,35.1,30.33,WNW,292,0.0,0.0,64,0.00,,---,0.00,VWS V14.01,2013-01-23 12:12:00,
2013-01-23 07:13:00,43.7,37.3,30.30,WNW,292,0.0,0.0,78,0.00,,---,0.00,VWS V14.01,2013-01-23 12:13:00,
2013-01-23 07:14:00,46.4,34.9,30.33,WNW,292,0.0,0.0,64,0.00,,---,0.00,VWS V14.01,2013-01-23 12:14:00,
2013-01-23 07:15:00,46.4,34.9,30.33,NW,315,0.0,0.0,64,0.00,,---,0.00,VWS V14.01,2013-01-23 12:15:00,
2013-01-23 07:16:00,46.4,35.3,30.33,NW,315,0.0,0.0,65,0.00,,---,0.00,VWS V14.01,2013-01-23 12:16:00,
2013-01-23 07:17:00,46.4,35.3,30.33,NW,315,0.0,0.0,65,0.00,,---,0.00,VWS V14.01,2013-01-23 12:17:00,
2013-01-23 07:18:00,43.9,38.1,30.30,NW,315,0.0,0.0,80,0.00,,---,0.00,VWS V14.01,2013-01-23 12:18:00,
2013-01-23 07:19:00,46.2,35.9,30.33,NW,315,0.0,0.0,67,0.00,,---,0.00,VWS V14.01,2013-01-23 12:19:00,
2013-01-23 07:20:00,46.2,36.3,30.33,NW,315,0.0,0.0,68,0.00,,---,0.00,VWS V14.01,2013-01-23 12:20:00,
2013-01-23 07:21:00,46.2,36.3,30.33,NW,315,0.0,0.0,68,0.00,,---,0.00,VWS V14.01,2013-01-23 12:21:00,
2013-01-23 07:22:00,46.2,36.6,30.33,NW,315,0.0,0.0,69,0.00,,---,0.00,VWS V14.01,2013-01-23 12:22:00,
2013-01-23 07:23:00,44.1,38.9,30.33,NW,315,0.0,0.0,82,0.00,,---,0.00,VWS V14.01,2013-01-23 12:23:00,
2013-01-23 07:24:00,46.2,36.6,30.33,NW,315,0.0,0.0,69,0.00,,---,0.00,VWS V14.01,2013-01-23 12:24:00,
2013-01-23 07:25:00,46.2,37.0,30.33,NW,315,0.0,0.0,70,0.00,,---,0.00,VWS V14.01,2013-01-23 12:25:00,
2013-01-23 07:26:00,46.2,37.3,30.33,NNW,338,0.0,0.0,71,0.00,,---,0.00,VWS V14.01,2013-01-23 12:26:00,
2013-01-23 07:27:00,46.0,37.2,30.33,NNW,338,0.0,0.0,71,0.00,,---,0.00,VWS V14.01,2013-01-23 12:27:00,
2013-01-23 07:28:00,44.2,39.4,30.33,NW,315,0.0,0.0,83,0.00,,---,0.00,VWS V14.01,2013-01-23 12:28:00,
2013-01-23 07:29:00,46.0,37.2,30.33,NNW,338,0.0,0.0,71,0.00,,---,0.00,VWS V14.01,2013-01-23 12:29:00,
2013-01-23 07:30:00,46.0,37.5,30.33,NNW,338,0.0,0.0,72,0.00,,---,0.00,VWS V14.01,2013-01-23 12:30:00,
2013-01-23 07:31:00,46.0,37.5,30.33,NNW,338,0.0,0.0,72,0.00,,---,0.00,VWS V14.01,2013-01-23 12:31:00,
2013-01-23 07:32:00,45.9,37.0,30.33,NNW,338,0.0,0.0,71,0.00,,---,0.00,VWS V14.01,2013-01-23 12:32:00,
2013-01-23 07:33:00,44.6,40.1,30.33,NNW,338,0.0,0.0,84,0.00,,---,0.00,VWS V14.01,2013-01-23 12:33:00,
2013-01-23 07:34:00,45.9,37.0,30.33,NNW,338,0.0,0.0,71,0.00,,---,0.00,VWS V14.01,2013-01-23 12:34:00,
2013-01-23 07:35:00,45.9,37.0,30.33,NNW,338,0.0,0.0,71,0.00,,---,0.00,VWS V14.01,2013-01-23 12:35:00,
2013-01-23 07:36:00,45.7,36.8,30.33,NNW,338,0.0,0.0,71,0.00,,---,0.00,VWS V14.01,2013-01-23 12:36:00,
2013-01-23 07:37:00,45.7,37.2,30.33,NNW,338,0.0,0.0,72,0.00,,---,0.00,VWS V14.01,2013-01-23 12:37:00,
2013-01-23 07:38:00,44.6,39.8,30.33,NNW,338,0.0,0.0,83,0.00,,---,0.00,VWS V14.01,2013-01-23 12:38:00,
2013-01-23 07:39:00,45.5,37.0,30.33,NNW,338,0.0,0.0,72,0.00,,---,0.00,VWS V14.01,2013-01-23 12:39:00,
2013-01-23 07:40:00,45.5,37.0,30.33,NNW,338,0.0,0.0,72,0.00,,---,0.00,VWS V14.01,2013-01-23 12:40:00,
2013-01-23 07:41:00,45.5,37.0,30.33,NNW,338,0.0,0.0,72,0.00,,---,0.00,VWS V14.01,2013-01-23 12:41:00,
2013-01-23 07:42:00,45.5,37.0,30.33,NNW,338,0.0,0.0,72,0.00,,---,0.00,VWS V14.01,2013-01-23 12:42:00,
2013-01-23 07:43:00,44.8,39.9,30.33,NNW,338,0.0,0.0,83,0.00,,---,0.00,VWS V14.01,2013-01-23 12:43:00,
2013-01-23 07:44:00,45.3,36.8,30.33,WNW,292,0.0,0.0,72,0.00,,---,0.00,VWS V14.01,2013-01-23 12:44:00,
2013-01-23 07:45:00,45.3,36.8,30.33,NW,315,0.0,0.0,72,0.00,,---,0.00,VWS V14.01,2013-01-23 12:45:00,
2013-01-23 07:46:00,45.3,36.8,30.33,NW,315,0.0,0.0,72,0.00,,---,0.00,VWS V14.01,2013-01-23 12:46:00,
2013-01-23 07:47:00,45.3,36.8,30.33,NW,315,0.0,0.0,72,0.00,,---,0.00,VWS V14.01,2013-01-23 12:47:00,
2013-01-23 07:48:00,45.1,40.3,30.33,NW,315,0.0,0.0,83,0.00,,---,0.00,VWS V14.01,2013-01-23 12:48:00,
2013-01-23 07:49:00,45.1,36.7,30.33,NNW,338,0.0,0.0,72,0.00,,---,0.00,VWS V14.01,2013-01-23 12:49:00,
2013-01-23 07:50:00,45.1,36.7,30.33,NNW,338,0.0,0.0,72,0.00,,---,0.00,VWS V14.01,2013-01-23 12:50:00,
2013-01-23 07:51:00,45.0,36.5,30.33,NNW,338,0.0,0.0,72,0.00,,---,0.00,VWS V14.01,2013-01-23 12:51:00,
2013-01-23 07:52:00,45.0,36.5,30.33,NNW,338,0.0,0.0,72,0.00,,---,0.00,VWS V14.01,2013-01-23 12:52:00,
2013-01-23 07:53:00,45.3,40.5,30.33,NW,315,0.0,0.0,83,0.00,,---,0.00,VWS V14.01,2013-01-23 12:53:00,
2013-01-23 07:54:00,44.8,36.3,30.33,NNW,338,0.0,0.0,72,0.00,,---,0.00,VWS V14.01,2013-01-23 12:54:00,
2013-01-23 07:55:00,44.6,36.2,30.33,NNW,338,0.0,0.0,72,0.00,,---,0.00,VWS V14.01,2013-01-23 12:55:00,
2013-01-23 07:56:00,44.6,36.2,30.33,NNW,338,0.0,0.0,72,0.00,,---,0.00,VWS V14.01,2013-01-23 12:56:00,
2013-01-23 07:57:00,44.4,36.3,30.33,NNW,338,0.0,0.0,73,0.00,,---,0.00,VWS V14.01,2013-01-23 12:57:00,
2013-01-23 07:58:00,46.2,41.3,30.33,NNW,338,0.0,0.0,83,0.00,,---,0.00,VWS V14.01,2013-01-23 12:58:00,
2013-01-23 07:59:00,44.2,36.2,30.33,NNW,338,0.0,0.0,73,0.00,,---,0.00,VWS V14.01,2013-01-23 12:59:00,
2013-01-23 08:00:00,44.2,36.2,30.33,NNW,338,0.0,0.0,73,0.00,,---,0.00,VWS V14.01,2013-01-23 13:00:00,
2013-01-23 08:01:00,44.1,36.0,30.33,NNW,338,0.0,0.0,73,0.00,,---,0.00,VWS V14.01,2013-01-23 13:01:00,
2013-01-23 08:02:00,44.1,36.0,30.33,NNW,338,0.0,0.0,73,0.00,,---,0.00,VWS V14.01,2013-01-23 13:02:00,
2013-01-23 08:03:00,46.6,41.1,30.33,NW,315,0.0,0.0,81,0.00,,---,0.00,VWS V14.01,2013-01-23 13:03:00,
2013-01-23 08:04:00,44.1,36.0,30.33,WNW,292,0.0,0.0,73,0.00,,---,0.00,VWS V14.01,2013-01-23 13:04:00,
2013-01-23 08:05:00,44.1,36.0,30.33,WNW,292,0.0,0.0,73,0.00,,---,0.00,VWS V14.01,2013-01-23 13:05:00,
2013-01-23 08:06:00,44.2,36.5,30.33,WNW,292,0.0,0.0,74,0.00,,---,0.00,VWS V14.01,2013-01-23 13:06:00,
2013-01-23 08:07:00,44.2,36.5,30.33,WNW,292,0.0,0.0,74,0.00,,---,0.00,VWS V14.01,2013-01-23 13:07:00,
2013-01-23 08:08:00,46.9,41.1,30.33,NNW,338,0.0,0.0,80,0.00,,---,0.00,VWS V14.01,2013-01-23 13:08:00,
2013-01-23 08:09:00,44.2,36.5,30.33,WNW,292,0.0,0.0,74,0.00,,---,0.00,VWS V14.01,2013-01-23 13:09:00,
2013-01-23 08:10:00,44.2,36.8,30.33,WNW,292,0.0,0.0,75,0.00,,---,0.00,VWS V14.01,2013-01-23 13:10:00,
2013-01-23 08:11:00,44.1,36.7,30.33,WNW,292,0.0,0.0,75,0.00,,---,0.00,VWS V14.01,2013-01-23 13:11:00,
2013-01-23 08:12:00,44.1,36.7,30.33,WNW,292,0.0,0.0,75,0.00,,---,0.00,VWS V14.01,2013-01-23 13:12:00,
2013-01-23 08:13:00,47.5,40.6,30.33,WNW,292,0.0,0.0,77,0.00,,---,0.00,VWS V14.01,2013-01-23 13:13:00,
2013-01-23 08:14:00,44.1,36.7,30.33,WNW,292,0.0,0.0,75,0.00,,---,0.00,VWS V14.01,2013-01-23 13:14:00,
2013-01-23 08:15:00,44.1,36.7,30.33,WNW,292,0.0,0.0,75,0.00,,---,0.00,VWS V14.01,2013-01-23 13:15:00,
2013-01-23 08:16:00,44.1,36.7,30.33,WNW,292,0.0,0.0,75,0.00,,---,0.00,VWS V14.01,2013-01-23 13:16:00,
2013-01-23 08:17:00,44.1,36.7,30.33,WNW,292,0.0,0.0,75,0.00,,---,0.00,VWS V14.01,2013-01-23 13:17:00,
2013-01-23 08:18:00,48.0,40.5,30.33,NNW,338,0.0,0.0,75,0.00,,---,0.00,VWS V14.01,2013-01-23 13:18:00,
2013-01-23 08:19:00,44.1,37.0,30.33,WNW,292,0.0,0.0,76,0.00,,---,0.00,VWS V14.01,2013-01-23 13:19:00,
2013-01-23 08:20:00,44.1,37.0,30.33,WNW,292,0.0,0.0,76,0.00,,---,0.00,VWS V14.01,2013-01-23 13:20:00,
2013-01-23 08:21:00,44.1,37.0,30.33,NW,315,0.0,0.0,76,0.00,,---,0.00,VWS V14.01,2013-01-23 13:21:00,
2013-01-23 08:22:00,44.1,37.0,30.33,NW,315,0.0,0.0,76,0.00,,---,0.00,VWS V14.01,2013-01-23 13:22:00,
2013-01-23 08:23:00,48.7,40.8,30.33,WNW,292,0.0,0.0,74,0.00,,---,0.00,VWS V14.01,2013-01-23 13:23:00,
2013-01-23 08:24:00,44.1,37.0,30.33,NW,315,0.0,0.0,76,0.00,,---,0.00,VWS V14.01,2013-01-23 13:24:00,
2013-01-23 08:25:00,43.9,36.8,30.33,NW,315,0.0,0.0,76,0.00,,---,0.00,VWS V14.01,2013-01-23 13:25:00,
2013-01-23 08:26:00,43.9,36.8,30.33,NW,315,0.0,0.0,76,0.00,,---,0.00,VWS V14.01,2013-01-23 13:26:00,
2013-01-23 08:27:00,43.7,36.6,30.33,NW,315,0.0,0.0,76,0.00,,---,0.00,VWS V14.01,2013-01-23 13:27:00,
2013-01-23 08:28:00,49.3,39.9,30.33,NW,315,0.0,0.0,70,0.00,,---,0.00,VWS V14.01,2013-01-23 13:28:00,
2013-01-23 08:29:00,43.7,36.6,30.33,NW,315,0.0,0.0,76,0.00,,---,0.00,VWS V14.01,2013-01-23 13:29:00,
2013-01-23 08:30:00,43.5,36.8,30.33,NW,315,0.0,0.0,77,0.00,,---,0.00,VWS V14.01,2013-01-23 13:30:00,
2013-01-23 08:31:00,43.5,36.5,30.33,NW,315,0.0,0.0,76,0.00,,---,0.00,VWS V14.01,2013-01-23 13:31:00,
2013-01-23 08:32:00,43.5,36.8,30.30,NW,315,0.0,0.0,77,0.00,,---,0.00,VWS V14.01,2013-01-23 13:32:00,
2013-01-23 08:33:00,49.8,40.1,30.33,NNW,338,0.0,0.0,69,0.00,,---,0.00,VWS V14.01,2013-01-23 13:33:00,
2013-01-23 08:34:00,43.5,36.8,30.30,NW,315,0.0,0.0,77,0.00,,---,0.00,VWS V14.01,2013-01-23 13:34:00,
2013-01-23 08:35:00,43.5,36.8,30.30,NW,315,0.0,0.0,77,0.00,,---,0.00,VWS V14.01,2013-01-23 13:35:00,
2013-01-23 08:36:00,43.5,36.8,30.30,NW,315,0.0,0.0,77,0.00,,---,0.00,VWS V14.01,2013-01-23 13:36:00,
2013-01-23 08:37:00,43.5,36.8,30.30,NW,315,0.0,0.0,77,0.00,,---,0.00,VWS V14.01,2013-01-23 13:37:00,
2013-01-23 08:38:00,50.5,39.2,30.36,NNW,338,0.0,0.0,65,0.00,,---,0.00,VWS V14.01,2013-01-23 13:38:00,
2013-01-23 08:39:00,43.7,37.0,30.30,WNW,292,0.0,0.0,77,0.00,,---,0.00,VWS V14.01,2013-01-23 13:39:00,
2013-01-23 08:40:00,43.7,37.3,30.30,WNW,292,0.0,0.0,78,0.00,,---,0.00,VWS V14.01,2013-01-23 13:40:00,
2013-01-23 08:41:00,43.7,37.3,30.30,WNW,292,0.0,0.0,78,0.00,,---,0.00,VWS V14.01,2013-01-23 13:41:00,
2013-01-23 08:42:00,43.7,37.6,30.30,WNW,292,0.0,0.0,79,0.00,,---,0.00,VWS V14.01,2013-01-23 13:42:00,
2013-01-23 08:43:00,51.4,39.3,30.36,NW,315,0.0,0.0,63,0.00,,---,0.00,VWS V14.01,2013-01-23 13:43:00,
2013-01-23 08:44:00,43.7,37.6,30.30,NW,315,0.0,0.0,79,0.00,,---,0.00,VWS V14.01,2013-01-23 13:44:00,
2013-01-23 08:45:00,43.9,38.1,30.30,NW,315,0.0,0.0,80,0.00,,---,0.00,VWS V14.01,2013-01-23 13:45:00,
2013-01-23 08:46:00,43.9,38.1,30.30,NW,315,0.0,0.0,80,0.00,,---,0.00,VWS V14.01,2013-01-23 13:46:00,
2013-01-23 08:47:00,44.1,38.6,30.33,NW,315,0.0,0.0,81,0.00,,---,0.00,VWS V14.01,2013-01-23 13:47:00,
2013-01-23 08:48:00,52.2,39.1,30.36,NNE,22,0.0,0.0,61,0.00,,---,0.00,VWS V14.01,2013-01-23 13:48:00,
2013-01-23 08:49:00,44.1,38.9,30.33,NW,315,0.0,0.0,82,0.00,,---,0.00,VWS V14.01,2013-01-23 13:49:00,
2013-01-23 08:50:00,44.1,38.9,30.33,NW,315,0.0,0.0,82,0.00,,---,0.00,VWS V14.01,2013-01-23 13:50:00,
2013-01-23 08:51:00,44.1,38.9,30.33,NW,315,0.0,0.0,82,0.00,,---,0.00,VWS V14.01,2013-01-23 13:51:00,
2013-01-23 08:52:00,44.1,38.9,30.33,NW,315,0.0,0.0,82,0.00,,---,0.00,VWS V14.01,2013-01-23 13:52:00,
2013-01-23 08:53:00,52.9,39.0,30.36,North,0,0.0,0.0,59,0.00,,---,0.00,VWS V14.01,2013-01-23 13:53:00,
2013-01-23 08:54:00,44.1,39.2,30.33,NW,315,0.0,0.0,83,0.00,,---,0.00,VWS V14.01,2013-01-23 13:54:00,
2013-01-23 08:55:00,44.2,39.4,30.33,NW,315,0.0,0.0,83,0.00,,---,0.00,VWS V14.01,2013-01-23 13:55:00,
2013-01-23 08:56:00,44.2,39.4,30.33,NW,315,0.0,0.0,83,0.00,,---,0.00,VWS V14.01,2013-01-23 13:56:00,
2013-01-23 08:57:00,44.2,39.7,30.33,WNW,292,0.0,0.0,84,0.00,,---,0.00,VWS V14.01,2013-01-23 13:57:00,
2013-01-23 08:58:00,53.6,38.8,30.36,NNW,338,0.0,0.0,57,0.00,,---,0.00,VWS V14.01,2013-01-23 13:58:00,
2013-01-23 08:59:00,44.4,39.9,30.33,NW,315,0.0,0.0,84,0.00,,---,0.00,VWS V14.01,2013-01-23 13:59:00,
2013-01-23 09:00:00,44.6,40.1,30.33,NNW,338,0.0,0.0,84,0.00,,---,0.00,VWS V14.01,2013-01-23 14:00:00,
2013-01-23 09:01:00,44.6,40.1,30.33,NNW,338,0.0,0.0,84,0.00,,---,0.00,VWS V14.01,2013-01-23 14:01:00,
2013-01-23 09:02:00,44.6,40.1,30.33,NNW,338,0.0,0.0,84,0.00,,---,0.00,VWS V14.01,2013-01-23 14:02:00,
2013-01-23 09:03:00,54.3,38.5,30.36,NE,45,0.0,0.0,55,0.00,,---,0.00,VWS V14.01,2013-01-23 14:03:00,
2013-01-23 09:04:00,44.6,39.8,30.33,NNW,338,0.0,0.0,83,0.00,,---,0.00,VWS V14.01,2013-01-23 14:04:00,
2013-01-23 09:05:00,44.6,39.8,30.33,NNW,338,0.0,0.0,83,0.00,,---,0.00,VWS V14.01,2013-01-23 14:05:00,
2013-01-23 09:06:00,44.6,39.8,30.33,NNW,338,0.0,0.0,83,0.00,,---,0.00,VWS V14.01,2013-01-23 14:06:00,
2013-01-23 09:07:00,44.8,40.2,30.33,NW,315,0.0,0.0,84,0.00,,---,0.00,VWS V14.01,2013-01-23 14:07:00,
2013-01-23 09:08:00,54.9,39.0,30.39,NNE,22,0.0,0.0,55,0.00,,---,0.00,VWS V14.01,2013-01-23 14:08:00,
2013-01-23 09:09:00,44.8,39.9,30.33,NNW,338,0.0,0.0,83,0.00,,---,0.00,VWS V14.01,2013-01-23 14:09:00,
2013-01-23 09:10:00,44.8,39.9,30.33,NNW,338,0.0,0.0,83,0.00,,---,0.00,VWS V14.01,2013-01-23 14:10:00,
2013-01-23 09:11:00,44.8,39.9,30.33,NNW,338,0.0,0.0,83,0.00,,---,0.00,VWS V14.01,2013-01-23 14:11:00,
2013-01-23 09:12:00,45.0,40.1,30.33,NW,315,0.0,0.0,83,0.00,,---,0.00,VWS V14.01,2013-01-23 14:12:00,
2013-01-23 09:13:00,55.8,38.4,30.39,NW,315,0.0,0.0,52,0.00,,---,0.00,VWS V14.01,2013-01-23 14:13:00,
2013-01-23 09:14:00,45.1,40.3,30.33,NW,315,0.0,0.0,83,0.00,,---,0.00,VWS V14.01,2013-01-23 14:14:00,
2013-01-23 09:15:00,45.1,40.3,30.33,NNW,338,0.0,0.0,83,0.00,,---,0.00,VWS V14.01,2013-01-23 14:15:00,
2013-01-23 09:16:00,45.1,40.3,30.33,NW,315,0.0,0.0,83,0.00,,---,0.00,VWS V14.01,2013-01-23 14:16:00,
2013-01-23 09:17:00,45.1,40.3,30.33,NW,315,0.0,0.0,83,0.00,,---,0.00,VWS V14.01,2013-01-23 14:17:00,
2013-01-23 09:18:00,56.5,38.6,30.39,North,0,0.0,0.0,51,0.00,,---,0.00,VWS V14.01,2013-01-23 14:18:00,
2013-01-23 09:19:00,45.3,40.5,30.33,WNW,292,0.0,0.0,83,0.00,,---,0.00,VWS V14.01,2013-01-23 14:19:00,
2013-01-23 09:20:00,45.3,40.5,30.33,NNW,338,0.0,0.0,83,0.00,,---,0.00,VWS V14.01,2013-01-23 14:20:00,
2013-01-23 09:21:00,45.9,41.0,30.33,NNW,338,0.0,0.0,83,0.00,,---,0.00,VWS V14.01,2013-01-23 14:21:00,
2013-01-23 09:22:00,45.9,41.0,30.33,NNW,338,0.0,0.0,83,0.00,,---,0.00,VWS V14.01,2013-01-23 14:22:00,
2013-01-23 09:23:00,57.0,38.6,30.36,NNW,338,0.0,0.0,50,0.00,,---,0.00,VWS V14.01,2013-01-23 14:23:00,
2013-01-23 09:24:00,46.0,41.2,30.33,NW,315,0.0,0.0,83,0.00,,---,0.00,VWS V14.01,2013-01-23 14:24:00,
2013-01-23 09:25:00,46.2,41.3,30.33,NNW,338,0.0,0.0,83,0.00,,---,0.00,VWS V14.01,2013-01-23 14:25:00,
2013-01-23 09:26:00,46.4,41.5,30.33,NNW,338,0.0,0.0,83,0.00,,---,0.00,VWS V14.01,2013-01-23 14:26:00,
2013-01-23 09:27:00,46.4,41.2,30.33,NNW,338,0.0,0.0,82,0.00,,---,0.00,VWS V14.01,2013-01-23 14:27:00,
2013-01-23 09:28:00,57.6,39.1,30.36,NNW,338,0.0,0.0,50,0.00,,---,0.00,VWS V14.01,2013-01-23 14:28:00,
2013-01-23 09:29:00,46.6,41.1,30.33,NW,315,0.0,0.0,81,0.00,,---,0.00,VWS V14.01,2013-01-23 14:29:00,
2013-01-23 09:30:00,46.6,41.1,30.33,WNW,292,0.0,0.0,81,0.00,,---,0.00,VWS V14.01,2013-01-23 14:30:00,
2013-01-23 09:31:00,46.6,41.1,30.33,NW,315,0.0,0.0,81,0.00,,---,0.00,VWS V14.01,2013-01-23 14:31:00,
2013-01-23 09:32:00,46.8,40.9,30.33,NW,315,0.0,0.0,80,0.00,,---,0.00,VWS V14.01,2013-01-23 14:32:00,
2013-01-23 09:33:00,58.1,38.0,30.36,NNW,338,0.0,0.0,47,0.00,,---,0.00,VWS V14.01,2013-01-23 14:33:00,
2013-01-23 09:34:00,46.9,41.1,30.33,NNW,338,0.0,0.0,80,0.00,,---,0.00,VWS V14.01,2013-01-23 14:34:00,
2013-01-23 09:35:00,47.1,41.0,30.33,NNW,338,0.0,0.0,79,0.00,,---,0.00,VWS V14.01,2013-01-23 14:35:00,
2013-01-23 09:36:00,47.1,41.0,30.33,WNW,292,0.0,0.0,79,0.00,,---,0.00,VWS V14.01,2013-01-23 14:36:00,
2013-01-23 09:37:00,47.3,41.1,30.33,NW,315,0.0,0.0,79,0.00,,---,0.00,VWS V14.01,2013-01-23 14:37:00,
2013-01-23 09:38:00,58.6,39.0,30.39,NNW,338,0.0,0.0,48,0.00,,---,0.00,VWS V14.01,2013-01-23 14:38:00,
2013-01-23 09:39:00,47.5,41.0,30.33,NNW,338,0.0,0.0,78,0.00,,---,0.00,VWS V14.01,2013-01-23 14:39:00,
2013-01-23 09:40:00,47.5,40.6,30.33,NNW,338,0.0,0.0,77,0.00,,---,0.00,VWS V14.01,2013-01-23 14:40:00,
2013-01-23 09:41:00,47.7,40.8,30.33,NNW,338,0.0,0.0,77,0.00,,---,0.00,VWS V14.01,2013-01-23 14:41:00,
2013-01-23 09:42:00,47.8,40.7,30.33,NW,315,0.0,0.0,76,0.00,,---,0.00,VWS V14.01,2013-01-23 14:42:00,
2013-01-23 09:43:00,58.8,37.5,30.39,NNW,338,0.0,0.0,45,0.00,,---,0.00,VWS V14.01,2013-01-23 14:43:00,
2013-01-23 09:44:00,48.0,40.5,30.33,NNE,22,0.0,0.0,75,0.00,,---,0.00,VWS V14.01,2013-01-23 14:44:00,
2013-01-23 09:45:00,48.0,40.5,30.33,WNW,292,0.0,0.0,75,0.00,,---,0.00,VWS V14.01,2013-01-23 14:45:00,
2013-01-23 09:46:00,48.2,40.7,30.33,NNW,338,0.0,0.0,75,0.00,,---,0.00,VWS V14.01,2013-01-23 14:46:00,
2013-01-23 09:47:00,48.4,40.5,30.33,NNW,338,0.0,0.0,74,0.00,,---,0.00,VWS V14.01,2013-01-23 14:47:00,
2013-01-23 09:48:00,59.7,38.9,30.39,NNW,338,0.0,0.0,46,0.00,,---,0.00,VWS V14.01,2013-01-23 14:48:00,
2013-01-23 09:49:00,48.7,40.8,30.33,North,0,0.0,0.0,74,0.00,,---,0.00,VWS V14.01,2013-01-23 14:49:00,
2013-01-23 09:50:00,48.7,40.5,30.33,NNW,338,0.0,0.0,73,0.00,,---,0.00,VWS V14.01,2013-01-23 14:50:00,
2013-01-23 09:51:00,48.9,40.3,30.33,NNE,22,0.0,0.0,72,0.00,,---,0.00,VWS V14.01,2013-01-23 14:51:00,
2013-01-23 09:52:00,48.9,39.9,30.33,North,0,0.0,0.0,71,0.00,,---,0.00,VWS V14.01,2013-01-23 14:52:00,
2013-01-23 09:53:00,60.3,38.8,30.39,WNW,292,0.0,0.0,45,0.00,,---,0.00,VWS V14.01,2013-01-23 14:53:00,
2013-01-23 09:54:00,49.3,39.9,30.33,WNW,292,0.0,0.0,70,0.00,,---,0.00,VWS V14.01,2013-01-23 14:54:00,
2013-01-23 09:55:00,49.3,39.9,30.33,NNE,22,0.0,0.0,70,0.00,,---,0.00,VWS V14.01,2013-01-23 14:55:00,
2013-01-23 09:56:00,49.3,39.9,30.33,NNW,338,0.0,0.0,70,0.00,,---,0.00,VWS V14.01,2013-01-23 14:56:00,
2013-01-23 09:57:00,49.5,40.1,30.33,WNW,292,0.0,0.0,70,0.00,,---,0.00,VWS V14.01,2013-01-23 14:57:00,
2013-01-23 09:58:00,60.4,37.9,30.39,NE,45,0.0,0.0,43,0.00,,---,0.00,VWS V14.01,2013-01-23 14:58:00,
2013-01-23 09:59:00,49.6,40.3,30.33,North,0,0.0,0.0,70,0.00,,---,0.00,VWS V14.01,2013-01-23 14:59:00,
2013-01-23 10:00:00,49.8,40.1,30.33,NNW,338,0.0,0.0,69,0.00,,---,0.00,VWS V14.01,2013-01-23 15:00:00,
2013-01-23 10:01:00,50.0,39.9,30.33,NNW,338,0.0,0.0,68,0.00,,---,0.00,VWS V14.01,2013-01-23 15:01:00,
2013-01-23 10:02:00,50.2,40.0,30.36,NNW,338,0.0,0.0,68,0.00,,---,0.00,VWS V14.01,2013-01-23 15:02:00,
2013-01-23 10:03:00,61.3,38.7,30.39,NNW,338,0.0,0.0,43,0.00,,---,0.00,VWS V14.01,2013-01-23 15:03:00,
2013-01-23 10:04:00,50.4,39.5,30.36,NNW,338,0.0,0.0,66,0.00,,---,0.00,VWS V14.01,2013-01-23 15:04:00,
2013-01-23 10:05:00,50.5,39.2,30.36,NNW,338,0.0,0.0,65,0.00,,---,0.00,VWS V14.01,2013-01-23 15:05:00,
2013-01-23 10:06:00,50.7,39.0,30.36,NNW,338,0.0,0.0,64,0.00,,---,0.00,VWS V14.01,2013-01-23 15:06:00,
2013-01-23 10:07:00,50.9,39.2,30.36,NW,315,0.0,0.0,64,0.00,,---,0.00,VWS V14.01,2013-01-23 15:07:00,
2013-01-23 10:08:00,61.3,37.5,30.39,NNW,338,0.0,0.0,41,0.00,,---,0.00,VWS V14.01,2013-01-23 15:08:00,
2013-01-23 10:09:00,51.3,39.1,30.36,North,0,0.0,0.0,63,0.00,,---,0.00,VWS V14.01,2013-01-23 15:09:00,
2013-01-23 10:10:00,51.4,39.3,30.36,North,0,0.0,0.0,63,0.00,,---,0.00,VWS V14.01,2013-01-23 15:10:00,
2013-01-23 10:11:00,51.6,39.8,30.36,NNW,338,0.0,0.0,64,0.00,,---,0.00,VWS V14.01,2013-01-23 15:11:00,
2013-01-23 10:12:00,51.6,39.8,30.36,North,0,0.0,0.0,64,0.00,,---,0.00,VWS V14.01,2013-01-23 15:12:00,
2013-01-23 10:13:00,61.3,37.5,30.39,NW,315,0.0,0.0,41,0.00,,---,0.00,VWS V14.01,2013-01-23 15:13:00,
2013-01-23 10:14:00,52.2,39.1,30.36,NNW,338,0.0,0.0,61,0.00,,---,0.00,VWS V14.01,2013-01-23 15:14:00,
2013-01-23 10:15:00,52.2,39.1,30.36,North,0,0.0,0.0,61,0.00,,---,0.00,VWS V14.01,2013-01-23 15:15:00,
2013-01-23 10:16:00,52.3,39.3,30.36,NNE,22,0.0,0.0,61,0.00,,---,0.00,VWS V14.01,2013-01-23 15:16:00,
2013-01-23 10:17:00,52.3,39.3,30.36,NNW,338,0.0,0.0,61,0.00,,---,0.00,VWS V14.01,2013-01-23 15:17:00,
2013-01-23 10:18:00,61.7,37.8,30.39,NNW,338,0.0,0.0,41,0.00,,---,0.00,VWS V14.01,2013-01-23 15:18:00,
2013-01-23 10:19:00,52.7,39.2,30.36,NNW,338,0.0,0.0,60,0.00,,---,0.00,VWS V14.01,2013-01-23 15:19:00,
2013-01-23 10:20:00,53.1,38.7,30.36,North,0,0.0,0.0,58,0.00,,---,0.00,VWS V14.01,2013-01-23 15:20:00,
2013-01-23 10:21:00,53.1,38.2,30.36,NNE,22,0.0,0.0,57,0.00,,---,0.00,VWS V14.01,2013-01-23 15:21:00,
2013-01-23 10:22:00,53.2,38.4,30.36,NNW,338,0.0,0.0,57,0.00,,---,0.00,VWS V14.01,2013-01-23 15:22:00,
2013-01-23 10:23:00,62.4,37.8,30.39,NNE,22,0.0,0.0,40,0.00,,---,0.00,VWS V14.01,2013-01-23 15:23:00,
2013-01-23 10:24:00,53.6,39.2,30.36,NNW,338,0.0,0.0,58,0.00,,---,0.00,VWS V14.01,2013-01-23 15:24:00,
2013-01-23 10:25:00,53.6,38.8,30.36,NNW,338,0.0,0.0,57,0.00,,---,0.00,VWS V14.01,2013-01-23 15:25:00,
2013-01-23 10:26:00,53.8,38.5,30.36,North,0,0.0,0.0,56,0.00,,---,0.00,VWS V14.01,2013-01-23 15:26:00,
2013-01-23 10:27:00,53.8,38.5,30.36,North,0,0.0,0.0,56,0.00,,---,0.00,VWS V14.01,2013-01-23 15:27:00,
2013-01-23 10:28:00,63.3,38.0,30.39,NE,45,0.0,0.0,39,0.00,,---,0.00,VWS V14.01,2013-01-23 15:28:00,
2013-01-23 10:29:00,54.3,38.5,30.36,NNW,338,0.0,0.0,55,0.00,,---,0.00,VWS V14.01,2013-01-23 15:29:00,
2013-01-23 10:30:00,54.3,38.5,30.36,North,0,0.0,0.0,55,0.00,,---,0.00,VWS V14.01,2013-01-23 15:30:00,
2013-01-23 10:31:00,54.5,38.2,30.36,NNW,338,0.0,0.0,54,0.00,,---,0.00,VWS V14.01,2013-01-23 15:31:00,
2013-01-23 10:32:00,54.5,38.2,30.39,NW,315,0.0,0.0,54,0.00,,---,0.00,VWS V14.01,2013-01-23 15:32:00,
2013-01-23 10:33:00,64.4,38.3,30.39,North,0,0.0,0.0,38,0.00,,---,0.00,VWS V14.01,2013-01-23 15:33:00,
2013-01-23 10:34:00,54.9,39.0,30.39,NNW,338,0.0,0.0,55,0.00,,---,0.00,VWS V14.01,2013-01-23 15:34:00,
2013-01-23 10:35:00,55.0,38.7,30.39,NNE,22,0.0,0.0,54,0.00,,---,0.00,VWS V14.01,2013-01-23 15:35:00,
2013-01-23 10:36:00,55.2,38.9,30.39,NNW,338,0.0,0.0,54,0.00,,---,0.00,VWS V14.01,2013-01-23 15:36:00,
2013-01-23 10:37:00,55.4,39.0,30.39,North,0,0.0,0.0,54,0.00,,---,0.00,VWS V14.01,2013-01-23 15:37:00,
2013-01-23 10:38:00,66.2,39.2,30.39,NNE,22,0.0,0.0,37,0.00,,---,0.00,VWS V14.01,2013-01-23 15:38:00,
2013-01-23 10:39:00,55.6,39.2,30.39,NNE,22,0.0,0.0,54,0.00,,---,0.00,VWS V14.01,2013-01-23 15:39:00,
2013-01-23 10:40:00,55.8,38.4,30.39,NNW,338,0.0,0.0,52,0.00,,---,0.00,VWS V14.01,2013-01-23 15:40:00,
2013-01-23 10:41:00,55.9,38.6,30.39,NW,315,0.0,0.0,52,0.00,,---,0.00,VWS V14.01,2013-01-23 15:41:00,
2013-01-23 10:42:00,55.9,38.6,30.39,North,0,0.0,0.0,52,0.00,,---,0.00,VWS V14.01,2013-01-23 15:42:00,
2013-01-23 10:43:00,66.6,38.8,30.39,North,0,0.0,0.0,36,0.00,,---,0.00,VWS V14.01,2013-01-23 15:43:00,
2013-01-23 10:44:00,56.5,38.6,30.39,NNE,22,0.0,0.0,51,0.00,,---,0.00,VWS V14.01,2013-01-23 15:44:00,
2013-01-23 10:45:00,56.5,38.6,30.39,North,0,0.0,0.0,51,0.00,,---,0.00,VWS V14.01,2013-01-23 15:45:00,
2013-01-23 10:46:00,56.5,38.6,30.39,NNE,22,0.0,0.0,51,0.00,,---,0.00,VWS V14.01,2013-01-23 15:46:00,
2013-01-23 10:47:00,56.5,38.6,30.36,NNE,22,0.0,0.0,51,0.00,,---,0.00,VWS V14.01,2013-01-23 15:47:00,
2013-01-23 10:48:00,67.3,38.7,30.39,NNE,22,0.0,0.0,35,0.00,,---,0.00,VWS V14.01,2013-01-23 15:48:00,
2013-01-23 10:49:00,56.8,38.4,30.36,NW,315,0.0,0.0,50,0.00,,---,0.00,VWS V14.01,2013-01-23 15:49:00,
2013-01-23 10:50:00,57.0,38.6,30.36,NNW,338,0.0,0.0,50,0.00,,---,0.00,VWS V14.01,2013-01-23 15:50:00,
2013-01-23 10:51:00,57.2,38.2,30.36,NNW,338,0.0,0.0,49,0.00,,---,0.00,VWS V14.01,2013-01-23 15:51:00,
2013-01-23 10:52:00,57.2,38.8,30.36,NNE,22,0.0,0.0,50,0.00,,---,0.00,VWS V14.01,2013-01-23 15:52:00,
2013-01-23 10:53:00,68.0,38.6,30.39,NNW,338,0.0,0.0,34,0.00,,---,0.00,VWS V14.01,2013-01-23 15:53:00,
2013-01-23 10:54:00,57.6,39.1,30.36,NNW,338,0.0,0.0,50,0.00,,---,0.00,VWS V14.01,2013-01-23 15:54:00,
2013-01-23 10:55:00,57.6,39.1,30.36,NNW,338,0.0,0.0,50,0.00,,---,0.00,VWS V14.01,2013-01-23 15:55:00,
2013-01-23 10:56:00,57.7,38.7,30.36,NW,315,0.0,0.0,49,0.00,,---,0.00,VWS V14.01,2013-01-23 15:56:00,
2013-01-23 10:57:00,57.7,38.7,30.36,NNW,338,0.0,0.0,49,0.00,,---,0.00,VWS V14.01,2013-01-23 15:57:00,
2013-01-23 10:58:00,68.4,38.2,30.39,NNW,338,0.0,0.0,33,0.00,,---,0.00,VWS V14.01,2013-01-23 15:58:00,
2013-01-23 10:59:00,57.9,38.4,30.36,NNW,338,0.0,0.0,48,0.00,,---,0.00,VWS V14.01,2013-01-23 15:59:00,
2013-01-23 11:00:00,58.1,38.0,30.36,NNW,338,0.0,0.0,47,0.00,,---,0.00,VWS V14.01,2013-01-23 16:00:00,
2013-01-23 11:01:00,58.1,38.5,30.36,NNW,338,0.0,0.0,48,0.00,,---,0.00,VWS V14.01,2013-01-23 16:01:00,
2013-01-23 11:02:00,58.3,38.7,30.39,NNW,338,0.0,0.0,48,0.00,,---,0.00,VWS V14.01,2013-01-23 16:02:00,
2013-01-23 11:03:00,68.7,38.5,30.39,ENE,68,0.0,0.0,33,0.00,,---,0.00,VWS V14.01,2013-01-23 16:03:00,
2013-01-23 11:04:00,58.5,38.9,30.39,North,0,0.0,0.0,48,0.00,,---,0.00,VWS V14.01,2013-01-23 16:04:00,
2013-01-23 11:05:00,58.6,39.0,30.39,NNE,22,0.0,0.0,48,0.00,,---,0.00,VWS V14.01,2013-01-23 16:05:00,
2013-01-23 11:06:00,58.6,38.5,30.39,NNW,338,0.0,0.0,47,0.00,,---,0.00,VWS V14.01,2013-01-23 16:06:00,
2013-01-23 11:07:00,58.8,38.7,30.39,NNW,338,0.0,0.0,47,0.00,,---,0.00,VWS V14.01,2013-01-23 16:07:00,
2013-01-23 11:08:00,68.7,38.5,30.36,North,0,0.0,0.0,33,0.00,,---,0.00,VWS V14.01,2013-01-23 16:08:00,
2013-01-23 11:09:00,58.8,38.1,30.39,North,0,0.0,0.0,46,0.00,,---,0.00,VWS V14.01,2013-01-23 16:09:00,
2013-01-23 11:10:00,58.8,37.5,30.39,NNW,338,0.0,0.0,45,0.00,,---,0.00,VWS V14.01,2013-01-23 16:10:00,
2013-01-23 11:11:00,59.0,37.7,30.39,NNW,338,0.0,0.0,45,0.00,,---,0.00,VWS V14.01,2013-01-23 16:11:00,
2013-01-23 11:12:00,59.2,37.9,30.39,NNW,338,0.0,0.0,45,0.00,,---,0.00,VWS V14.01,2013-01-23 16:12:00,
2013-01-23 11:13:00,69.6,39.3,30.36,NNE,22,0.0,0.0,33,0.00,,---,0.00,VWS V14.01,2013-01-23 16:13:00,
2013-01-23 11:14:00,59.7,38.9,30.39,North,0,0.0,0.0,46,0.00,,---,0.00,VWS V14.01,2013-01-23 16:14:00,
2013-01-23 11:15:00,59.7,38.9,30.39,NNW,338,0.0,0.0,46,0.00,,---,0.00,VWS V14.01,2013-01-23 16:15:00,
2013-01-23 11:16:00,59.9,38.5,30.39,NNE,22,0.0,0.0,45,0.00,,---,0.00,VWS V14.01,2013-01-23 16:16:00,
2013-01-23 11:17:00,60.1,38.7,30.39,NE,45,0.0,0.0,45,0.00,,---,0.00,VWS V14.01,2013-01-23 16:17:00,
2013-01-23 11:18:00,69.4,39.1,30.36,NNW,338,0.0,0.0,33,0.00,,---,0.00,VWS V14.01,2013-01-23 16:18:00,
2013-01-23 11:19:00,60.3,38.8,30.39,North,0,0.0,0.0,45,0.00,,---,0.00,VWS V14.01,2013-01-23 16:19:00,
2013-01-23 11:20:00,60.3,38.8,30.39,NNW,338,0.0,0.0,45,0.00,,---,0.00,VWS V14.01,2013-01-23 16:20:00,
2013-01-23 11:21:00,60.3,38.3,30.39,NNW,338,0.0,0.0,44,0.00,,---,0.00,VWS V14.01,2013-01-23 16:21:00,
2013-01-23 11:22:00,60.3,38.3,30.39,North,0,0.0,0.0,44,0.00,,---,0.00,VWS V14.01,2013-01-23 16:22:00,
2013-01-23 11:23:00,70.2,39.0,30.36,North,0,0.0,0.0,32,0.00,,---,0.00,VWS V14.01,2013-01-23 16:23:00,
2013-01-23 11:24:00,60.4,37.9,30.39,NNW,338,0.0,0.0,43,0.00,,---,0.00,VWS V14.01,2013-01-23 16:24:00,
2013-01-23 11:25:00,60.4,37.9,30.39,NE,45,0.0,0.0,43,0.00,,---,0.00,VWS V14.01,2013-01-23 16:25:00,
2013-01-23 11:26:00,60.6,38.6,30.39,NNW,338,0.0,0.0,44,0.00,,---,0.00,VWS V14.01,2013-01-23 16:26:00,
2013-01-23 11:27:00,60.8,38.8,30.39,NNE,22,0.0,0.0,44,0.00,,---,0.00,VWS V14.01,2013-01-23 16:27:00,
2013-01-23 11:28:00,70.3,39.1,30.36,NNW,338,0.0,0.0,32,0.00,,---,0.00,VWS V14.01,2013-01-23 16:28:00,
2013-01-23 11:29:00,61.3,39.3,30.39,NW,315,0.0,0.0,44,0.00,,---,0.00,VWS V14.01,2013-01-23 16:29:00,
2013-01-23 11:30:00,61.3,38.7,30.39,NNW,338,0.0,0.0,43,0.00,,---,0.00,VWS V14.01,2013-01-23 16:30:00,
2013-01-23 11:31:00,61.2,37.9,30.39,North,0,0.0,0.0,42,0.00,,---,0.00,VWS V14.01,2013-01-23 16:31:00,
2013-01-23 11:32:00,61.3,38.1,30.39,NNW,338,0.0,0.0,42,0.00,,---,0.00,VWS V14.01,2013-01-23 16:32:00,
2013-01-23 11:33:00,70.5,39.3,30.36,ESE,112,0.0,0.0,32,0.00,,---,0.00,VWS V14.01,2013-01-23 16:33:00,
2013-01-23 11:34:00,61.3,38.1,30.39,NNW,338,0.0,0.0,42,0.00,,---,0.00,VWS V14.01,2013-01-23 16:34:00,
2013-01-23 11:35:00,61.3,37.5,30.39,NNW,338,0.0,0.0,41,0.00,,---,0.00,VWS V14.01,2013-01-23 16:35:00,
2013-01-23 11:36:00,61.3,37.5,30.39,WNW,292,0.0,0.0,41,0.00,,---,0.00,VWS V14.01,2013-01-23 16:36:00,
2013-01-23 11:37:00,61.3,36.8,30.39,NNE,22,0.0,0.0,40,0.00,,---,0.00,VWS V14.01,2013-01-23 16:37:00,
2013-01-23 11:38:00,71.2,39.9,30.36,NE,45,0.0,0.0,32,0.00,,---,0.00,VWS V14.01,2013-01-23 16:38:00,
2013-01-23 11:39:00,61.3,37.5,30.39,North,0,0.0,0.0,41,0.00,,---,0.00,VWS V14.01,2013-01-23 16:39:00,
2013-01-23 11:40:00,61.3,37.5,30.39,NNW,338,0.0,0.0,41,0.00,,---,0.00,VWS V14.01,2013-01-23 16:40:00,
2013-01-23 11:41:00,61.5,37.6,30.39,WNW,292,0.0,0.0,41,0.00,,---,0.00,VWS V14.01,2013-01-23 16:41:00,
2013-01-23 11:42:00,61.3,36.8,30.39,NNE,22,0.0,0.0,40,0.00,,---,0.00,VWS V14.01,2013-01-23 16:42:00,
2013-01-23 11:43:00,70.7,39.4,30.36,NNE,22,0.0,0.0,32,0.00,,---,0.00,VWS V14.01,2013-01-23 16:43:00,
2013-01-23 11:44:00,61.7,37.8,30.39,NNW,338,0.0,0.0,41,0.00,,---,0.00,VWS V14.01,2013-01-23 16:44:00,
2013-01-23 11:45:00,61.7,37.8,30.39,NNW,338,0.0,0.0,41,0.00,,---,0.00,VWS V14.01,2013-01-23 16:45:00,
2013-01-23 11:46:00,61.9,38.0,30.39,NNW,338,0.0,0.0,41,0.00,,---,0.00,VWS V14.01,2013-01-23 16:46:00,
2013-01-23 11:47:00,61.9,38.0,30.39,NNE,22,0.0,0.0,41,0.00,,---,0.00,VWS V14.01,2013-01-23 16:47:00,
2013-01-23 11:48:00,71.6,39.4,30.36,East,90,0.0,0.0,31,0.00,,---,0.00,VWS V14.01,2013-01-23 16:48:00,
2013-01-23 11:49:00,62.4,38.4,30.39,NNW,338,0.0,0.0,41,0.00,,---,0.00,VWS V14.01,2013-01-23 16:49:00,
2013-01-23 11:50:00,62.4,37.8,30.39,NNE,22,0.0,0.0,40,0.00,,---,0.00,VWS V14.01,2013-01-23 16:50:00,
2013-01-23 11:51:00,62.4,37.8,30.39,NNW,338,0.0,0.0,40,0.00,,---,0.00,VWS V14.01,2013-01-23 16:51:00,
2013-01-23 11:52:00,62.8,38.1,30.39,NNW,338,0.0,0.0,40,0.00,,---,0.00,VWS V14.01,2013-01-23 16:52:00,
2013-01-23 11:53:00,72.0,40.5,30.33,North,0,0.0,0.0,32,0.00,,---,0.00,VWS V14.01,2013-01-23 16:53:00,
2013-01-23 11:54:00,63.1,37.8,30.39,NNE,22,0.0,0.0,39,0.00,,---,0.00,VWS V14.01,2013-01-23 16:54:00,
2013-01-23 11:55:00,63.3,38.0,30.39,North,0,0.0,0.0,39,0.00,,---,0.00,VWS V14.01,2013-01-23 16:55:00,
2013-01-23 11:56:00,63.7,38.9,30.39,NNE,22,0.0,0.0,40,0.00,,---,0.00,VWS V14.01,2013-01-23 16:56:00,
2013-01-23 11:57:00,64.0,38.6,30.39,NNW,338,0.0,0.0,39,0.00,,---,0.00,VWS V14.01,2013-01-23 16:57:00,
2013-01-23 11:58:00,72.0,39.7,30.33,NNE,22,0.0,0.0,31,0.00,,---,0.00,VWS V14.01,2013-01-23 16:58:00,
2013-01-23 11:59:00,64.4,38.3,30.39,NNW,338,0.0,0.0,38,0.00,,---,0.00,VWS V14.01,2013-01-23 16:59:00,
2013-01-23 12:00:00,64.6,37.8,30.39,North,0,0.0,0.0,37,0.00,,---,0.00,VWS V14.01,2013-01-23 17:00:00,
2013-01-23 12:01:00,64.9,38.8,30.39,NNE,22,0.0,0.0,38,0.00,,---,0.00,VWS V14.01,2013-01-23 17:01:00,
2013-01-23 12:02:00,65.1,39.6,30.39,NNW,338,0.0,0.0,39,0.00,,---,0.00,VWS V14.01,2013-01-23 17:02:00,
2013-01-23 12:03:00,72.5,40.2,30.33,ENE,68,0.0,0.0,31,0.00,,---,0.00,VWS V14.01,2013-01-23 17:03:00,
2013-01-23 12:04:00,66.0,40.4,30.39,North,0,0.0,0.0,39,0.00,,---,0.00,VWS V14.01,2013-01-23 17:04:00,
2013-01-23 12:05:00,66.2,39.2,30.39,North,0,0.0,0.0,37,0.00,,---,0.00,VWS V14.01,2013-01-23 17:05:00,
2013-01-23 12:06:00,66.4,37.9,30.39,NNW,338,0.0,0.0,35,0.00,,---,0.00,VWS V14.01,2013-01-23 17:06:00,
2013-01-23 12:07:00,66.2,38.5,30.39,NNE,22,0.0,0.0,36,0.00,,---,0.00,VWS V14.01,2013-01-23 17:07:00,
2013-01-23 12:08:00,72.1,39.9,30.33,ENE,68,0.0,0.0,31,0.00,,---,0.00,VWS V14.01,2013-01-23 17:08:00,
2013-01-23 12:09:00,66.4,38.6,30.39,North,0,0.0,0.0,36,0.00,,---,0.00,VWS V14.01,2013-01-23 17:09:00,
2013-01-23 12:10:00,66.6,38.8,30.39,NNW,338,0.0,0.0,36,0.00,,---,0.00,VWS V14.01,2013-01-23 17:10:00,
2013-01-23 12:11:00,66.6,38.1,30.39,NNE,22,0.0,0.0,35,0.00,,---,0.00,VWS V14.01,2013-01-23 17:11:00,
2013-01-23 12:12:00,66.6,38.1,30.39,NNE,22,0.0,0.0,35,0.00,,---,0.00,VWS V14.01,2013-01-23 17:12:00,
2013-01-23 12:13:00,71.6,38.6,30.33,NNW,338,0.0,0.0,30,0.00,,---,0.00,VWS V14.01,2013-01-23 17:13:00,
2013-01-23 12:14:00,67.1,38.6,30.39,NNE,22,0.0,0.0,35,0.00,,---,0.00,VWS V14.01,2013-01-23 17:14:00,
2013-01-23 12:15:00,67.6,39.0,30.39,NNE,22,0.0,0.0,35,0.00,,---,0.00,VWS V14.01,2013-01-23 17:15:00,
2013-01-23 12:16:00,67.8,39.2,30.39,NNE,22,0.0,0.0,35,0.00,,---,0.00,VWS V14.01,2013-01-23 17:16:00,
2013-01-23 12:17:00,67.8,39.2,30.39,ENE,68,0.0,0.0,35,0.00,,---,0.00,VWS V14.01,2013-01-23 17:17:00,
2013-01-23 12:18:00,73.6,41.1,30.33,NNW,338,0.0,0.0,31,0.00,,---,0.00,VWS V14.01,2013-01-23 17:18:00,
2013-01-23 12:19:00,67.8,38.5,30.39,NNE,22,0.0,0.0,34,0.00,,---,0.00,VWS V14.01,2013-01-23 17:19:00,
2013-01-23 12:20:00,68.0,38.6,30.39,North,0,0.0,0.0,34,0.00,,---,0.00,VWS V14.01,2013-01-23 17:20:00,
2013-01-23 12:21:00,68.0,38.6,30.39,NNE,22,0.0,0.0,34,0.00,,---,0.00,VWS V14.01,2013-01-23 17:21:00,
2013-01-23 12:22:00,68.4,38.9,30.39,ENE,68,0.0,0.0,34,0.00,,---,0.00,VWS V14.01,2013-01-23 17:22:00,
2013-01-23 12:23:00,73.6,41.1,30.30,NNE,22,0.0,0.0,31,0.00,,---,0.00,VWS V14.01,2013-01-23 17:23:00,
2013-01-23 12:24:00,68.4,38.2,30.39,NW,315,0.0,0.0,33,0.00,,---,0.00,VWS V14.01,2013-01-23 17:24:00,
2013-01-23 12:25:00,68.4,38.2,30.39,NNW,338,0.0,0.0,33,0.00,,---,0.00,VWS V14.01,2013-01-23 17:25:00,
2013-01-23 12:26:00,68.5,38.3,30.39,NE,45,0.0,0.0,33,0.00,,---,0.00,VWS V14.01,2013-01-23 17:26:00,
2013-01-23 12:27:00,68.5,38.3,30.39,NNW,338,0.0,0.0,33,0.00,,---,0.00,VWS V14.01,2013-01-23 17:27:00,
2013-01-23 12:28:00,73.2,40.0,30.30,NW,315,0.0,0.0,30,0.00,,---,0.00,VWS V14.01,2013-01-23 17:28:00,
2013-01-23 12:29:00,68.7,38.5,30.39,North,0,0.0,0.0,33,0.00,,---,0.00,VWS V14.01,2013-01-23 17:29:00,
2013-01-23 12:30:00,68.7,38.5,30.39,ENE,68,0.0,0.0,33,0.00,,---,0.00,VWS V14.01,2013-01-23 17:30:00,
2013-01-23 12:31:00,68.9,38.6,30.39,ENE,68,0.0,0.0,33,0.00,,---,0.00,VWS V14.01,2013-01-23 17:31:00,
2013-01-23 12:32:00,68.9,38.6,30.36,NE,45,0.0,0.0,33,0.00,,---,0.00,VWS V14.01,2013-01-23 17:32:00,
2013-01-23 12:33:00,73.8,39.5,30.30,NNE,22,0.0,0.0,29,0.00,,---,0.00,VWS V14.01,2013-01-23 17:33:00,
2013-01-23 12:34:00,68.9,38.6,30.36,NNW,338,0.0,0.0,33,0.00,,---,0.00,VWS V14.01,2013-01-23 17:34:00,
2013-01-23 12:35:00,68.7,38.5,30.36,NE,45,0.0,0.0,33,0.00,,---,0.00,VWS V14.01,2013-01-23 17:35:00,
2013-01-23 12:36:00,68.9,38.6,30.36,NNE,22,0.0,0.0,33,0.00,,---,0.00,VWS V14.01,2013-01-23 17:36:00,
2013-01-23 12:37:00,69.1,38.8,30.36,NE,45,0.0,0.0,33,0.00,,---,0.00,VWS V14.01,2013-01-23 17:37:00,
2013-01-23 12:38:00,73.6,38.5,30.30,ENE,68,0.0,0.0,28,0.00,,---,0.00,VWS V14.01,2013-01-23 17:38:00,
2013-01-23 12:39:00,69.4,39.1,30.36,North,0,0.0,0.0,33,0.00,,---,0.00,VWS V14.01,2013-01-23 17:39:00,
2013-01-23 12:40:00,69.6,39.3,30.36,NNE,22,0.0,0.0,33,0.00,,---,0.00,VWS V14.01,2013-01-23 17:40:00,
2013-01-23 12:41:00,69.8,39.4,30.36,NW,315,0.0,0.0,33,0.00,,---,0.00,VWS V14.01,2013-01-23 17:41:00,
2013-01-23 12:42:00,69.8,39.4,30.36,NNE,22,0.0,0.0,33,0.00,,---,0.00,VWS V14.01,2013-01-23 17:42:00,
2013-01-23 12:43:00,73.2,38.2,30.30,ENE,68,0.0,0.0,28,0.00,,---,0.00,VWS V14.01,2013-01-23 17:43:00,
2013-01-23 12:44:00,69.8,39.4,30.36,NNW,338,0.0,0.0,33,0.00,,---,0.00,VWS V14.01,2013-01-23 17:44:00,
2013-01-23 12:45:00,69.6,39.3,30.36,ENE,68,0.0,0.0,33,0.00,,---,0.00,VWS V14.01,2013-01-23 17:45:00,
2013-01-23 12:46:00,70.0,39.6,30.36,NNE,22,0.0,0.0,33,0.00,,---,0.00,VWS V14.01,2013-01-23 17:46:00,
2013-01-23 12:47:00,70.2,39.7,30.36,NNW,338,0.0,0.0,33,0.00,,---,0.00,VWS V14.01,2013-01-23 17:47:00,
2013-01-23 12:48:00,72.7,37.7,30.30,NW,315,0.0,0.0,28,0.00,,---,0.00,VWS V14.01,2013-01-23 17:48:00,
2013-01-23 12:49:00,70.2,39.0,30.36,NNE,22,0.0,0.0,32,0.00,,---,0.00,VWS V14.01,2013-01-23 17:49:00,
2013-01-23 12:50:00,70.2,39.0,30.36,NW,315,0.0,0.0,32,0.00,,---,0.00,VWS V14.01,2013-01-23 17:50:00,
2013-01-23 12:51:00,70.2,39.0,30.36,NNW,338,0.0,0.0,32,0.00,,---,0.00,VWS V14.01,2013-01-23 17:51:00,
2013-01-23 12:52:00,70.0,38.8,30.36,NNE,22,0.0,0.0,32,0.00,,---,0.00,VWS V14.01,2013-01-23 17:52:00,
2013-01-23 12:53:00,72.7,37.7,30.33,NNE,22,0.0,0.0,28,0.00,,---,0.00,VWS V14.01,2013-01-23 17:53:00,
2013-01-23 12:54:00,70.5,39.3,30.36,NW,315,0.0,0.0,32,0.00,,---,0.00,VWS V14.01,2013-01-23 17:54:00,
2013-01-23 12:55:00,70.3,39.1,30.36,NNE,22,0.0,0.0,32,0.00,,---,0.00,VWS V14.01,2013-01-23 17:55:00,
2013-01-23 12:56:00,70.3,39.1,30.36,NE,45,0.0,0.0,32,0.00,,---,0.00,VWS V14.01,2013-01-23 17:56:00,
2013-01-23 12:57:00,70.3,39.1,30.36,NNE,22,0.0,0.0,32,0.00,,---,0.00,VWS V14.01,2013-01-23 17:57:00,
2013-01-23 12:58:00,73.6,38.5,30.33,ESE,112,0.0,0.0,28,0.00,,---,0.00,VWS V14.01,2013-01-23 17:58:00,
2013-01-23 12:59:00,70.5,39.3,30.36,ENE,68,0.0,0.0,32,0.00,,---,0.00,VWS V14.01,2013-01-23 17:59:00,
2013-01-23 13:00:00,70.5,39.3,30.36,ENE,68,0.0,0.0,32,0.00,,---,0.00,VWS V14.01,2013-01-23 18:00:00,
2013-01-23 13:01:00,70.7,39.4,30.36,NE,45,0.0,0.0,32,0.00,,---,0.00,VWS V14.01,2013-01-23 18:01:00,
2013-01-23 13:02:00,71.1,39.7,30.36,NNE,22,0.0,0.0,32,0.00,,---,0.00,VWS V14.01,2013-01-23 18:02:00,
2013-01-23 13:03:00,74.5,37.4,30.33,NNW,338,0.0,0.0,26,0.00,,---,0.00,VWS V14.01,2013-01-23 18:03:00,
2013-01-23 13:04:00,71.2,39.9,30.36,ENE,68,0.0,0.0,32,0.00,,---,0.00,VWS V14.01,2013-01-23 18:04:00,
2013-01-23 13:05:00,71.2,39.9,30.36,NNE,22,0.0,0.0,32,0.00,,---,0.00,VWS V14.01,2013-01-23 18:05:00,
2013-01-23 13:06:00,71.2,39.9,30.36,North,0,0.0,0.0,32,0.00,,---,0.00,VWS V14.01,2013-01-23 18:06:00,
2013-01-23 13:07:00,71.2,39.9,30.36,NNE,22,0.0,0.0,32,0.00,,---,0.00,VWS V14.01,2013-01-23 18:07:00,
2013-01-23 13:08:00,73.9,36.9,30.33,North,0,0.0,0.0,26,0.00,,---,0.00,VWS V14.01,2013-01-23 18:08:00,
2013-01-23 13:09:00,70.7,39.4,30.36,NNW,338,0.0,0.0,32,0.00,,---,0.00,VWS V14.01,2013-01-23 18:09:00,
2013-01-23 13:10:00,70.7,39.4,30.36,NNE,22,0.0,0.0,32,0.00,,---,0.00,VWS V14.01,2013-01-23 18:10:00,
2013-01-23 13:11:00,70.9,39.6,30.36,ENE,68,0.0,0.0,32,0.00,,---,0.00,VWS V14.01,2013-01-23 18:11:00,
2013-01-23 13:12:00,70.9,39.6,30.36,NNE,22,0.0,0.0,32,0.00,,---,0.00,VWS V14.01,2013-01-23 18:12:00,
2013-01-23 13:13:00,74.1,36.1,30.33,North,0,0.0,0.0,25,0.00,,---,0.00,VWS V14.01,2013-01-23 18:13:00,
2013-01-23 13:14:00,72.1,40.7,30.36,ENE,68,0.0,0.0,32,0.00,,---,0.00,VWS V14.01,2013-01-23 18:14:00,
2013-01-23 13:15:00,71.4,40.0,30.36,ENE,68,0.0,0.0,32,0.00,,---,0.00,VWS V14.01,2013-01-23 18:15:00,
2013-01-23 13:16:00,71.6,40.2,30.36,NW,315,0.0,0.0,32,0.00,,---,0.00,VWS V14.01,2013-01-23 18:16:00,
2013-01-23 13:17:00,71.6,39.4,30.33,ENE,68,0.0,0.0,31,0.00,,---,0.00,VWS V14.01,2013-01-23 18:17:00,
2013-01-23 13:18:00,74.3,36.2,30.33,NNE,22,0.0,0.0,25,0.00,,---,0.00,VWS V14.01,2013-01-23 18:18:00,
2013-01-23 13:19:00,71.8,39.5,30.33,NNW,338,0.0,0.0,31,0.00,,---,0.00,VWS V14.01,2013-01-23 18:19:00,
2013-01-23 13:20:00,72.0,40.5,30.33,NE,45,0.0,0.0,32,0.00,,---,0.00,VWS V14.01,2013-01-23 18:20:00,
2013-01-23 13:21:00,71.6,39.4,30.33,North,0,0.0,0.0,31,0.00,,---,0.00,VWS V14.01,2013-01-23 18:21:00,
2013-01-23 13:22:00,71.4,40.0,30.33,NW,315,0.0,0.0,32,0.00,,---,0.00,VWS V14.01,2013-01-23 18:22:00,
2013-01-23 13:23:00,73.6,35.6,30.30,ENE,68,0.0,0.0,25,0.00,,---,0.00,VWS V14.01,2013-01-23 18:23:00,
2013-01-23 13:24:00,71.8,39.5,30.33,North,0,0.0,0.0,31,0.00,,---,0.00,VWS V14.01,2013-01-23 18:24:00,
2013-01-23 13:25:00,72.0,39.7,30.33,North,0,0.0,0.0,31,0.00,,---,0.00,VWS V14.01,2013-01-23 18:25:00,
2013-01-23 13:26:00,72.1,39.9,30.33,NW,315,0.0,0.0,31,0.00,,---,0.00,VWS V14.01,2013-01-23 18:26:00,
2013-01-23 13:27:00,72.3,40.0,30.33,North,0,0.0,0.0,31,0.00,,---,0.00,VWS V14.01,2013-01-23 18:27:00,
2013-01-23 13:28:00,73.6,35.6,30.30,ENE,68,0.0,0.0,25,0.00,,---,0.00,VWS V14.01,2013-01-23 18:28:00,
2013-01-23 13:29:00,72.9,40.5,30.33,ENE,68,0.0,0.0,31,0.00,,---,0.00,VWS V14.01,2013-01-23 18:29:00,
2013-01-23 13:30:00,72.5,40.2,30.33,NE,45,0.0,0.0,31,0.00,,---,0.00,VWS V14.01,2013-01-23 18:30:00,
2013-01-23 13:31:00,72.1,39.0,30.33,ENE,68,0.0,0.0,30,0.00,,---,0.00,VWS V14.01,2013-01-23 18:31:00,
2013-01-23 13:32:00,72.3,40.0,30.33,ENE,68,0.0,0.0,31,0.00,,---,0.00,VWS V14.01,2013-01-23 18:32:00,
2013-01-23 13:33:00,74.1,36.1,30.30,NNE,22,0.0,0.0,25,0.00,,---,0.00,VWS V14.01,2013-01-23 18:33:00,
2013-01-23 13:34:00,72.3,40.0,30.33,ENE,68,0.0,0.0,31,0.00,,---,0.00,VWS V14.01,2013-01-23 18:34:00,
2013-01-23 13:35:00,72.1,39.9,30.33,ENE,68,0.0,0.0,31,0.00,,---,0.00,VWS V14.01,2013-01-23 18:35:00,
2013-01-23 13:36:00,72.3,40.0,30.33,North,0,0.0,0.0,31,0.00,,---,0.00,VWS V14.01,2013-01-23 18:36:00,
2013-01-23 13:37:00,72.0,38.9,30.33,NNE,22,0.0,0.0,30,0.00,,---,0.00,VWS V14.01,2013-01-23 18:37:00,
2013-01-23 13:38:00,74.3,36.2,30.30,North,0,0.0,0.0,25,0.00,,---,0.00,VWS V14.01,2013-01-23 18:38:00,
2013-01-23 13:39:00,71.6,38.6,30.33,NW,315,0.0,0.0,30,0.00,,---,0.00,VWS V14.01,2013-01-23 18:39:00,
2013-01-23 13:40:00,71.6,38.6,30.33,NW,315,0.0,0.0,30,0.00,,---,0.00,VWS V14.01,2013-01-23 18:40:00,
2013-01-23 13:41:00,72.1,39.9,30.33,ENE,68,0.0,0.0,31,0.00,,---,0.00,VWS V14.01,2013-01-23 18:41:00,
2013-01-23 13:42:00,72.7,40.3,30.33,NE,45,0.0,0.0,31,0.00,,---,0.00,VWS V14.01,2013-01-23 18:42:00,
2013-01-23 13:43:00,74.5,36.4,30.30,NNE,22,0.0,0.0,25,0.00,,---,0.00,VWS V14.01,2013-01-23 18:43:00,
2013-01-23 13:44:00,73.0,40.6,30.33,NNE,22,0.0,0.0,31,0.00,,---,0.00,VWS V14.01,2013-01-23 18:44:00,
2013-01-23 13:45:00,73.6,41.1,30.33,NW,315,0.0,0.0,31,0.00,,---,0.00,VWS V14.01,2013-01-23 18:45:00,
2013-01-23 13:46:00,72.7,39.5,30.33,NNW,338,0.0,0.0,30,0.00,,---,0.00,VWS V14.01,2013-01-23 18:46:00,
2013-01-23 13:47:00,72.7,40.3,30.33,NNE,22,0.0,0.0,31,0.00,,---,0.00,VWS V14.01,2013-01-23 18:47:00,
2013-01-23 13:48:00,74.5,36.4,30.30,NNE,22,0.0,0.0,25,0.00,,---,0.00,VWS V14.01,2013-01-23 18:48:00,
2013-01-23 13:49:00,73.4,40.1,30.30,NNE,22,0.0,0.0,30,0.00,,---,0.00,VWS V14.01,2013-01-23 18:49:00,
2013-01-23 13:50:00,73.6,41.1,30.30,ENE,68,0.0,0.0,31,0.00,,---,0.00,VWS V14.01,2013-01-23 18:50:00,
2013-01-23 13:51:00,73.6,41.1,30.30,North,0,0.0,0.0,31,0.00,,---,0.00,VWS V14.01,2013-01-23 18:51:00,
2013-01-23 13:52:00,73.4,40.1,30.30,NNE,22,0.0,0.0,30,0.00,,---,0.00,VWS V14.01,2013-01-23 18:52:00,
2013-01-23 13:53:00,74.5,36.4,30.30,ENE,68,0.0,0.0,25,0.00,,---,0.00,VWS V14.01,2013-01-23 18:53:00,
2013-01-23 13:54:00,73.2,40.0,30.30,NNW,338,0.0,0.0,30,0.00,,---,0.00,VWS V14.01,2013-01-23 18:54:00,
2013-01-23 13:55:00,72.9,38.8,30.30,NNW,338,0.0,0.0,29,0.00,,---,0.00,VWS V14.01,2013-01-23 18:55:00,
2013-01-23 13:56:00,73.2,40.0,30.30,NE,45,0.0,0.0,30,0.00,,---,0.00,VWS V14.01,2013-01-23 18:56:00,
2013-01-23 13:57:00,73.6,40.3,30.30,NE,45,0.0,0.0,30,0.00,,---,0.00,VWS V14.01,2013-01-23 18:57:00,
2013-01-23 13:58:00,74.3,36.2,30.30,NNE,22,0.0,0.0,25,0.00,,---,0.00,VWS V14.01,2013-01-23 18:58:00,
2013-01-23 13:59:00,73.8,40.4,30.30,ENE,68,0.0,0.0,30,0.00,,---,0.00,VWS V14.01,2013-01-23 18:59:00,
2013-01-23 14:00:00,73.8,39.5,30.30,ENE,68,0.0,0.0,29,0.00,,---,0.00,VWS V14.01,2013-01-23 19:00:00,
2013-01-23 14:01:00,73.4,38.3,30.30,ENE,68,0.0,0.0,28,0.00,,---,0.00,VWS V14.01,2013-01-23 19:01:00,
2013-01-23 14:02:00,73.6,39.4,30.30,WNW,292,0.0,0.0,29,0.00,,---,0.00,VWS V14.01,2013-01-23 19:02:00,
2013-01-23 14:03:00,73.8,35.8,30.30,North,0,0.0,0.0,25,0.00,,---,0.00,VWS V14.01,2013-01-23 19:03:00,
2013-01-23 14:04:00,73.6,38.5,30.30,NNE,22,0.0,0.0,28,0.00,,---,0.00,VWS V14.01,2013-01-23 19:04:00,
2013-01-23 14:05:00,73.6,38.5,30.30,ENE,68,0.0,0.0,28,0.00,,---,0.00,VWS V14.01,2013-01-23 19:05:00,
2013-01-23 14:06:00,73.4,38.3,30.30,North,0,0.0,0.0,28,0.00,,---,0.00,VWS V14.01,2013-01-23 19:06:00,
2013-01-23 14:07:00,73.2,38.2,30.30,ENE,68,0.0,0.0,28,0.00,,---,0.00,VWS V14.01,2013-01-23 19:07:00,
2013-01-23 14:08:00,74.3,36.2,30.30,NNE,22,0.0,0.0,25,0.00,,---,0.00,VWS V14.01,2013-01-23 19:08:00,
2013-01-23 14:09:00,73.2,38.2,30.30,ENE,68,0.0,0.0,28,0.00,,---,0.00,VWS V14.01,2013-01-23 19:09:00,
2013-01-23 14:10:00,73.4,37.4,30.30,NNE,22,0.0,0.0,27,0.00,,---,0.00,VWS V14.01,2013-01-23 19:10:00,
2013-01-23 14:11:00,73.6,37.6,30.30,NNE,22,0.0,0.0,27,0.00,,---,0.00,VWS V14.01,2013-01-23 19:11:00,
2013-01-23 14:12:00,73.6,38.5,30.30,NNE,22,0.0,0.0,28,0.00,,---,0.00,VWS V14.01,2013-01-23 19:12:00,
2013-01-23 14:13:00,73.4,35.5,30.30,NE,45,0.0,0.0,25,0.00,,---,0.00,VWS V14.01,2013-01-23 19:13:00,
2013-01-23 14:14:00,73.0,38.0,30.30,NNW,338,0.0,0.0,28,0.00,,---,0.00,VWS V14.01,2013-01-23 19:14:00,
2013-01-23 14:15:00,72.7,37.7,30.30,NNW,338,0.0,0.0,28,0.00,,---,0.00,VWS V14.01,2013-01-23 19:15:00,
2013-01-23 14:16:00,72.5,37.6,30.30,NNE,22,0.0,0.0,28,0.00,,---,0.00,VWS V14.01,2013-01-23 19:16:00,
2013-01-23 14:17:00,72.5,38.5,30.33,NNE,22,0.0,0.0,29,0.00,,---,0.00,VWS V14.01,2013-01-23 19:17:00,
2013-01-23 14:18:00,73.6,36.6,30.30,NNE,22,0.0,0.0,26,0.00,,---,0.00,VWS V14.01,2013-01-23 19:18:00,
2013-01-23 14:19:00,72.7,36.8,30.33,NNE,22,0.0,0.0,27,0.00,,---,0.00,VWS V14.01,2013-01-23 19:19:00,
2013-01-23 14:20:00,72.7,37.7,30.33,NNE,22,0.0,0.0,28,0.00,,---,0.00,VWS V14.01,2013-01-23 19:20:00,
2013-01-23 14:21:00,73.0,38.9,30.33,NNW,338,0.0,0.0,29,0.00,,---,0.00,VWS V14.01,2013-01-23 19:21:00,
2013-01-23 14:22:00,72.9,37.9,30.33,NNE,22,0.0,0.0,28,0.00,,---,0.00,VWS V14.01,2013-01-23 19:22:00,
2013-01-23 14:23:00,72.9,36.0,30.30,WNW,292,0.0,0.0,26,0.00,,---,0.00,VWS V14.01,2013-01-23 19:23:00,
2013-01-23 14:24:00,73.6,38.5,30.33,WNW,292,0.0,0.0,28,0.00,,---,0.00,VWS V14.01,2013-01-23 19:24:00,
2013-01-23 14:25:00,73.8,38.7,30.33,NNE,22,0.0,0.0,28,0.00,,---,0.00,VWS V14.01,2013-01-23 19:25:00,
2013-01-23 14:26:00,74.1,39.0,30.33,ENE,68,0.0,0.0,28,0.00,,---,0.00,VWS V14.01,2013-01-23 19:26:00,
2013-01-23 14:27:00,74.3,39.1,30.33,ENE,68,0.0,0.0,28,0.00,,---,0.00,VWS V14.01,2013-01-23 19:27:00,
2013-01-23 14:28:00,73.4,37.4,30.30,NNW,338,0.0,0.0,27,0.00,,---,0.00,VWS V14.01,2013-01-23 19:28:00,
2013-01-23 14:29:00,74.5,38.3,30.33,NNW,338,0.0,0.0,27,0.00,,---,0.00,VWS V14.01,2013-01-23 19:29:00,
2013-01-23 14:30:00,74.5,37.4,30.33,NNW,338,0.0,0.0,26,0.00,,---,0.00,VWS V14.01,2013-01-23 19:30:00,
2013-01-23 14:31:00,73.8,36.8,30.33,ENE,68,0.0,0.0,26,0.00,,---,0.00,VWS V14.01,2013-01-23 19:31:00,
2013-01-23 14:32:00,73.9,36.9,30.33,ENE,68,0.0,0.0,26,0.00,,---,0.00,VWS V14.01,2013-01-23 19:32:00,
2013-01-23 14:33:00,72.5,36.7,30.30,NNE,22,0.0,0.0,27,0.00,,---,0.00,VWS V14.01,2013-01-23 19:33:00,
2013-01-23 14:34:00,73.9,36.9,30.33,NE,45,0.0,0.0,26,0.00,,---,0.00,VWS V14.01,2013-01-23 19:34:00,
2013-01-23 14:35:00,73.9,36.9,30.33,NNE,22,0.0,0.0,26,0.00,,---,0.00,VWS V14.01,2013-01-23 19:35:00,
2013-01-23 14:36:00,74.1,37.1,30.33,NNW,338,0.0,0.0,26,0.00,,---,0.00,VWS V14.01,2013-01-23 19:36:00,
2013-01-23 14:37:00,73.9,35.9,30.33,NNW,338,0.0,0.0,25,0.00,,---,0.00,VWS V14.01,2013-01-23 19:37:00,
2013-01-23 14:38:00,73.0,37.1,30.27,ENE,68,0.0,0.0,27,0.00,,---,0.00,VWS V14.01,2013-01-23 19:38:00,
2013-01-23 14:39:00,74.1,36.1,30.33,NNW,338,0.0,0.0,25,0.00,,---,0.00,VWS V14.01,2013-01-23 19:39:00,
2013-01-23 14:40:00,73.8,35.8,30.33,NW,315,0.0,0.0,25,0.00,,---,0.00,VWS V14.01,2013-01-23 19:40:00,
2013-01-23 14:41:00,73.4,35.5,30.33,WNW,292,0.0,0.0,25,0.00,,---,0.00,VWS V14.01,2013-01-23 19:41:00,
2013-01-23 14:42:00,73.6,35.6,30.33,NW,315,0.0,0.0,25,0.00,,---,0.00,VWS V14.01,2013-01-23 19:42:00,
2013-01-23 14:43:00,72.9,37.0,30.27,NE,45,0.0,0.0,27,0.00,,---,0.00,VWS V14.01,2013-01-23 19:43:00,
2013-01-23 14:44:00,74.3,37.2,30.33,NNW,338,0.0,0.0,26,0.00,,---,0.00,VWS V14.01,2013-01-23 19:44:00,
2013-01-23 14:45:00,74.3,36.2,30.33,NE,45,0.0,0.0,25,0.00,,---,0.00,VWS V14.01,2013-01-23 19:45:00,
2013-01-23 14:46:00,74.5,36.4,30.33,NE,45,0.0,0.0,25,0.00,,---,0.00,VWS V14.01,2013-01-23 19:46:00,
2013-01-23 14:47:00,74.5,36.4,30.30,NNE,22,0.0,0.0,25,0.00,,---,0.00,VWS V14.01,2013-01-23 19:47:00,
2013-01-23 14:48:00,72.3,37.4,30.27,NE,45,0.0,0.0,28,0.00,,---,0.00,VWS V14.01,2013-01-23 19:48:00,
2013-01-23 14:49:00,73.4,35.5,30.30,ENE,68,0.0,0.0,25,0.00,,---,0.00,VWS V14.01,2013-01-23 19:49:00,
2013-01-23 14:50:00,73.6,35.6,30.30,ENE,68,0.0,0.0,25,0.00,,---,0.00,VWS V14.01,2013-01-23 19:50:00,
2013-01-23 14:51:00,73.6,35.6,30.30,NE,45,0.0,0.0,25,0.00,,---,0.00,VWS V14.01,2013-01-23 19:51:00,
2013-01-23 14:52:00,73.8,35.8,30.30,ENE,68,0.0,0.0,25,0.00,,---,0.00,VWS V14.01,2013-01-23 19:52:00,
2013-01-23 14:53:00,72.0,35.2,30.27,ENE,68,0.0,0.0,26,0.00,,---,0.00,VWS V14.01,2013-01-23 19:53:00,
2013-01-23 14:54:00,73.6,35.6,30.30,ENE,68,0.0,0.0,25,0.00,,---,0.00,VWS V14.01,2013-01-23 19:54:00,
2013-01-23 14:55:00,73.6,35.6,30.30,NNE,22,0.0,0.0,25,0.00,,---,0.00,VWS V14.01,2013-01-23 19:55:00,
2013-01-23 14:56:00,73.2,35.3,30.30,ENE,68,0.0,0.0,25,0.00,,---,0.00,VWS V14.01,2013-01-23 19:56:00,
2013-01-23 14:57:00,73.4,35.5,30.30,NNE,22,0.0,0.0,25,0.00,,---,0.00,VWS V14.01,2013-01-23 19:57:00,
2013-01-23 14:58:00,70.9,36.2,30.27,NNE,22,0.0,0.0,28,0.00,,---,0.00,VWS V14.01,2013-01-23 19:58:00,
2013-01-23 14:59:00,73.9,35.9,30.30,NE,45,0.0,0.0,25,0.00,,---,0.00,VWS V14.01,2013-01-23 19:59:00,
2013-01-23 15:00:00,74.1,36.1,30.30,NE,45,0.0,0.0,25,0.00,,---,0.00,VWS V14.01,2013-01-23 20:00:00,
2013-01-23 15:01:00,74.5,36.4,30.30,NNE,22,0.0,0.0,25,0.00,,---,0.00,VWS V14.01,2013-01-23 20:01:00,
2013-01-23 15:02:00,74.3,36.2,30.30,NE,45,0.0,0.0,25,0.00,,---,0.00,VWS V14.01,2013-01-23 20:02:00,
2013-01-23 15:03:00,70.2,36.5,30.27,North,0,0.0,0.0,29,0.00,,---,0.00,VWS V14.01,2013-01-23 20:03:00,
2013-01-23 15:04:00,74.3,36.2,30.30,NNE,22,0.0,0.0,25,0.00,,---,0.00,VWS V14.01,2013-01-23 20:04:00,
2013-01-23 15:05:00,74.3,36.2,30.30,NW,315,0.0,0.0,25,0.00,,---,0.00,VWS V14.01,2013-01-23 20:05:00,
2013-01-23 15:06:00,74.3,36.2,30.30,ENE,68,0.0,0.0,25,0.00,,---,0.00,VWS V14.01,2013-01-23 20:06:00,
2013-01-23 15:07:00,74.5,36.4,30.30,NE,45,0.0,0.0,25,0.00,,---,0.00,VWS V14.01,2013-01-23 20:07:00,
2013-01-23 15:08:00,70.0,36.3,30.27,ENE,68,0.0,0.0,29,0.00,,---,0.00,VWS V14.01,2013-01-23 20:08:00,
2013-01-23 15:09:00,74.5,36.4,30.30,NNE,22,0.0,0.0,25,0.00,,---,0.00,VWS V14.01,2013-01-23 20:09:00,
2013-01-23 15:10:00,75.0,36.8,30.30,NNE,22,0.0,0.0,25,0.00,,---,0.00,VWS V14.01,2013-01-23 20:10:00,
2013-01-23 15:11:00,75.4,37.2,30.30,East,90,0.0,0.0,25,0.00,,---,0.00,VWS V14.01,2013-01-23 20:11:00,
2013-01-23 15:12:00,75.4,37.2,30.30,ENE,68,0.0,0.0,25,0.00,,---,0.00,VWS V14.01,2013-01-23 20:12:00,
2013-01-23 15:13:00,68.9,36.2,30.27,WNW,292,0.0,0.0,30,0.00,,---,0.00,VWS V14.01,2013-01-23 20:13:00,
2013-01-23 15:14:00,74.5,36.4,30.30,NW,315,0.0,0.0,25,0.00,,---,0.00,VWS V14.01,2013-01-23 20:14:00,
2013-01-23 15:15:00,74.5,36.4,30.30,NE,45,0.0,0.0,25,0.00,,---,0.00,VWS V14.01,2013-01-23 20:15:00,
2013-01-23 15:16:00,74.5,36.4,30.30,ENE,68,0.0,0.0,25,0.00,,---,0.00,VWS V14.01,2013-01-23 20:16:00,
2013-01-23 15:17:00,73.8,35.8,30.30,ENE,68,0.0,0.0,25,0.00,,---,0.00,VWS V14.01,2013-01-23 20:17:00,
2013-01-23 15:18:00,68.9,36.2,30.27,NNE,22,0.0,0.0,30,0.00,,---,0.00,VWS V14.01,2013-01-23 20:18:00,
2013-01-23 15:19:00,74.3,36.2,30.30,NNE,22,0.0,0.0,25,0.00,,---,0.00,VWS V14.01,2013-01-23 20:19:00,
2013-01-23 15:20:00,74.5,36.4,30.30,NNE,22,0.0,0.0,25,0.00,,---,0.00,VWS V14.01,2013-01-23 20:20:00,
2013-01-23 15:21:00,74.5,36.4,30.30,NNE,22,0.0,0.0,25,0.00,,---,0.00,VWS V14.01,2013-01-23 20:21:00,
2013-01-23 15:22:00,74.3,36.2,30.30,NE,45,0.0,0.0,25,0.00,,---,0.00,VWS V14.01,2013-01-23 20:22:00,
2013-01-23 15:23:00,68.5,36.7,30.30,NE,45,0.0,0.0,31,0.00,,---,0.00,VWS V14.01,2013-01-23 20:23:00,
2013-01-23 15:24:00,74.3,36.2,30.30,ENE,68,0.0,0.0,25,0.00,,---,0.00,VWS V14.01,2013-01-23 20:24:00,
2013-01-23 15:25:00,74.5,37.4,30.30,ENE,68,0.0,0.0,26,0.00,,---,0.00,VWS V14.01,2013-01-23 20:25:00,
2013-01-23 15:26:00,74.7,37.5,30.30,North,0,0.0,0.0,26,0.00,,---,0.00,VWS V14.01,2013-01-23 20:26:00,
2013-01-23 15:27:00,74.7,36.5,30.30,NNE,22,0.0,0.0,25,0.00,,---,0.00,VWS V14.01,2013-01-23 20:27:00,
2013-01-23 15:28:00,68.2,36.4,30.30,NNW,338,0.0,0.0,31,0.00,,---,0.00,VWS V14.01,2013-01-23 20:28:00,
2013-01-23 15:29:00,73.8,35.8,30.30,NNW,338,0.0,0.0,25,0.00,,---,0.00,VWS V14.01,2013-01-23 20:29:00,
2013-01-23 15:30:00,73.8,35.8,30.30,NNW,338,0.0,0.0,25,0.00,,---,0.00,VWS V14.01,2013-01-23 20:30:00,
2013-01-23 15:31:00,73.8,36.8,30.30,ENE,68,0.0,0.0,26,0.00,,---,0.00,VWS V14.01,2013-01-23 20:31:00,
2013-01-23 15:32:00,74.1,37.1,30.30,NE,45,0.0,0.0,26,0.00,,---,0.00,VWS V14.01,2013-01-23 20:32:00,
2013-01-23 15:33:00,68.2,36.4,30.30,NNE,22,0.0,0.0,31,0.00,,---,0.00,VWS V14.01,2013-01-23 20:33:00,
2013-01-23 15:34:00,74.3,36.2,30.30,NNE,22,0.0,0.0,25,0.00,,---,0.00,VWS V14.01,2013-01-23 20:34:00,
2013-01-23 15:35:00,74.3,36.2,30.30,NE,45,0.0,0.0,25,0.00,,---,0.00,VWS V14.01,2013-01-23 20:35:00,
2013-01-23 15:36:00,74.1,36.1,30.30,NNE,22,0.0,0.0,25,0.00,,---,0.00,VWS V14.01,2013-01-23 20:36:00,
2013-01-23 15:37:00,73.8,35.8,30.30,ENE,68,0.0,0.0,25,0.00,,---,0.00,VWS V14.01,2013-01-23 20:37:00,
2013-01-23 15:38:00,68.0,37.1,30.30,ENE,68,0.0,0.0,32,0.00,,---,0.00,VWS V14.01,2013-01-23 20:38:00,
2013-01-23 15:39:00,73.4,35.5,30.30,ENE,68,0.0,0.0,25,0.00,,---,0.00,VWS V14.01,2013-01-23 20:39:00,
2013-01-23 15:40:00,73.4,35.5,30.30,ENE,68,0.0,0.0,25,0.00,,---,0.00,VWS V14.01,2013-01-23 20:40:00,
2013-01-23 15:41:00,73.8,36.8,30.30,East,90,0.0,0.0,26,0.00,,---,0.00,VWS V14.01,2013-01-23 20:41:00,
2013-01-23 15:42:00,73.9,36.9,30.30,NE,45,0.0,0.0,26,0.00,,---,0.00,VWS V14.01,2013-01-23 20:42:00,
2013-01-23 15:43:00,67.5,35.8,30.30,NE,45,0.0,0.0,31,0.00,,---,0.00,VWS V14.01,2013-01-23 20:43:00,
2013-01-23 15:44:00,73.6,36.6,30.30,NE,45,0.0,0.0,26,0.00,,---,0.00,VWS V14.01,2013-01-23 20:44:00,
2013-01-23 15:45:00,73.6,36.6,30.30,NNE,22,0.0,0.0,26,0.00,,---,0.00,VWS V14.01,2013-01-23 20:45:00,
2013-01-23 15:46:00,73.6,36.6,30.30,NNE,22,0.0,0.0,26,0.00,,---,0.00,VWS V14.01,2013-01-23 20:46:00,
2013-01-23 15:47:00,73.0,37.1,30.30,NNE,22,0.0,0.0,27,0.00,,---,0.00,VWS V14.01,2013-01-23 20:47:00,
2013-01-23 15:48:00,67.3,35.6,30.30,NE,45,0.0,0.0,31,0.00,,---,0.00,VWS V14.01,2013-01-23 20:48:00,
2013-01-23 15:49:00,72.7,35.8,30.30,NE,45,0.0,0.0,26,0.00,,---,0.00,VWS V14.01,2013-01-23 20:49:00,
2013-01-23 15:50:00,72.9,36.0,30.30,North,0,0.0,0.0,26,0.00,,---,0.00,VWS V14.01,2013-01-23 20:50:00,
2013-01-23 15:51:00,72.7,35.8,30.30,NE,45,0.0,0.0,26,0.00,,---,0.00,VWS V14.01,2013-01-23 20:51:00,
2013-01-23 15:52:00,72.3,36.5,30.30,NNW,338,0.0,0.0,27,0.00,,---,0.00,VWS V14.01,2013-01-23 20:52:00,
2013-01-23 15:53:00,66.9,35.3,30.30,ENE,68,0.0,0.0,31,0.00,,---,0.00,VWS V14.01,2013-01-23 20:53:00,
2013-01-23 15:54:00,72.7,36.8,30.30,ENE,68,0.0,0.0,27,0.00,,---,0.00,VWS V14.01,2013-01-23 20:54:00,
2013-01-23 15:55:00,73.4,36.5,30.30,East,90,0.0,0.0,26,0.00,,---,0.00,VWS V14.01,2013-01-23 20:55:00,
2013-01-23 15:56:00,73.2,36.3,30.30,ENE,68,0.0,0.0,26,0.00,,---,0.00,VWS V14.01,2013-01-23 20:56:00,
2013-01-23 15:57:00,73.0,36.2,30.30,East,90,0.0,0.0,26,0.00,,---,0.00,VWS V14.01,2013-01-23 20:57:00,
2013-01-23 15:58:00,67.1,36.3,30.30,NNE,22,0.0,0.0,32,0.00,,---,0.00,VWS V14.01,2013-01-23 20:58:00,
2013-01-23 15:59:00,72.5,35.7,30.30,North,0,0.0,0.0,26,0.00,,---,0.00,VWS V14.01,2013-01-23 20:59:00,
2013-01-23 16:00:00,72.5,36.7,30.30,NNE,22,0.0,0.0,27,0.00,,---,0.00,VWS V14.01,2013-01-23 21:00:00,
2013-01-23 16:01:00,72.7,36.8,30.30,ENE,68,0.0,0.0,27,0.00,,---,0.00,VWS V14.01,2013-01-23 21:01:00,
2013-01-23 16:02:00,73.0,37.1,30.27,NNE,22,0.0,0.0,27,0.00,,---,0.00,VWS V14.01,2013-01-23 21:02:00,
2013-01-23 16:03:00,66.9,35.3,30.30,NE,45,0.0,0.0,31,0.00,,---,0.00,VWS V14.01,2013-01-23 21:03:00,
2013-01-23 16:04:00,73.0,37.1,30.27,ENE,68,0.0,0.0,27,0.00,,---,0.00,VWS V14.01,2013-01-23 21:04:00,
2013-01-23 16:05:00,73.0,37.1,30.27,ENE,68,0.0,0.0,27,0.00,,---,0.00,VWS V14.01,2013-01-23 21:05:00,
2013-01-23 16:06:00,73.2,37.3,30.27,NNE,22,0.0,0.0,27,0.00,,---,0.00,VWS V14.01,2013-01-23 21:06:00,
2013-01-23 16:07:00,73.0,37.1,30.27,NE,45,0.0,0.0,27,0.00,,---,0.00,VWS V14.01,2013-01-23 21:07:00,
2013-01-23 16:08:00,66.4,35.7,30.30,NNW,338,0.0,0.0,32,0.00,,---,0.00,VWS V14.01,2013-01-23 21:08:00,
2013-01-23 16:09:00,72.9,37.0,30.27,NNW,338,0.0,0.0,27,0.00,,---,0.00,VWS V14.01,2013-01-23 21:09:00,
2013-01-23 16:10:00,72.7,36.8,30.27,NE,45,0.0,0.0,27,0.00,,---,0.00,VWS V14.01,2013-01-23 21:10:00,
2013-01-23 16:11:00,72.5,36.7,30.27,ENE,68,0.0,0.0,27,0.00,,---,0.00,VWS V14.01,2013-01-23 21:11:00,
2013-01-23 16:12:00,72.1,35.4,30.27,ENE,68,0.0,0.0,26,0.00,,---,0.00,VWS V14.01,2013-01-23 21:12:00,
2013-01-23 16:13:00,66.6,35.8,30.30,ENE,68,0.0,0.0,32,0.00,,---,0.00,VWS V14.01,2013-01-23 21:13:00,
2013-01-23 16:14:00,72.1,36.3,30.27,NNW,338,0.0,0.0,27,0.00,,---,0.00,VWS V14.01,2013-01-23 21:14:00,
2013-01-23 16:15:00,72.3,37.4,30.27,NE,45,0.0,0.0,28,0.00,,---,0.00,VWS V14.01,2013-01-23 21:15:00,
2013-01-23 16:16:00,72.3,37.4,30.27,ENE,68,0.0,0.0,28,0.00,,---,0.00,VWS V14.01,2013-01-23 21:16:00,
2013-01-23 16:17:00,72.5,37.6,30.27,ENE,68,0.0,0.0,28,0.00,,---,0.00,VWS V14.01,2013-01-23 21:17:00,
2013-01-23 16:18:00,66.2,35.5,30.30,ENE,68,0.0,0.0,32,0.00,,---,0.00,VWS V14.01,2013-01-23 21:18:00,
2013-01-23 16:19:00,72.1,36.3,30.27,NE,45,0.0,0.0,27,0.00,,---,0.00,VWS V14.01,2013-01-23 21:19:00,
2013-01-23 16:20:00,72.0,35.2,30.27,ENE,68,0.0,0.0,26,0.00,,---,0.00,VWS V14.01,2013-01-23 21:20:00,
2013-01-23 16:21:00,71.2,35.6,30.27,North,0,0.0,0.0,27,0.00,,---,0.00,VWS V14.01,2013-01-23 21:21:00,
2013-01-23 16:22:00,71.1,35.4,30.27,ENE,68,0.0,0.0,27,0.00,,---,0.00,VWS V14.01,2013-01-23 21:22:00,
2013-01-23 16:23:00,66.0,36.1,30.30,ENE,68,0.0,0.0,33,0.00,,---,0.00,VWS V14.01,2013-01-23 21:23:00,
2013-01-23 16:24:00,71.2,36.5,30.27,NE,45,0.0,0.0,28,0.00,,---,0.00,VWS V14.01,2013-01-23 21:24:00,
2013-01-23 16:25:00,70.7,36.0,30.27,NNE,22,0.0,0.0,28,0.00,,---,0.00,VWS V14.01,2013-01-23 21:25:00,
2013-01-23 16:26:00,70.5,35.9,30.27,NNW,338,0.0,0.0,28,0.00,,---,0.00,VWS V14.01,2013-01-23 21:26:00,
2013-01-23 16:27:00,70.2,35.6,30.27,WNW,292,0.0,0.0,28,0.00,,---,0.00,VWS V14.01,2013-01-23 21:27:00,
2013-01-23 16:28:00,65.7,35.8,30.30,ENE,68,0.0,0.0,33,0.00,,---,0.00,VWS V14.01,2013-01-23 21:28:00,
2013-01-23 16:29:00,70.2,35.6,30.27,ENE,68,0.0,0.0,28,0.00,,---,0.00,VWS V14.01,2013-01-23 21:29:00,
2013-01-23 16:30:00,70.2,36.5,30.27,ENE,68,0.0,0.0,29,0.00,,---,0.00,VWS V14.01,2013-01-23 21:30:00,
2013-01-23 16:31:00,70.2,36.5,30.27,ENE,68,0.0,0.0,29,0.00,,---,0.00,VWS V14.01,2013-01-23 21:31:00,
2013-01-23 16:32:00,70.0,35.4,30.27,ENE,68,0.0,0.0,28,0.00,,---,0.00,VWS V14.01,2013-01-23 21:32:00,
2013-01-23 16:33:00,65.5,36.4,30.30,ENE,68,0.0,0.0,34,0.00,,---,0.00,VWS V14.01,2013-01-23 21:33:00,
2013-01-23 16:34:00,70.0,36.3,30.27,NNE,22,0.0,0.0,29,0.00,,---,0.00,VWS V14.01,2013-01-23 21:34:00,
2013-01-23 16:35:00,70.0,36.3,30.27,ENE,68,0.0,0.0,29,0.00,,---,0.00,VWS V14.01,2013-01-23 21:35:00,
2013-01-23 16:36:00,69.8,36.1,30.27,ENE,68,0.0,0.0,29,0.00,,---,0.00,VWS V14.01,2013-01-23 21:36:00,
2013-01-23 16:37:00,69.6,36.0,30.27,ENE,68,0.0,0.0,29,0.00,,---,0.00,VWS V14.01,2013-01-23 21:37:00,
2013-01-23 16:38:00,65.5,36.4,30.30,ENE,68,0.0,0.0,34,0.00,,---,0.00,VWS V14.01,2013-01-23 21:38:00,
2013-01-23 16:39:00,68.9,35.4,30.27,ENE,68,0.0,0.0,29,0.00,,---,0.00,VWS V14.01,2013-01-23 21:39:00,
2013-01-23 16:40:00,68.9,36.2,30.27,NNE,22,0.0,0.0,30,0.00,,---,0.00,VWS V14.01,2013-01-23 21:40:00,
2013-01-23 16:41:00,68.9,36.2,30.27,ENE,68,0.0,0.0,30,0.00,,---,0.00,VWS V14.01,2013-01-23 21:41:00,
2013-01-23 16:42:00,68.9,36.2,30.27,NNE,22,0.0,0.0,30,0.00,,---,0.00,VWS V14.01,2013-01-23 21:42:00,
2013-01-23 16:43:00,64.8,35.8,30.30,NNE,22,0.0,0.0,34,0.00,,---,0.00,VWS V14.01,2013-01-23 21:43:00,
2013-01-23 16:44:00,69.1,37.2,30.27,NNE,22,0.0,0.0,31,0.00,,---,0.00,VWS V14.01,2013-01-23 21:44:00,
2013-01-23 16:45:00,68.9,36.2,30.27,NNE,22,0.0,0.0,30,0.00,,---,0.00,VWS V14.01,2013-01-23 21:45:00,
2013-01-23 16:46:00,68.9,36.2,30.27,NNE,22,0.0,0.0,30,0.00,,---,0.00,VWS V14.01,2013-01-23 21:46:00,
2013-01-23 16:47:00,68.9,36.2,30.30,ENE,68,0.0,0.0,30,0.00,,---,0.00,VWS V14.01,2013-01-23 21:47:00,
2013-01-23 16:48:00,64.6,35.6,30.30,NNE,22,0.0,0.0,34,0.00,,---,0.00,VWS V14.01,2013-01-23 21:48:00,
2013-01-23 16:49:00,68.5,36.7,30.30,NE,45,0.0,0.0,31,0.00,,---,0.00,VWS V14.01,2013-01-23 21:49:00,
2013-01-23 16:50:00,68.5,36.7,30.30,North,0,0.0,0.0,31,0.00,,---,0.00,VWS V14.01,2013-01-23 21:50:00,
2013-01-23 16:51:00,68.4,35.8,30.30,NNW,338,0.0,0.0,30,0.00,,---,0.00,VWS V14.01,2013-01-23 21:51:00,
2013-01-23 16:52:00,68.4,35.8,30.30,NNW,338,0.0,0.0,30,0.00,,---,0.00,VWS V14.01,2013-01-23 21:52:00,
2013-01-23 16:53:00,64.2,36.0,30.30,ENE,68,0.0,0.0,35,0.00,,---,0.00,VWS V14.01,2013-01-23 21:53:00,
2013-01-23 16:54:00,68.2,36.4,30.30,NNW,338,0.0,0.0,31,0.00,,---,0.00,VWS V14.01,2013-01-23 21:54:00,
2013-01-23 16:55:00,68.4,37.4,30.30,ENE,68,0.0,0.0,32,0.00,,---,0.00,VWS V14.01,2013-01-23 21:55:00,
2013-01-23 16:56:00,68.4,37.4,30.30,NE,45,0.0,0.0,32,0.00,,---,0.00,VWS V14.01,2013-01-23 21:56:00,
2013-01-23 16:57:00,68.4,37.4,30.30,NNE,22,0.0,0.0,32,0.00,,---,0.00,VWS V14.01,2013-01-23 21:57:00,
2013-01-23 16:58:00,64.0,35.9,30.30,North,0,0.0,0.0,35,0.00,,---,0.00,VWS V14.01,2013-01-23 21:58:00,
2013-01-23 16:59:00,68.4,37.4,30.30,ENE,68,0.0,0.0,32,0.00,,---,0.00,VWS V14.01,2013-01-23 21:59:00,
2013-01-23 17:00:00,68.2,36.4,30.30,NNE,22,0.0,0.0,31,0.00,,---,0.00,VWS V14.01,2013-01-23 22:00:00,
2013-01-23 17:01:00,68.2,36.4,30.30,NE,45,0.0,0.0,31,0.00,,---,0.00,VWS V14.01,2013-01-23 22:01:00,
2013-01-23 17:02:00,68.2,36.4,30.30,NNE,22,0.0,0.0,31,0.00,,---,0.00,VWS V14.01,2013-01-23 22:02:00,
2013-01-23 17:03:00,63.9,35.7,30.30,NNE,22,0.0,0.0,35,0.00,,---,0.00,VWS V14.01,2013-01-23 22:03:00,
2013-01-23 17:04:00,68.0,37.1,30.30,NE,45,0.0,0.0,32,0.00,,---,0.00,VWS V14.01,2013-01-23 22:04:00,
2013-01-23 17:05:00,67.8,36.1,30.30,NE,45,0.0,0.0,31,0.00,,---,0.00,VWS V14.01,2013-01-23 22:05:00,
2013-01-23 17:06:00,67.8,36.1,30.30,ENE,68,0.0,0.0,31,0.00,,---,0.00,VWS V14.01,2013-01-23 22:06:00,
2013-01-23 17:07:00,67.5,35.8,30.30,NNE,22,0.0,0.0,31,0.00,,---,0.00,VWS V14.01,2013-01-23 22:07:00,
2013-01-23 17:08:00,63.7,36.2,30.30,ENE,68,0.0,0.0,36,0.00,,---,0.00,VWS V14.01,2013-01-23 22:08:00,
2013-01-23 17:09:00,67.5,35.8,30.30,ENE,68,0.0,0.0,31,0.00,,---,0.00,VWS V14.01,2013-01-23 22:09:00,
2013-01-23 17:10:00,67.3,35.6,30.30,NNE,22,0.0,0.0,31,0.00,,---,0.00,VWS V14.01,2013-01-23 22:10:00,
2013-01-23 17:11:00,67.3,35.6,30.30,NNE,22,0.0,0.0,31,0.00,,---,0.00,VWS V14.01,2013-01-23 22:11:00,
2013-01-23 17:12:00,67.1,35.5,30.30,NNE,22,0.0,0.0,31,0.00,,---,0.00,VWS V14.01,2013-01-23 22:12:00,
2013-01-23 17:13:00,63.5,36.1,30.30,NNE,22,0.0,0.0,36,0.00,,---,0.00,VWS V14.01,2013-01-23 22:13:00,
2013-01-23 17:14:00,67.3,35.6,30.30,East,90,0.0,0.0,31,0.00,,---,0.00,VWS V14.01,2013-01-23 22:14:00,
2013-01-23 17:15:00,67.3,35.6,30.30,ENE,68,0.0,0.0,31,0.00,,---,0.00,VWS V14.01,2013-01-23 22:15:00,
2013-01-23 17:16:00,67.1,35.5,30.30,ENE,68,0.0,0.0,31,0.00,,---,0.00,VWS V14.01,2013-01-23 22:16:00,
2013-01-23 17:17:00,67.1,35.5,30.30,ENE,68,0.0,0.0,31,0.00,,---,0.00,VWS V14.01,2013-01-23 22:17:00,
2013-01-23 17:18:00,63.1,36.5,30.30,NE,45,0.0,0.0,37,0.00,,---,0.00,VWS V14.01,2013-01-23 22:18:00,
2013-01-23 17:19:00,66.9,35.3,30.30,ENE,68,0.0,0.0,31,0.00,,---,0.00,VWS V14.01,2013-01-23 22:19:00,
2013-01-23 17:20:00,66.9,35.3,30.30,North,0,0.0,0.0,31,0.00,,---,0.00,VWS V14.01,2013-01-23 22:20:00,
2013-01-23 17:21:00,66.9,35.3,30.30,ENE,68,0.0,0.0,31,0.00,,---,0.00,VWS V14.01,2013-01-23 22:21:00,
2013-01-23 17:22:00,66.9,35.3,30.30,NNE,22,0.0,0.0,31,0.00,,---,0.00,VWS V14.01,2013-01-23 22:22:00,
2013-01-23 17:23:00,64.2,37.4,30.33,WNW,292,0.0,0.0,37,0.00,,---,0.00,VWS V14.01,2013-01-23 22:23:00,
2013-01-23 17:24:00,67.1,36.3,30.30,NE,45,0.0,0.0,32,0.00,,---,0.00,VWS V14.01,2013-01-23 22:24:00,
2013-01-23 17:25:00,67.1,35.5,30.30,NNW,338,0.0,0.0,31,0.00,,---,0.00,VWS V14.01,2013-01-23 22:25:00,
2013-01-23 17:26:00,66.9,36.1,30.30,NNE,22,0.0,0.0,32,0.00,,---,0.00,VWS V14.01,2013-01-23 22:26:00,
2013-01-23 17:27:00,66.9,36.1,30.30,NNE,22,0.0,0.0,32,0.00,,---,0.00,VWS V14.01,2013-01-23 22:27:00,
2013-01-23 17:28:00,64.2,37.4,30.33,NNE,22,0.0,0.0,37,0.00,,---,0.00,VWS V14.01,2013-01-23 22:28:00,
2013-01-23 17:29:00,66.9,35.3,30.30,NNE,22,0.0,0.0,31,0.00,,---,0.00,VWS V14.01,2013-01-23 22:29:00,
2013-01-23 17:30:00,66.9,35.3,30.30,NE,45,0.0,0.0,31,0.00,,---,0.00,VWS V14.01,2013-01-23 22:30:00,
2013-01-23 17:31:00,66.9,36.1,30.30,NNE,22,0.0,0.0,32,0.00,,---,0.00,VWS V14.01,2013-01-23 22:31:00,
2013-01-23 17:32:00,66.7,35.2,30.30,ENE,68,0.0,0.0,31,0.00,,---,0.00,VWS V14.01,2013-01-23 22:32:00,
2013-01-23 17:33:00,62.6,38.0,30.33,ENE,68,0.0,0.0,40,0.00,,---,0.00,VWS V14.01,2013-01-23 22:33:00,
2013-01-23 17:34:00,66.4,35.7,30.30,NE,45,0.0,0.0,32,0.00,,---,0.00,VWS V14.01,2013-01-23 22:34:00,
2013-01-23 17:35:00,66.6,35.8,30.30,ENE,68,0.0,0.0,32,0.00,,---,0.00,VWS V14.01,2013-01-23 22:35:00,
2013-01-23 17:36:00,66.4,34.9,30.30,ENE,68,0.0,0.0,31,0.00,,---,0.00,VWS V14.01,2013-01-23 22:36:00,
2013-01-23 17:37:00,66.4,35.7,30.30,ENE,68,0.0,0.0,32,0.00,,---,0.00,VWS V14.01,2013-01-23 22:37:00,
2013-01-23 17:38:00,61.9,38.6,30.33,NNE,22,0.0,0.0,42,0.00,,---,0.00,VWS V14.01,2013-01-23 22:38:00,
2013-01-23 17:39:00,66.6,35.8,30.30,NE,45,0.0,0.0,32,0.00,,---,0.00,VWS V14.01,2013-01-23 22:39:00,
2013-01-23 17:40:00,66.6,35.8,30.30,ENE,68,0.0,0.0,32,0.00,,---,0.00,VWS V14.01,2013-01-23 22:40:00,
2013-01-23 17:41:00,66.4,35.7,30.30,ENE,68,0.0,0.0,32,0.00,,---,0.00,VWS V14.01,2013-01-23 22:41:00,
2013-01-23 17:42:00,66.4,35.7,30.30,NNE,22,0.0,0.0,32,0.00,,---,0.00,VWS V14.01,2013-01-23 22:42:00,
2013-01-23 17:43:00,61.3,39.3,30.33,NE,45,0.0,0.0,44,0.00,,---,0.00,VWS V14.01,2013-01-23 22:43:00,
2013-01-23 17:44:00,66.4,35.7,30.30,ENE,68,0.0,0.0,32,0.00,,---,0.00,VWS V14.01,2013-01-23 22:44:00,
2013-01-23 17:45:00,66.2,35.5,30.30,NE,45,0.0,0.0,32,0.00,,---,0.00,VWS V14.01,2013-01-23 22:45:00,
2013-01-23 17:46:00,66.2,36.3,30.30,ENE,68,0.0,0.0,33,0.00,,---,0.00,VWS V14.01,2013-01-23 22:46:00,
2013-01-23 17:47:00,66.2,36.3,30.30,ENE,68,0.0,0.0,33,0.00,,---,0.00,VWS V14.01,2013-01-23 22:47:00,
2013-01-23 17:48:00,61.0,38.9,30.33,ENE,68,0.0,0.0,44,0.00,,---,0.00,VWS V14.01,2013-01-23 22:48:00,
2013-01-23 17:49:00,66.0,36.1,30.30,NNE,22,0.0,0.0,33,0.00,,---,0.00,VWS V14.01,2013-01-23 22:49:00,
2013-01-23 17:50:00,66.0,36.1,30.30,ENE,68,0.0,0.0,33,0.00,,---,0.00,VWS V14.01,2013-01-23 22:50:00,
2013-01-23 17:51:00,65.8,36.0,30.30,ENE,68,0.0,0.0,33,0.00,,---,0.00,VWS V14.01,2013-01-23 22:51:00,
2013-01-23 17:52:00,65.8,36.0,30.30,NE,45,0.0,0.0,33,0.00,,---,0.00,VWS V14.01,2013-01-23 22:52:00,
2013-01-23 17:53:00,60.4,39.0,30.33,NNE,22,0.0,0.0,45,0.00,,---,0.00,VWS V14.01,2013-01-23 22:53:00,
2013-01-23 17:54:00,65.7,35.8,30.30,NE,45,0.0,0.0,33,0.00,,---,0.00,VWS V14.01,2013-01-23 22:54:00,
2013-01-23 17:55:00,65.7,35.8,30.30,ENE,68,0.0,0.0,33,0.00,,---,0.00,VWS V14.01,2013-01-23 22:55:00,
2013-01-23 17:56:00,65.5,35.6,30.30,ENE,68,0.0,0.0,33,0.00,,---,0.00,VWS V14.01,2013-01-23 22:56:00,
2013-01-23 17:57:00,65.5,35.6,30.30,ENE,68,0.0,0.0,33,0.00,,---,0.00,VWS V14.01,2013-01-23 22:57:00,
2013-01-23 17:58:00,60.1,39.2,30.33,ENE,68,0.0,0.0,46,0.00,,---,0.00,VWS V14.01,2013-01-23 22:58:00,
2013-01-23 17:59:00,65.5,35.6,30.30,NW,315,0.0,0.0,33,0.00,,---,0.00,VWS V14.01,2013-01-23 22:59:00,
2013-01-23 18:00:00,65.5,36.4,30.30,ENE,68,0.0,0.0,34,0.00,,---,0.00,VWS V14.01,2013-01-23 23:00:00,
2013-01-23 18:01:00,65.5,36.4,30.30,NE,45,0.0,0.0,34,0.00,,---,0.00,VWS V14.01,2013-01-23 23:01:00,
2013-01-23 18:02:00,65.5,36.4,30.30,NNE,22,0.0,0.0,34,0.00,,---,0.00,VWS V14.01,2013-01-23 23:02:00,
2013-01-23 18:03:00,59.5,38.8,30.33,North,0,0.0,0.0,46,0.00,,---,0.00,VWS V14.01,2013-01-23 23:03:00,
2013-01-23 18:04:00,65.5,36.4,30.30,ENE,68,0.0,0.0,34,0.00,,---,0.00,VWS V14.01,2013-01-23 23:04:00,
2013-01-23 18:05:00,65.3,35.5,30.30,NNE,22,0.0,0.0,33,0.00,,---,0.00,VWS V14.01,2013-01-23 23:05:00,
2013-01-23 18:06:00,65.3,36.2,30.30,NE,45,0.0,0.0,34,0.00,,---,0.00,VWS V14.01,2013-01-23 23:06:00,
2013-01-23 18:07:00,65.1,36.1,30.30,NE,45,0.0,0.0,34,0.00,,---,0.00,VWS V14.01,2013-01-23 23:07:00,
2013-01-23 18:08:00,59.2,38.4,30.30,NNW,338,0.0,0.0,46,0.00,,---,0.00,VWS V14.01,2013-01-23 23:08:00,
2013-01-23 18:09:00,65.1,36.1,30.30,NNE,22,0.0,0.0,34,0.00,,---,0.00,VWS V14.01,2013-01-23 23:09:00,
2013-01-23 18:10:00,64.8,35.8,30.30,ENE,68,0.0,0.0,34,0.00,,---,0.00,VWS V14.01,2013-01-23 23:10:00,
2013-01-23 18:11:00,64.8,35.8,30.30,NNE,22,0.0,0.0,34,0.00,,---,0.00,VWS V14.01,2013-01-23 23:11:00,
2013-01-23 18:12:00,64.8,35.8,30.30,North,0,0.0,0.0,34,0.00,,---,0.00,VWS V14.01,2013-01-23 23:12:00,
2013-01-23 18:13:00,58.8,38.7,30.30,NNW,338,0.0,0.0,47,0.00,,---,0.00,VWS V14.01,2013-01-23 23:13:00,
2013-01-23 18:14:00,64.6,35.6,30.30,NNE,22,0.0,0.0,34,0.00,,---,0.00,VWS V14.01,2013-01-23 23:14:00,
2013-01-23 18:15:00,64.6,35.6,30.30,ENE,68,0.0,0.0,34,0.00,,---,0.00,VWS V14.01,2013-01-23 23:15:00,
2013-01-23 18:16:00,64.6,35.6,30.30,NE,45,0.0,0.0,34,0.00,,---,0.00,VWS V14.01,2013-01-23 23:16:00,
2013-01-23 18:17:00,64.6,35.6,30.30,NNE,22,0.0,0.0,34,0.00,,---,0.00,VWS V14.01,2013-01-23 23:17:00,
2013-01-23 18:18:00,58.3,38.2,30.30,NE,45,0.0,0.0,47,0.00,,---,0.00,VWS V14.01,2013-01-23 23:18:00,
2013-01-23 18:19:00,64.2,36.0,30.30,NNE,22,0.0,0.0,35,0.00,,---,0.00,VWS V14.01,2013-01-23 23:19:00,
2013-01-23 18:20:00,64.2,36.0,30.30,NNE,22,0.0,0.0,35,0.00,,---,0.00,VWS V14.01,2013-01-23 23:20:00,
2013-01-23 18:21:00,64.2,36.0,30.30,NNE,22,0.0,0.0,35,0.00,,---,0.00,VWS V14.01,2013-01-23 23:21:00,
2013-01-23 18:22:00,64.2,36.0,30.30,NNE,22,0.0,0.0,35,0.00,,---,0.00,VWS V14.01,2013-01-23 23:22:00,
2013-01-23 18:23:00,57.9,37.8,30.33,NNW,338,0.0,0.0,47,0.00,,---,0.00,VWS V14.01,2013-01-23 23:23:00,
2013-01-23 18:24:00,64.0,35.9,30.30,ENE,68,0.0,0.0,35,0.00,,---,0.00,VWS V14.01,2013-01-23 23:24:00,
2013-01-23 18:25:00,64.0,35.9,30.30,NE,45,0.0,0.0,35,0.00,,---,0.00,VWS V14.01,2013-01-23 23:25:00,
2013-01-23 18:26:00,64.0,35.9,30.30,NE,45,0.0,0.0,35,0.00,,---,0.00,VWS V14.01,2013-01-23 23:26:00,
2013-01-23 18:27:00,64.0,35.9,30.30,ENE,68,0.0,0.0,35,0.00,,---,0.00,VWS V14.01,2013-01-23 23:27:00,
2013-01-23 18:28:00,57.6,38.0,30.33,NNE,22,0.0,0.0,48,0.00,,---,0.00,VWS V14.01,2013-01-23 23:28:00,
2013-01-23 18:29:00,63.9,35.7,30.30,NE,45,0.0,0.0,35,0.00,,---,0.00,VWS V14.01,2013-01-23 23:29:00,
2013-01-23 18:30:00,63.9,35.7,30.30,NNE,22,0.0,0.0,35,0.00,,---,0.00,VWS V14.01,2013-01-23 23:30:00,
2013-01-23 18:31:00,64.0,36.6,30.30,NNE,22,0.0,0.0,36,0.00,,---,0.00,VWS V14.01,2013-01-23 23:31:00,
2013-01-23 18:32:00,64.0,36.6,30.30,NNE,22,0.0,0.0,36,0.00,,---,0.00,VWS V14.01,2013-01-23 23:32:00,
2013-01-23 18:33:00,57.4,38.4,30.33,North,0,0.0,0.0,49,0.00,,---,0.00,VWS V14.01,2013-01-23 23:33:00,
2013-01-23 18:34:00,63.7,36.2,30.30,NNE,22,0.0,0.0,36,0.00,,---,0.00,VWS V14.01,2013-01-23 23:34:00,
2013-01-23 18:35:00,63.5,36.1,30.30,North,0,0.0,0.0,36,0.00,,---,0.00,VWS V14.01,2013-01-23 23:35:00,
2013-01-23 18:36:00,63.5,36.1,30.30,NE,45,0.0,0.0,36,0.00,,---,0.00,VWS V14.01,2013-01-23 23:36:00,
2013-01-23 18:37:00,63.5,36.1,30.30,NNE,22,0.0,0.0,36,0.00,,---,0.00,VWS V14.01,2013-01-23 23:37:00,
2013-01-23 18:38:00,57.2,38.8,30.33,NNW,338,0.0,0.0,50,0.00,,---,0.00,VWS V14.01,2013-01-23 23:38:00,
2013-01-23 18:39:00,63.5,36.1,30.30,NNE,22,0.0,0.0,36,0.00,,---,0.00,VWS V14.01,2013-01-23 23:39:00,
2013-01-23 18:40:00,63.5,36.1,30.30,NNE,22,0.0,0.0,36,0.00,,---,0.00,VWS V14.01,2013-01-23 23:40:00,
2013-01-23 18:41:00,63.3,36.6,30.30,NNE,22,0.0,0.0,37,0.00,,---,0.00,VWS V14.01,2013-01-23 23:41:00,
2013-01-23 18:42:00,63.3,36.6,30.30,NNE,22,0.0,0.0,37,0.00,,---,0.00,VWS V14.01,2013-01-23 23:42:00,
2013-01-23 18:43:00,57.2,40.2,30.33,NNW,338,0.0,0.0,53,0.00,,---,0.00,VWS V14.01,2013-01-23 23:43:00,
2013-01-23 18:44:00,63.1,36.5,30.30,NE,45,0.0,0.0,37,0.00,,---,0.00,VWS V14.01,2013-01-23 23:44:00,
2013-01-23 18:45:00,63.1,36.5,30.30,NE,45,0.0,0.0,37,0.00,,---,0.00,VWS V14.01,2013-01-23 23:45:00,
2013-01-23 18:46:00,63.1,36.5,30.30,NNE,22,0.0,0.0,37,0.00,,---,0.00,VWS V14.01,2013-01-23 23:46:00,
2013-01-23 18:47:00,63.3,36.6,30.33,NNW,338,0.0,0.0,37,0.00,,---,0.00,VWS V14.01,2013-01-23 23:47:00,
2013-01-23 18:48:00,57.0,40.1,30.33,North,0,0.0,0.0,53,0.00,,---,0.00,VWS V14.01,2013-01-23 23:48:00,
2013-01-23 18:49:00,64.2,37.4,30.33,ENE,68,0.0,0.0,37,0.00,,---,0.00,VWS V14.01,2013-01-23 23:49:00,
2013-01-23 18:50:00,64.6,37.0,30.33,WNW,292,0.0,0.0,36,0.00,,---,0.00,VWS V14.01,2013-01-23 23:50:00,
2013-01-23 18:51:00,64.6,37.0,30.33,NNE,22,0.0,0.0,36,0.00,,---,0.00,VWS V14.01,2013-01-23 23:51:00,
2013-01-23 18:52:00,64.4,37.6,30.33,NE,45,0.0,0.0,37,0.00,,---,0.00,VWS V14.01,2013-01-23 23:52:00,
2013-01-23 18:53:00,56.5,39.6,30.33,NNW,338,0.0,0.0,53,0.00,,---,0.00,VWS V14.01,2013-01-23 23:53:00,
2013-01-23 18:54:00,64.2,37.4,30.33,North,0,0.0,0.0,37,0.00,,---,0.00,VWS V14.01,2013-01-23 23:54:00,
2013-01-23 18:55:00,64.2,37.4,30.33,NNE,22,0.0,0.0,37,0.00,,---,0.00,VWS V14.01,2013-01-23 23:55:00,
2013-01-23 18:56:00,64.2,37.4,30.33,NNE,22,0.0,0.0,37,0.00,,---,0.00,VWS V14.01,2013-01-23 23:56:00,
2013-01-23 18:57:00,63.1,37.1,30.33,NNE,22,0.0,0.0,38,0.00,,---,0.00,VWS V14.01,2013-01-23 23:57:00,
2013-01-23 18:58:00,55.9,39.1,30.33,NNW,338,0.0,0.0,53,0.00,,---,0.00,VWS V14.01,2013-01-23 23:58:00,
2013-01-23 18:59:00,62.8,37.5,30.33,NNE,22,0.0,0.0,39,0.00,,---,0.00,VWS V14.01,2013-01-23 23:59:00,
2013-01-23 19:00:00,62.6,38.0,30.33,North,0,0.0,0.0,40,0.00,,---,0.00,VWS V14.01,2013-01-24 00:00:00,
2013-01-23 19:01:00,62.2,37.6,30.33,NNE,22,0.0,0.0,40,0.00,,---,0.00,VWS V14.01,2013-01-24 00:01:00,
2013-01-23 19:02:00,62.2,37.6,30.33,NNE,22,0.0,0.0,40,0.00,,---,0.00,VWS V14.01,2013-01-24 00:02:00,
2013-01-23 19:03:00,55.8,38.4,30.33,NNW,338,0.0,0.0,52,0.00,,---,0.00,VWS V14.01,2013-01-24 00:03:00,
2013-01-23 19:04:00,61.9,38.6,30.33,NE,45,0.0,0.0,42,0.00,,---,0.00,VWS V14.01,2013-01-24 00:04:00,
2013-01-23 19:05:00,61.7,38.4,30.33,NNE,22,0.0,0.0,42,0.00,,---,0.00,VWS V14.01,2013-01-24 00:05:00,
2013-01-23 19:06:00,61.7,38.4,30.33,NNE,22,0.0,0.0,42,0.00,,---,0.00,VWS V14.01,2013-01-24 00:06:00,
2013-01-23 19:07:00,61.5,38.8,30.33,NE,45,0.0,0.0,43,0.00,,---,0.00,VWS V14.01,2013-01-24 00:07:00,
2013-01-23 19:08:00,55.6,39.2,30.33,NNW,338,0.0,0.0,54,0.00,,---,0.00,VWS V14.01,2013-01-24 00:08:00,
2013-01-23 19:09:00,61.3,38.7,30.33,NNE,22,0.0,0.0,43,0.00,,---,0.00,VWS V14.01,2013-01-24 00:09:00,
2013-01-23 19:10:00,61.3,39.3,30.33,North,0,0.0,0.0,44,0.00,,---,0.00,VWS V14.01,2013-01-24 00:10:00,
2013-01-23 19:11:00,61.2,39.1,30.33,NNW,338,0.0,0.0,44,0.00,,---,0.00,VWS V14.01,2013-01-24 00:11:00,
2013-01-23 19:12:00,61.2,39.1,30.33,NNE,22,0.0,0.0,44,0.00,,---,0.00,VWS V14.01,2013-01-24 00:12:00,
2013-01-23 19:13:00,55.4,40.0,30.33,NNW,338,0.0,0.0,56,0.00,,---,0.00,VWS V14.01,2013-01-24 00:13:00,
2013-01-23 19:14:00,61.0,38.9,30.33,NNW,338,0.0,0.0,44,0.00,,---,0.00,VWS V14.01,2013-01-24 00:14:00,
2013-01-23 19:15:00,61.0,38.9,30.33,NNE,22,0.0,0.0,44,0.00,,---,0.00,VWS V14.01,2013-01-24 00:15:00,
2013-01-23 19:16:00,60.8,38.8,30.33,NNE,22,0.0,0.0,44,0.00,,---,0.00,VWS V14.01,2013-01-24 00:16:00,
2013-01-23 19:17:00,60.8,39.3,30.33,NE,45,0.0,0.0,45,0.00,,---,0.00,VWS V14.01,2013-01-24 00:17:00,
2013-01-23 19:18:00,55.2,40.3,30.33,North,0,0.0,0.0,57,0.00,,---,0.00,VWS V14.01,2013-01-24 00:18:00,
2013-01-23 19:19:00,60.6,39.2,30.33,ENE,68,0.0,0.0,45,0.00,,---,0.00,VWS V14.01,2013-01-24 00:19:00,
2013-01-23 19:20:00,60.4,39.0,30.33,NNE,22,0.0,0.0,45,0.00,,---,0.00,VWS V14.01,2013-01-24 00:20:00,
2013-01-23 19:21:00,60.4,39.0,30.33,North,0,0.0,0.0,45,0.00,,---,0.00,VWS V14.01,2013-01-24 00:21:00,
2013-01-23 19:22:00,60.3,38.8,30.33,NNW,338,0.0,0.0,45,0.00,,---,0.00,VWS V14.01,2013-01-24 00:22:00,
2013-01-23 19:23:00,55.2,40.7,30.33,NNW,338,0.0,0.0,58,0.00,,---,0.00,VWS V14.01,2013-01-24 00:23:00,
2013-01-23 19:24:00,60.1,39.2,30.33,NNE,22,0.0,0.0,46,0.00,,---,0.00,VWS V14.01,2013-01-24 00:24:00,
2013-01-23 19:25:00,60.1,39.2,30.33,NE,45,0.0,0.0,46,0.00,,---,0.00,VWS V14.01,2013-01-24 00:25:00,
2013-01-23 19:26:00,59.9,38.5,30.33,NNE,22,0.0,0.0,45,0.00,,---,0.00,VWS V14.01,2013-01-24 00:26:00,
2013-01-23 19:27:00,59.7,38.9,30.33,NNE,22,0.0,0.0,46,0.00,,---,0.00,VWS V14.01,2013-01-24 00:27:00,
2013-01-23 19:28:00,54.9,40.4,30.33,NNW,338,0.0,0.0,58,0.00,,---,0.00,VWS V14.01,2013-01-24 00:28:00,
2013-01-23 19:29:00,59.7,38.9,30.33,NE,45,0.0,0.0,46,0.00,,---,0.00,VWS V14.01,2013-01-24 00:29:00,
2013-01-23 19:30:00,59.5,38.8,30.33,North,0,0.0,0.0,46,0.00,,---,0.00,VWS V14.01,2013-01-24 00:30:00,
2013-01-23 19:31:00,59.5,38.8,30.33,North,0,0.0,0.0,46,0.00,,---,0.00,VWS V14.01,2013-01-24 00:31:00,
2013-01-23 19:32:00,59.4,38.6,30.30,ESE,112,0.0,0.0,46,0.00,,---,0.00,VWS V14.01,2013-01-24 00:32:00,
2013-01-23 19:33:00,54.9,40.8,30.33,NNW,338,0.0,0.0,59,0.00,,---,0.00,VWS V14.01,2013-01-24 00:33:00,
2013-01-23 19:34:00,59.2,38.4,30.30,NNW,338,0.0,0.0,46,0.00,,---,0.00,VWS V14.01,2013-01-24 00:34:00,
2013-01-23 19:35:00,59.2,38.4,30.30,NNW,338,0.0,0.0,46,0.00,,---,0.00,VWS V14.01,2013-01-24 00:35:00,
2013-01-23 19:36:00,59.2,38.4,30.30,NNW,338,0.0,0.0,46,0.00,,---,0.00,VWS V14.01,2013-01-24 00:36:00,
2013-01-23 19:37:00,59.2,38.4,30.30,NNW,338,0.0,0.0,46,0.00,,---,0.00,VWS V14.01,2013-01-24 00:37:00,
2013-01-23 19:38:00,54.9,41.7,30.33,NNW,338,0.0,0.0,61,0.00,,---,0.00,VWS V14.01,2013-01-24 00:38:00,
2013-01-23 19:39:00,59.0,38.3,30.30,NNW,338,0.0,0.0,46,0.00,,---,0.00,VWS V14.01,2013-01-24 00:39:00,
2013-01-23 19:40:00,58.8,38.7,30.30,NNW,338,0.0,0.0,47,0.00,,---,0.00,VWS V14.01,2013-01-24 00:40:00,
2013-01-23 19:41:00,58.8,38.7,30.30,NNW,338,0.0,0.0,47,0.00,,---,0.00,VWS V14.01,2013-01-24 00:41:00,
2013-01-23 19:42:00,58.5,38.3,30.30,NNW,338,0.0,0.0,47,0.00,,---,0.00,VWS V14.01,2013-01-24 00:42:00,
2013-01-23 19:43:00,54.7,41.9,30.33,NNW,338,0.0,0.0,62,0.00,,---,0.00,VWS V14.01,2013-01-24 00:43:00,
2013-01-23 19:44:00,58.3,38.2,30.30,NE,45,0.0,0.0,47,0.00,,---,0.00,VWS V14.01,2013-01-24 00:44:00,
2013-01-23 19:45:00,58.3,38.2,30.30,NNE,22,0.0,0.0,47,0.00,,---,0.00,VWS V14.01,2013-01-24 00:45:00,
2013-01-23 19:46:00,58.3,38.2,30.30,NNE,22,0.0,0.0,47,0.00,,---,0.00,VWS V14.01,2013-01-24 00:46:00,
2013-01-23 19:47:00,58.1,38.0,30.33,NNE,22,0.0,0.0,47,0.00,,---,0.00,VWS V14.01,2013-01-24 00:47:00,
2013-01-23 19:48:00,54.5,41.8,30.33,NNW,338,0.0,0.0,62,0.00,,---,0.00,VWS V14.01,2013-01-24 00:48:00,
2013-01-23 19:49:00,57.9,38.4,30.33,NNW,338,0.0,0.0,48,0.00,,---,0.00,VWS V14.01,2013-01-24 00:49:00,
2013-01-23 19:50:00,57.9,38.4,30.33,NNW,338,0.0,0.0,48,0.00,,---,0.00,VWS V14.01,2013-01-24 00:50:00,
2013-01-23 19:51:00,57.7,37.7,30.33,NNE,22,0.0,0.0,47,0.00,,---,0.00,VWS V14.01,2013-01-24 00:51:00,
2013-01-23 19:52:00,57.7,38.2,30.33,NNE,22,0.0,0.0,48,0.00,,---,0.00,VWS V14.01,2013-01-24 00:52:00,
2013-01-23 19:53:00,54.5,43.0,30.36,NNW,338,0.0,0.0,65,0.00,,---,0.00,VWS V14.01,2013-01-24 00:53:00,
2013-01-23 19:54:00,57.6,38.0,30.33,NNE,22,0.0,0.0,48,0.00,,---,0.00,VWS V14.01,2013-01-24 00:54:00,
2013-01-23 19:55:00,57.6,38.0,30.33,NNE,22,0.0,0.0,48,0.00,,---,0.00,VWS V14.01,2013-01-24 00:55:00,
2013-01-23 19:56:00,57.6,38.0,30.33,NNE,22,0.0,0.0,48,0.00,,---,0.00,VWS V14.01,2013-01-24 00:56:00,
2013-01-23 19:57:00,57.4,38.4,30.33,NNE,22,0.0,0.0,49,0.00,,---,0.00,VWS V14.01,2013-01-24 00:57:00,
2013-01-23 19:58:00,54.3,42.8,30.36,NNW,338,0.0,0.0,65,0.00,,---,0.00,VWS V14.01,2013-01-24 00:58:00,
2013-01-23 19:59:00,57.4,38.4,30.33,NNE,22,0.0,0.0,49,0.00,,---,0.00,VWS V14.01,2013-01-24 00:59:00,
2013-01-23 20:00:00,57.4,38.4,30.33,North,0,0.0,0.0,49,0.00,,---,0.00,VWS V14.01,2013-01-24 01:00:00,
2013-01-23 20:01:00,57.4,38.4,30.33,NNW,338,0.0,0.0,49,0.00,,---,0.00,VWS V14.01,2013-01-24 01:01:00,
2013-01-23 20:02:00,57.4,38.4,30.33,NNW,338,0.0,0.0,49,0.00,,---,0.00,VWS V14.01,2013-01-24 01:02:00,
2013-01-23 20:03:00,54.0,42.1,30.36,NNW,338,0.0,0.0,64,0.00,,---,0.00,VWS V14.01,2013-01-24 01:03:00,
2013-01-23 20:04:00,57.4,38.9,30.33,NNW,338,0.0,0.0,50,0.00,,---,0.00,VWS V14.01,2013-01-24 01:04:00,
2013-01-23 20:05:00,57.2,38.8,30.33,NNW,338,0.0,0.0,50,0.00,,---,0.00,VWS V14.01,2013-01-24 01:05:00,
2013-01-23 20:06:00,57.2,38.8,30.33,NNW,338,0.0,0.0,50,0.00,,---,0.00,VWS V14.01,2013-01-24 01:06:00,
2013-01-23 20:07:00,57.2,38.8,30.33,NNW,338,0.0,0.0,50,0.00,,---,0.00,VWS V14.01,2013-01-24 01:07:00,
2013-01-23 20:08:00,53.4,41.6,30.33,NNW,338,0.0,0.0,64,0.00,,---,0.00,VWS V14.01,2013-01-24 01:08:00,
2013-01-23 20:09:00,57.2,39.8,30.33,NNW,338,0.0,0.0,52,0.00,,---,0.00,VWS V14.01,2013-01-24 01:09:00,
2013-01-23 20:10:00,57.2,40.2,30.33,NNW,338,0.0,0.0,53,0.00,,---,0.00,VWS V14.01,2013-01-24 01:10:00,
2013-01-23 20:11:00,57.2,39.8,30.33,NNW,338,0.0,0.0,52,0.00,,---,0.00,VWS V14.01,2013-01-24 01:11:00,
2013-01-23 20:12:00,57.0,40.1,30.33,NNW,338,0.0,0.0,53,0.00,,---,0.00,VWS V14.01,2013-01-24 01:12:00,
2013-01-23 20:13:00,52.9,41.5,30.33,NNW,338,0.0,0.0,65,0.00,,---,0.00,VWS V14.01,2013-01-24 01:13:00,
2013-01-23 20:14:00,57.0,40.1,30.33,NNW,338,0.0,0.0,53,0.00,,---,0.00,VWS V14.01,2013-01-24 01:14:00,
2013-01-23 20:15:00,57.0,40.1,30.33,NNW,338,0.0,0.0,53,0.00,,---,0.00,VWS V14.01,2013-01-24 01:15:00,
2013-01-23 20:16:00,56.8,39.9,30.33,NNW,338,0.0,0.0,53,0.00,,---,0.00,VWS V14.01,2013-01-24 01:16:00,
2013-01-23 20:17:00,56.8,39.9,30.33,NNW,338,0.0,0.0,53,0.00,,---,0.00,VWS V14.01,2013-01-24 01:17:00,
2013-01-23 20:18:00,52.7,40.9,30.33,NNW,338,0.0,0.0,64,0.00,,---,0.00,VWS V14.01,2013-01-24 01:18:00,
2013-01-23 20:19:00,56.7,39.7,30.33,NNW,338,0.0,0.0,53,0.00,,---,0.00,VWS V14.01,2013-01-24 01:19:00,
2013-01-23 20:20:00,56.3,39.4,30.33,NNW,338,0.0,0.0,53,0.00,,---,0.00,VWS V14.01,2013-01-24 01:20:00,
2013-01-23 20:21:00,56.3,39.4,30.33,NNW,338,0.0,0.0,53,0.00,,---,0.00,VWS V14.01,2013-01-24 01:21:00,
2013-01-23 20:22:00,56.1,39.2,30.33,NNW,338,0.0,0.0,53,0.00,,---,0.00,VWS V14.01,2013-01-24 01:22:00,
2013-01-23 20:23:00,52.2,40.8,30.30,NNW,338,0.0,0.0,65,0.00,,---,0.00,VWS V14.01,2013-01-24 01:23:00,
2013-01-23 20:24:00,55.9,39.1,30.33,NNW,338,0.0,0.0,53,0.00,,---,0.00,VWS V14.01,2013-01-24 01:24:00,
2013-01-23 20:25:00,55.9,39.1,30.33,NNW,338,0.0,0.0,53,0.00,,---,0.00,VWS V14.01,2013-01-24 01:25:00,
2013-01-23 20:26:00,55.9,39.1,30.33,NNW,338,0.0,0.0,53,0.00,,---,0.00,VWS V14.01,2013-01-24 01:26:00,
2013-01-23 20:27:00,55.9,38.6,30.33,NNW,338,0.0,0.0,52,0.00,,---,0.00,VWS V14.01,2013-01-24 01:27:00,
2013-01-23 20:28:00,51.6,41.0,30.30,NNW,338,0.0,0.0,67,0.00,,---,0.00,VWS V14.01,2013-01-24 01:28:00,
2013-01-23 20:29:00,55.8,38.4,30.33,NNW,338,0.0,0.0,52,0.00,,---,0.00,VWS V14.01,2013-01-24 01:29:00,
2013-01-23 20:30:00,55.8,38.9,30.33,NNW,338,0.0,0.0,53,0.00,,---,0.00,VWS V14.01,2013-01-24 01:30:00,
2013-01-23 20:31:00,55.8,38.9,30.33,NNW,338,0.0,0.0,53,0.00,,---,0.00,VWS V14.01,2013-01-24 01:31:00,
2013-01-23 20:32:00,55.8,38.9,30.33,NNW,338,0.0,0.0,53,0.00,,---,0.00,VWS V14.01,2013-01-24 01:32:00,
2013-01-23 20:33:00,51.4,40.9,30.30,ESE,112,0.0,0.0,67,0.00,,---,0.00,VWS V14.01,2013-01-24 01:33:00,
2013-01-23 20:34:00,55.6,39.2,30.33,NNW,338,0.0,0.0,54,0.00,,---,0.00,VWS V14.01,2013-01-24 01:34:00,
2013-01-23 20:35:00,55.6,39.2,30.33,NNW,338,0.0,0.0,54,0.00,,---,0.00,VWS V14.01,2013-01-24 01:35:00,
2013-01-23 20:36:00,55.6,39.2,30.33,NNW,338,0.0,0.0,54,0.00,,---,0.00,VWS V14.01,2013-01-24 01:36:00,
2013-01-23 20:37:00,55.4,39.5,30.33,NNW,338,0.0,0.0,55,0.00,,---,0.00,VWS V14.01,2013-01-24 01:37:00,
2013-01-23 20:38:00,51.3,41.1,30.33,ESE,112,0.0,0.0,68,0.00,,---,0.00,VWS V14.01,2013-01-24 01:38:00,
2013-01-23 20:39:00,55.4,40.0,30.33,NNW,338,0.0,0.0,56,0.00,,---,0.00,VWS V14.01,2013-01-24 01:39:00,
2013-01-23 20:40:00,55.4,40.0,30.33,NNW,338,0.0,0.0,56,0.00,,---,0.00,VWS V14.01,2013-01-24 01:40:00,
2013-01-23 20:41:00,55.4,40.4,30.33,NNW,338,0.0,0.0,57,0.00,,---,0.00,VWS V14.01,2013-01-24 01:41:00,
2013-01-23 20:42:00,55.2,40.3,30.33,NNW,338,0.0,0.0,57,0.00,,---,0.00,VWS V14.01,2013-01-24 01:42:00,
2013-01-23 20:43:00,51.3,41.5,30.33,NW,315,0.0,0.0,69,0.00,,---,0.00,VWS V14.01,2013-01-24 01:43:00,
2013-01-23 20:44:00,55.2,40.3,30.33,NNW,338,0.0,0.0,57,0.00,,---,0.00,VWS V14.01,2013-01-24 01:44:00,
2013-01-23 20:45:00,55.2,40.7,30.33,North,0,0.0,0.0,58,0.00,,---,0.00,VWS V14.01,2013-01-24 01:45:00,
2013-01-23 20:46:00,55.2,41.2,30.33,NNW,338,0.0,0.0,59,0.00,,---,0.00,VWS V14.01,2013-01-24 01:46:00,
2013-01-23 20:47:00,55.2,41.2,30.33,North,0,0.0,0.0,59,0.00,,---,0.00,VWS V14.01,2013-01-24 01:47:00,
2013-01-23 20:48:00,51.1,42.0,30.33,NW,315,0.0,0.0,71,0.00,,---,0.00,VWS V14.01,2013-01-24 01:48:00,
2013-01-23 20:49:00,55.2,40.7,30.33,NNW,338,0.0,0.0,58,0.00,,---,0.00,VWS V14.01,2013-01-24 01:49:00,
2013-01-23 20:50:00,55.0,40.5,30.33,NNW,338,0.0,0.0,58,0.00,,---,0.00,VWS V14.01,2013-01-24 01:50:00,
2013-01-23 20:51:00,55.0,40.5,30.33,NNW,338,0.0,0.0,58,0.00,,---,0.00,VWS V14.01,2013-01-24 01:51:00,
2013-01-23 20:52:00,55.0,40.5,30.33,NNW,338,0.0,0.0,58,0.00,,---,0.00,VWS V14.01,2013-01-24 01:52:00,
2013-01-23 20:53:00,50.9,41.8,30.33,NW,315,0.0,0.0,71,0.00,,---,0.00,VWS V14.01,2013-01-24 01:53:00,
2013-01-23 20:54:00,54.9,40.4,30.33,NNW,338,0.0,0.0,58,0.00,,---,0.00,VWS V14.01,2013-01-24 01:54:00,
2013-01-23 20:55:00,54.9,40.4,30.33,NNW,338,0.0,0.0,58,0.00,,---,0.00,VWS V14.01,2013-01-24 01:55:00,
2013-01-23 20:56:00,54.9,40.4,30.33,NNW,338,0.0,0.0,58,0.00,,---,0.00,VWS V14.01,2013-01-24 01:56:00,
2013-01-23 20:57:00,54.9,40.4,30.33,NNW,338,0.0,0.0,58,0.00,,---,0.00,VWS V14.01,2013-01-24 01:57:00,
2013-01-23 20:58:00,50.7,42.4,30.33,NW,315,0.0,0.0,73,0.00,,---,0.00,VWS V14.01,2013-01-24 01:58:00,
2013-01-23 20:59:00,54.9,40.8,30.33,NNW,338,0.0,0.0,59,0.00,,---,0.00,VWS V14.01,2013-01-24 01:59:00,
2013-01-23 21:00:00,54.9,40.8,30.33,NNW,338,0.0,0.0,59,0.00,,---,0.00,VWS V14.01,2013-01-24 02:00:00,
2013-01-23 21:01:00,54.9,40.8,30.33,NNW,338,0.0,0.0,59,0.00,,---,0.00,VWS V14.01,2013-01-24 02:01:00,
2013-01-23 21:02:00,54.9,40.8,30.33,NNW,338,0.0,0.0,59,0.00,,---,0.00,VWS V14.01,2013-01-24 02:02:00,
2013-01-23 21:03:00,50.7,43.1,30.33,NW,315,0.0,0.0,75,0.00,,---,0.00,VWS V14.01,2013-01-24 02:03:00,
2013-01-23 21:04:00,54.9,41.7,30.33,NNW,338,0.0,0.0,61,0.00,,---,0.00,VWS V14.01,2013-01-24 02:04:00,
2013-01-23 21:05:00,54.9,42.5,30.33,North,0,0.0,0.0,63,0.00,,---,0.00,VWS V14.01,2013-01-24 02:05:00,
2013-01-23 21:06:00,54.9,42.5,30.33,NNW,338,0.0,0.0,63,0.00,,---,0.00,VWS V14.01,2013-01-24 02:06:00,
2013-01-23 21:07:00,54.9,42.5,30.33,NNW,338,0.0,0.0,63,0.00,,---,0.00,VWS V14.01,2013-01-24 02:07:00,
2013-01-23 21:08:00,50.4,42.8,30.33,NW,315,0.0,0.0,75,0.00,,---,0.00,VWS V14.01,2013-01-24 02:08:00,
2013-01-23 21:09:00,54.7,42.3,30.33,NNW,338,0.0,0.0,63,0.00,,---,0.00,VWS V14.01,2013-01-24 02:09:00,
2013-01-23 21:10:00,54.7,41.9,30.33,NNW,338,0.0,0.0,62,0.00,,---,0.00,VWS V14.01,2013-01-24 02:10:00,
2013-01-23 21:11:00,54.7,41.9,30.33,NNW,338,0.0,0.0,62,0.00,,---,0.00,VWS V14.01,2013-01-24 02:11:00,
2013-01-23 21:12:00,54.7,41.9,30.33,NNW,338,0.0,0.0,62,0.00,,---,0.00,VWS V14.01,2013-01-24 02:12:00,
2013-01-23 21:13:00,50.2,42.6,30.33,NW,315,0.0,0.0,75,0.00,,---,0.00,VWS V14.01,2013-01-24 02:13:00,
2013-01-23 21:14:00,54.5,41.8,30.33,NNW,338,0.0,0.0,62,0.00,,---,0.00,VWS V14.01,2013-01-24 02:14:00,
2013-01-23 21:15:00,54.5,41.8,30.33,NNW,338,0.0,0.0,62,0.00,,---,0.00,VWS V14.01,2013-01-24 02:15:00,
2013-01-23 21:16:00,54.5,41.8,30.33,NNW,338,0.0,0.0,62,0.00,,---,0.00,VWS V14.01,2013-01-24 02:16:00,
2013-01-23 21:17:00,54.3,41.6,30.36,NNW,338,0.0,0.0,62,0.00,,---,0.00,VWS V14.01,2013-01-24 02:17:00,
2013-01-23 21:18:00,50.0,42.4,30.33,NW,315,0.0,0.0,75,0.00,,---,0.00,VWS V14.01,2013-01-24 02:18:00,
2013-01-23 21:19:00,54.5,43.0,30.36,NNW,338,0.0,0.0,65,0.00,,---,0.00,VWS V14.01,2013-01-24 02:19:00,
2013-01-23 21:20:00,54.5,43.0,30.36,NNW,338,0.0,0.0,65,0.00,,---,0.00,VWS V14.01,2013-01-24 02:20:00,
2013-01-23 21:21:00,54.5,43.0,30.36,NNW,338,0.0,0.0,65,0.00,,---,0.00,VWS V14.01,2013-01-24 02:21:00,
2013-01-23 21:22:00,54.5,43.0,30.36,NNW,338,0.0,0.0,65,0.00,,---,0.00,VWS V14.01,2013-01-24 02:22:00,
2013-01-23 21:23:00,49.6,42.4,30.30,NW,315,0.0,0.0,76,0.00,,---,0.00,VWS V14.01,2013-01-24 02:23:00,
2013-01-23 21:24:00,54.5,43.0,30.36,NNW,338,0.0,0.0,65,0.00,,---,0.00,VWS V14.01,2013-01-24 02:24:00,
2013-01-23 21:25:00,54.3,42.8,30.36,NNW,338,0.0,0.0,65,0.00,,---,0.00,VWS V14.01,2013-01-24 02:25:00,
2013-01-23 21:26:00,54.3,42.4,30.36,NNW,338,0.0,0.0,64,0.00,,---,0.00,VWS V14.01,2013-01-24 02:26:00,
2013-01-23 21:27:00,54.1,42.2,30.36,NNW,338,0.0,0.0,64,0.00,,---,0.00,VWS V14.01,2013-01-24 02:27:00,
2013-01-23 21:28:00,49.5,42.2,30.30,NW,315,0.0,0.0,76,0.00,,---,0.00,VWS V14.01,2013-01-24 02:28:00,
2013-01-23 21:29:00,54.0,42.1,30.36,NNW,338,0.0,0.0,64,0.00,,---,0.00,VWS V14.01,2013-01-24 02:29:00,
2013-01-23 21:30:00,53.8,41.9,30.36,NNW,338,0.0,0.0,64,0.00,,---,0.00,VWS V14.01,2013-01-24 02:30:00,
2013-01-23 21:31:00,53.8,41.9,30.36,NNW,338,0.0,0.0,64,0.00,,---,0.00,VWS V14.01,2013-01-24 02:31:00,
2013-01-23 21:32:00,53.6,41.7,30.33,NNW,338,0.0,0.0,64,0.00,,---,0.00,VWS V14.01,2013-01-24 02:32:00,
2013-01-23 21:33:00,49.3,42.0,30.30,NW,315,0.0,0.0,76,0.00,,---,0.00,VWS V14.01,2013-01-24 02:33:00,
2013-01-23 21:34:00,53.4,41.6,30.33,NNW,338,0.0,0.0,64,0.00,,---,0.00,VWS V14.01,2013-01-24 02:34:00,
2013-01-23 21:35:00,53.4,41.6,30.33,NNW,338,0.0,0.0,64,0.00,,---,0.00,VWS V14.01,2013-01-24 02:35:00,
2013-01-23 21:36:00,53.2,41.4,30.33,NNW,338,0.0,0.0,64,0.00,,---,0.00,VWS V14.01,2013-01-24 02:36:00,
2013-01-23 21:37:00,53.1,41.2,30.33,NNW,338,0.0,0.0,64,0.00,,---,0.00,VWS V14.01,2013-01-24 02:37:00,
2013-01-23 21:38:00,49.3,42.4,30.33,NW,315,0.0,0.0,77,0.00,,---,0.00,VWS V14.01,2013-01-24 02:38:00,
2013-01-23 21:39:00,53.1,41.6,30.33,NNW,338,0.0,0.0,65,0.00,,---,0.00,VWS V14.01,2013-01-24 02:39:00,
2013-01-23 21:40:00,52.9,41.5,30.33,NNW,338,0.0,0.0,65,0.00,,---,0.00,VWS V14.01,2013-01-24 02:40:00,
2013-01-23 21:41:00,52.9,41.0,30.33,NNW,338,0.0,0.0,64,0.00,,---,0.00,VWS V14.01,2013-01-24 02:41:00,
2013-01-23 21:42:00,52.9,41.0,30.33,NNW,338,0.0,0.0,64,0.00,,---,0.00,VWS V14.01,2013-01-24 02:42:00,
2013-01-23 21:43:00,48.9,42.4,30.33,NW,315,0.0,0.0,78,0.00,,---,0.00,VWS V14.01,2013-01-24 02:43:00,
2013-01-23 21:44:00,52.7,40.9,30.33,NNW,338,0.0,0.0,64,0.00,,---,0.00,VWS V14.01,2013-01-24 02:44:00,
2013-01-23 21:45:00,52.7,41.3,30.33,NNW,338,0.0,0.0,65,0.00,,---,0.00,VWS V14.01,2013-01-24 02:45:00,
2013-01-23 21:46:00,52.5,41.1,30.33,NNW,338,0.0,0.0,65,0.00,,---,0.00,VWS V14.01,2013-01-24 02:46:00,
2013-01-23 21:47:00,52.5,41.1,30.30,NNW,338,0.0,0.0,65,0.00,,---,0.00,VWS V14.01,2013-01-24 02:47:00,
2013-01-23 21:48:00,48.7,42.2,30.33,NW,315,0.0,0.0,78,0.00,,---,0.00,VWS V14.01,2013-01-24 02:48:00,
2013-01-23 21:49:00,52.3,40.9,30.30,NNW,338,0.0,0.0,65,0.00,,---,0.00,VWS V14.01,2013-01-24 02:49:00,
2013-01-23 21:50:00,52.2,40.8,30.30,NNW,338,0.0,0.0,65,0.00,,---,0.00,VWS V14.01,2013-01-24 02:50:00,
2013-01-23 21:51:00,52.0,41.0,30.30,NNW,338,0.0,0.0,66,0.00,,---,0.00,VWS V14.01,2013-01-24 02:51:00,
2013-01-23 21:52:00,52.0,41.0,30.30,NNW,338,0.0,0.0,66,0.00,,---,0.00,VWS V14.01,2013-01-24 02:52:00,
2013-01-23 21:53:00,48.2,42.0,30.36,NW,315,0.0,0.0,79,0.00,,---,0.00,VWS V14.01,2013-01-24 02:53:00,
2013-01-23 21:54:00,51.8,41.2,30.30,NNW,338,0.0,0.0,67,0.00,,---,0.00,VWS V14.01,2013-01-24 02:54:00,
2013-01-23 21:55:00,51.6,41.0,30.30,NNW,338,0.0,0.0,67,0.00,,---,0.00,VWS V14.01,2013-01-24 02:55:00,
2013-01-23 21:56:00,51.6,41.0,30.30,ESE,112,0.0,0.0,67,0.00,,---,0.00,VWS V14.01,2013-01-24 02:56:00,
2013-01-23 21:57:00,51.6,41.0,30.30,ESE,112,0.0,0.0,67,0.00,,---,0.00,VWS V14.01,2013-01-24 02:57:00,
2013-01-23 21:58:00,47.8,41.7,30.36,NW,315,0.0,0.0,79,0.00,,---,0.00,VWS V14.01,2013-01-24 02:58:00,
2013-01-23 21:59:00,51.4,40.9,30.30,ESE,112,0.0,0.0,67,0.00,,---,0.00,VWS V14.01,2013-01-24 02:59:00,
2013-01-23 22:00:00,51.4,41.2,30.30,ESE,112,0.0,0.0,68,0.00,,---,0.00,VWS V14.01,2013-01-24 03:00:00,
2013-01-23 22:01:00,51.4,41.2,30.30,ESE,112,0.0,0.0,68,0.00,,---,0.00,VWS V14.01,2013-01-24 03:01:00,
2013-01-23 22:02:00,51.3,41.1,30.33,ESE,112,0.0,0.0,68,0.00,,---,0.00,VWS V14.01,2013-01-24 03:02:00,
2013-01-23 22:03:00,47.5,41.6,30.36,NW,315,0.0,0.0,80,0.00,,---,0.00,VWS V14.01,2013-01-24 03:03:00,
2013-01-23 22:04:00,51.3,41.1,30.33,ESE,112,0.0,0.0,68,0.00,,---,0.00,VWS V14.01,2013-01-24 03:04:00,
2013-01-23 22:05:00,51.3,41.1,30.33,ESE,112,0.0,0.0,68,0.00,,---,0.00,VWS V14.01,2013-01-24 03:05:00,
2013-01-23 22:06:00,51.3,41.5,30.33,NNE,22,0.0,0.0,69,0.00,,---,0.00,VWS V14.01,2013-01-24 03:06:00,
2013-01-23 22:07:00,51.3,41.5,30.33,NW,315,0.0,0.0,69,0.00,,---,0.00,VWS V14.01,2013-01-24 03:07:00,
2013-01-23 22:08:00,47.5,42.3,30.33,NW,315,0.0,0.0,82,0.00,,---,0.00,VWS V14.01,2013-01-24 03:08:00,
2013-01-23 22:09:00,51.3,41.5,30.33,NW,315,0.0,0.0,69,0.00,,---,0.00,VWS V14.01,2013-01-24 03:09:00,
2013-01-23 22:10:00,51.3,41.8,30.33,NW,315,0.0,0.0,70,0.00,,---,0.00,VWS V14.01,2013-01-24 03:10:00,
2013-01-23 22:11:00,51.3,41.8,30.33,NW,315,0.0,0.0,70,0.00,,---,0.00,VWS V14.01,2013-01-24 03:11:00,
2013-01-23 22:12:00,51.3,41.8,30.33,NW,315,0.0,0.0,70,0.00,,---,0.00,VWS V14.01,2013-01-24 03:12:00,
2013-01-23 22:13:00,47.7,42.8,30.33,NNW,338,0.0,0.0,83,0.00,,---,0.00,VWS V14.01,2013-01-24 03:13:00,
2013-01-23 22:14:00,51.1,42.0,30.33,NW,315,0.0,0.0,71,0.00,,---,0.00,VWS V14.01,2013-01-24 03:14:00,
2013-01-23 22:15:00,51.1,42.0,30.33,NW,315,0.0,0.0,71,0.00,,---,0.00,VWS V14.01,2013-01-24 03:15:00,
2013-01-23 22:16:00,51.1,42.0,30.33,NW,315,0.0,0.0,71,0.00,,---,0.00,VWS V14.01,2013-01-24 03:16:00,
2013-01-23 22:17:00,51.1,42.4,30.33,NW,315,0.0,0.0,72,0.00,,---,0.00,VWS V14.01,2013-01-24 03:17:00,
2013-01-23 22:18:00,47.8,43.2,30.33,NNW,338,0.0,0.0,84,0.00,,---,0.00,VWS V14.01,2013-01-24 03:18:00,
2013-01-23 22:19:00,50.9,42.2,30.33,NW,315,0.0,0.0,72,0.00,,---,0.00,VWS V14.01,2013-01-24 03:19:00,
2013-01-23 22:20:00,50.9,41.8,30.33,NW,315,0.0,0.0,71,0.00,,---,0.00,VWS V14.01,2013-01-24 03:20:00,
2013-01-23 22:21:00,50.7,41.7,30.33,NW,315,0.0,0.0,71,0.00,,---,0.00,VWS V14.01,2013-01-24 03:21:00,
2013-01-23 22:22:00,50.7,41.7,30.33,NW,315,0.0,0.0,71,0.00,,---,0.00,VWS V14.01,2013-01-24 03:22:00,
2013-01-23 22:23:00,47.5,42.9,30.33,NNW,338,0.0,0.0,84,0.00,,---,0.00,VWS V14.01,2013-01-24 03:23:00,
2013-01-23 22:24:00,50.7,41.7,30.33,NW,315,0.0,0.0,71,0.00,,---,0.00,VWS V14.01,2013-01-24 03:24:00,
2013-01-23 22:25:00,50.7,42.4,30.33,NW,315,0.0,0.0,73,0.00,,---,0.00,VWS V14.01,2013-01-24 03:25:00,
2013-01-23 22:26:00,50.9,42.9,30.33,NW,315,0.0,0.0,74,0.00,,---,0.00,VWS V14.01,2013-01-24 03:26:00,
2013-01-23 22:27:00,50.7,42.8,30.33,NW,315,0.0,0.0,74,0.00,,---,0.00,VWS V14.01,2013-01-24 03:27:00,
2013-01-23 22:28:00,47.3,42.7,30.33,NNW,338,0.0,0.0,84,0.00,,---,0.00,VWS V14.01,2013-01-24 03:28:00,
2013-01-23 22:29:00,50.7,43.1,30.33,NW,315,0.0,0.0,75,0.00,,---,0.00,VWS V14.01,2013-01-24 03:29:00,
2013-01-23 22:30:00,50.7,43.1,30.33,NW,315,0.0,0.0,75,0.00,,---,0.00,VWS V14.01,2013-01-24 03:30:00,
2013-01-23 22:31:00,50.7,43.1,30.33,NW,315,0.0,0.0,75,0.00,,---,0.00,VWS V14.01,2013-01-24 03:31:00,
2013-01-23 22:32:00,50.7,43.1,30.33,NW,315,0.0,0.0,75,0.00,,---,0.00,VWS V14.01,2013-01-24 03:32:00,
2013-01-23 22:33:00,47.1,42.5,30.33,NNW,338,0.0,0.0,84,0.00,,---,0.00,VWS V14.01,2013-01-24 03:33:00,
2013-01-23 22:34:00,50.5,42.9,30.33,NW,315,0.0,0.0,75,0.00,,---,0.00,VWS V14.01,2013-01-24 03:34:00,
2013-01-23 22:35:00,50.4,42.8,30.33,NW,315,0.0,0.0,75,0.00,,---,0.00,VWS V14.01,2013-01-24 03:35:00,
2013-01-23 22:36:00,50.2,42.6,30.33,NW,315,0.0,0.0,75,0.00,,---,0.00,VWS V14.01,2013-01-24 03:36:00,
2013-01-23 22:37:00,50.2,42.6,30.33,NW,315,0.0,0.0,75,0.00,,---,0.00,VWS V14.01,2013-01-24 03:37:00,
2013-01-23 22:38:00,47.1,42.5,30.33,NNW,338,0.0,0.0,84,0.00,,---,0.00,VWS V14.01,2013-01-24 03:38:00,
2013-01-23 22:39:00,50.2,42.6,30.33,NW,315,0.0,0.0,75,0.00,,---,0.00,VWS V14.01,2013-01-24 03:39:00,
2013-01-23 22:40:00,50.2,42.2,30.33,NW,315,0.0,0.0,74,0.00,,---,0.00,VWS V14.01,2013-01-24 03:40:00,
2013-01-23 22:41:00,50.2,42.2,30.33,NW,315,0.0,0.0,74,0.00,,---,0.00,VWS V14.01,2013-01-24 03:41:00,
2013-01-23 22:42:00,50.0,42.0,30.33,NW,315,0.0,0.0,74,0.00,,---,0.00,VWS V14.01,2013-01-24 03:42:00,
2013-01-23 22:43:00,47.1,42.5,30.33,NNW,338,0.0,0.0,84,0.00,,---,0.00,VWS V14.01,2013-01-24 03:43:00,
2013-01-23 22:44:00,50.0,42.4,30.33,NW,315,0.0,0.0,75,0.00,,---,0.00,VWS V14.01,2013-01-24 03:44:00,
2013-01-23 22:45:00,50.0,42.4,30.33,NW,315,0.0,0.0,75,0.00,,---,0.00,VWS V14.01,2013-01-24 03:45:00,
2013-01-23 22:46:00,49.8,42.2,30.33,NW,315,0.0,0.0,75,0.00,,---,0.00,VWS V14.01,2013-01-24 03:46:00,
2013-01-23 22:47:00,49.8,42.2,30.30,NW,315,0.0,0.0,75,0.00,,---,0.00,VWS V14.01,2013-01-24 03:47:00,
2013-01-23 22:48:00,47.5,43.2,30.33,NNW,338,0.0,0.0,85,0.00,,---,0.00,VWS V14.01,2013-01-24 03:48:00,
2013-01-23 22:49:00,49.6,42.4,30.30,NW,315,0.0,0.0,76,0.00,,---,0.00,VWS V14.01,2013-01-24 03:49:00,
2013-01-23 22:50:00,49.6,42.4,30.30,NW,315,0.0,0.0,76,0.00,,---,0.00,VWS V14.01,2013-01-24 03:50:00,
2013-01-23 22:51:00,49.5,42.2,30.30,NW,315,0.0,0.0,76,0.00,,---,0.00,VWS V14.01,2013-01-24 03:51:00,
2013-01-23 22:52:00,49.5,42.2,30.30,NW,315,0.0,0.0,76,0.00,,---,0.00,VWS V14.01,2013-01-24 03:52:00,
2013-01-23 22:53:00,47.3,43.0,30.33,NNW,338,0.0,0.0,85,0.00,,---,0.00,VWS V14.01,2013-01-24 03:53:00,
2013-01-23 22:54:00,49.5,42.2,30.30,NW,315,0.0,0.0,76,0.00,,---,0.00,VWS V14.01,2013-01-24 03:54:00,
2013-01-23 22:55:00,49.5,42.2,30.30,NW,315,0.0,0.0,76,0.00,,---,0.00,VWS V14.01,2013-01-24 03:55:00,
2013-01-23 22:56:00,49.5,42.2,30.30,NW,315,0.0,0.0,76,0.00,,---,0.00,VWS V14.01,2013-01-24 03:56:00,
2013-01-23 22:57:00,49.5,42.2,30.30,NW,315,0.0,0.0,76,0.00,,---,0.00,VWS V14.01,2013-01-24 03:57:00,
2013-01-23 22:58:00,47.5,43.2,30.33,NNW,338,0.0,0.0,85,0.00,,---,0.00,VWS V14.01,2013-01-24 03:58:00,
2013-01-23 22:59:00,49.3,42.0,30.30,NW,315,0.0,0.0,76,0.00,,---,0.00,VWS V14.01,2013-01-24 03:59:00,
2013-01-23 23:00:00,49.1,41.9,30.30,NW,315,0.0,0.0,76,0.00,,---,0.00,VWS V14.01,2013-01-24 04:00:00,
2013-01-23 23:01:00,49.1,41.9,30.30,NW,315,0.0,0.0,76,0.00,,---,0.00,VWS V14.01,2013-01-24 04:01:00,
2013-01-23 23:02:00,49.3,42.0,30.33,NW,315,0.0,0.0,76,0.00,,---,0.00,VWS V14.01,2013-01-24 04:02:00,
2013-01-23 23:03:00,47.3,43.0,30.33,NNW,338,0.0,0.0,85,0.00,,---,0.00,VWS V14.01,2013-01-24 04:03:00,
2013-01-23 23:04:00,49.3,42.0,30.33,NW,315,0.0,0.0,76,0.00,,---,0.00,VWS V14.01,2013-01-24 04:04:00,
2013-01-23 23:05:00,49.3,42.4,30.33,NW,315,0.0,0.0,77,0.00,,---,0.00,VWS V14.01,2013-01-24 04:05:00,
2013-01-23 23:06:00,49.1,42.5,30.33,NW,315,0.0,0.0,78,0.00,,---,0.00,VWS V14.01,2013-01-24 04:06:00,
2013-01-23 23:07:00,48.9,42.4,30.33,NW,315,0.0,0.0,78,0.00,,---,0.00,VWS V14.01,2013-01-24 04:07:00,
2013-01-23 23:08:00,47.1,43.2,30.33,NNW,338,0.0,0.0,86,0.00,,---,0.00,VWS V14.01,2013-01-24 04:08:00,
2013-01-23 23:09:00,48.9,42.4,30.33,NW,315,0.0,0.0,78,0.00,,---,0.00,VWS V14.01,2013-01-24 04:09:00,
2013-01-23 23:10:00,48.7,42.2,30.33,NW,315,0.0,0.0,78,0.00,,---,0.00,VWS V14.01,2013-01-24 04:10:00,
2013-01-23 23:11:00,48.7,42.2,30.33,NW,315,0.0,0.0,78,0.00,,---,0.00,VWS V14.01,2013-01-24 04:11:00,
2013-01-23 23:12:00,48.7,42.2,30.33,NW,315,0.0,0.0,78,0.00,,---,0.00,VWS V14.01,2013-01-24 04:12:00,
2013-01-23 23:13:00,46.8,42.8,30.33,NNW,338,0.0,0.0,86,0.00,,---,0.00,VWS V14.01,2013-01-24 04:13:00,
2013-01-23 23:14:00,48.7,42.2,30.33,NW,315,0.0,0.0,78,0.00,,---,0.00,VWS V14.01,2013-01-24 04:14:00,
2013-01-23 23:15:00,48.6,42.3,30.33,NW,315,0.0,0.0,79,0.00,,---,0.00,VWS V14.01,2013-01-24 04:15:00,
2013-01-23 23:16:00,48.6,42.3,30.33,NW,315,0.0,0.0,79,0.00,,---,0.00,VWS V14.01,2013-01-24 04:16:00,
2013-01-23 23:17:00,48.4,42.2,30.36,NW,315,0.0,0.0,79,0.00,,---,0.00,VWS V14.01,2013-01-24 04:17:00,
2013-01-23 23:18:00,46.4,42.5,30.33,NNW,338,0.0,0.0,86,0.00,,---,0.00,VWS V14.01,2013-01-24 04:18:00,
2013-01-23 23:19:00,48.2,42.0,30.36,NW,315,0.0,0.0,79,0.00,,---,0.00,VWS V14.01,2013-01-24 04:19:00,
2013-01-23 23:20:00,48.2,42.0,30.36,NW,315,0.0,0.0,79,0.00,,---,0.00,VWS V14.01,2013-01-24 04:20:00,
2013-01-23 23:21:00,48.2,42.0,30.36,NW,315,0.0,0.0,79,0.00,,---,0.00,VWS V14.01,2013-01-24 04:21:00,
2013-01-23 23:22:00,48.0,41.8,30.36,NW,315,0.0,0.0,79,0.00,,---,0.00,VWS V14.01,2013-01-24 04:22:00,
2013-01-23 23:23:00,46.2,42.3,30.33,NNW,338,0.0,0.0,86,0.00,,---,0.00,VWS V14.01,2013-01-24 04:23:00,
2013-01-23 23:24:00,47.8,41.7,30.36,NW,315,0.0,0.0,79,0.00,,---,0.00,VWS V14.01,2013-01-24 04:24:00,
2013-01-23 23:25:00,47.8,41.7,30.36,NW,315,0.0,0.0,79,0.00,,---,0.00,VWS V14.01,2013-01-24 04:25:00,
2013-01-23 23:26:00,47.7,41.5,30.36,NW,315,0.0,0.0,79,0.00,,---,0.00,VWS V14.01,2013-01-24 04:26:00,
2013-01-23 23:27:00,47.7,41.8,30.36,NW,315,0.0,0.0,80,0.00,,---,0.00,VWS V14.01,2013-01-24 04:27:00,
2013-01-23 23:28:00,45.7,41.7,30.33,NNW,338,0.0,0.0,86,0.00,,---,0.00,VWS V14.01,2013-01-24 04:28:00,
2013-01-23 23:29:00,47.5,41.6,30.36,NW,315,0.0,0.0,80,0.00,,---,0.00,VWS V14.01,2013-01-24 04:29:00,
2013-01-23 23:30:00,47.5,41.6,30.36,NW,315,0.0,0.0,80,0.00,,---,0.00,VWS V14.01,2013-01-24 04:30:00,
2013-01-23 23:31:00,47.5,42.0,30.36,NW,315,0.0,0.0,81,0.00,,---,0.00,VWS V14.01,2013-01-24 04:31:00,
2013-01-23 23:32:00,47.5,42.0,30.36,NW,315,0.0,0.0,81,0.00,,---,0.00,VWS V14.01,2013-01-24 04:32:00,
2013-01-23 23:33:00,45.5,41.9,30.33,NNW,338,0.0,0.0,87,0.00,,---,0.00,VWS V14.01,2013-01-24 04:33:00,
2013-01-23 23:34:00,47.5,42.3,30.33,NW,315,0.0,0.0,82,0.00,,---,0.00,VWS V14.01,2013-01-24 04:34:00,
2013-01-23 23:35:00,47.5,42.3,30.33,NW,315,0.0,0.0,82,0.00,,---,0.00,VWS V14.01,2013-01-24 04:35:00,
2013-01-23 23:36:00,47.5,42.3,30.33,NW,315,0.0,0.0,82,0.00,,---,0.00,VWS V14.01,2013-01-24 04:36:00,
2013-01-23 23:37:00,47.5,42.3,30.33,NW,315,0.0,0.0,82,0.00,,---,0.00,VWS V14.01,2013-01-24 04:37:00,
2013-01-23 23:38:00,45.5,41.9,30.33,NNW,338,0.0,0.0,87,0.00,,---,0.00,VWS V14.01,2013-01-24 04:38:00,
2013-01-23 23:39:00,47.7,42.8,30.33,NNW,338,0.0,0.0,83,0.00,,---,0.00,VWS V14.01,2013-01-24 04:39:00,
2013-01-23 23:40:00,47.7,42.8,30.33,NNW,338,0.0,0.0,83,0.00,,---,0.00,VWS V14.01,2013-01-24 04:40:00,
2013-01-23 23:41:00,47.7,42.8,30.33,NNW,338,0.0,0.0,83,0.00,,---,0.00,VWS V14.01,2013-01-24 04:41:00,
2013-01-23 23:42:00,47.8,42.9,30.33,NNW,338,0.0,0.0,83,0.00,,---,0.00,VWS V14.01,2013-01-24 04:42:00,
2013-01-23 23:43:00,45.3,41.7,30.33,NNW,338,0.0,0.0,87,0.00,,---,0.00,VWS V14.01,2013-01-24 04:43:00,
2013-01-23 23:44:00,47.8,43.2,30.33,NNW,338,0.0,0.0,84,0.00,,---,0.00,VWS V14.01,2013-01-24 04:44:00,
2013-01-23 23:45:00,47.8,43.2,30.33,NNW,338,0.0,0.0,84,0.00,,---,0.00,VWS V14.01,2013-01-24 04:45:00,
2013-01-23 23:46:00,47.7,43.1,30.33,NNW,338,0.0,0.0,84,0.00,,---,0.00,VWS V14.01,2013-01-24 04:46:00,
2013-01-23 23:47:00,47.7,43.1,30.33,NNW,338,0.0,0.0,84,0.00,,---,0.00,VWS V14.01,2013-01-24 04:47:00,
2013-01-23 23:48:00,45.3,41.7,30.33,NNW,338,0.0,0.0,87,0.00,,---,0.00,VWS V14.01,2013-01-24 04:48:00,
2013-01-23 23:49:00,47.7,43.1,30.33,NNW,338,0.0,0.0,84,0.00,,---,0.00,VWS V14.01,2013-01-24 04:49:00,
2013-01-23 23:50:00,47.5,42.9,30.33,NNW,338,0.0,0.0,84,0.00,,---,0.00,VWS V14.01,2013-01-24 04:50:00,
2013-01-23 23:51:00,47.5,42.9,30.33,NNW,338,0.0,0.0,84,0.00,,---,0.00,VWS V14.01,2013-01-24 04:51:00,
2013-01-23 23:52:00,47.3,42.7,30.33,NNW,338,0.0,0.0,84,0.00,,---,0.00,VWS V14.01,2013-01-24 04:52:00,
2013-01-23 23:53:00,45.3,41.7,30.33,NNW,338,0.0,0.0,87,0.00,,---,0.00,VWS V14.01,2013-01-24 04:53:00,
2013-01-23 23:54:00,47.3,42.7,30.33,NNW,338,0.0,0.0,84,0.00,,---,0.00,VWS V14.01,2013-01-24 04:54:00,
2013-01-23 23:55:00,47.1,42.5,30.33,NNW,338,0.0,0.0,84,0.00,,---,0.00,VWS V14.01,2013-01-24 04:55:00,
2013-01-23 23:56:00,47.1,42.5,30.33,NNW,338,0.0,0.0,84,0.00,,---,0.00,VWS V14.01,2013-01-24 04:56:00,
2013-01-23 23:57:00,47.1,42.5,30.33,NNW,338,0.0,0.0,84,0.00,,---,0.00,VWS V14.01,2013-01-24 04:57:00,
2013-01-23 23:58:00,45.1,41.5,30.33,NNW,338,0.0,0.0,87,0.00,,---,0.00,VWS V14.01,2013-01-24 04:58:00,
2013-01-23 23:59:00,47.1,42.5,30.33,NNW,338,0.0,0.0,84,0.00,,---,0.00,VWS V14.01,2013-01-24 04:59:00,